<?xml version="1.0" encoding="UTF-8" standalone="no" ?><gpx xmlns="http://www.topografix.com/GPX/1/1" xmlns:gpxx="http://www.garmin.com/xmlschemas/GpxExtensions/v3" xmlns:wptx1="http://www.garmin.com/xmlschemas/WaypointExtension/v1" xmlns:gpxtpx="http://www.garmin.com/xmlschemas/TrackPointExtension/v1" creator="GuideVTT.com" version="1.1" xmlns:xsi="http://www.w3.org/2001/XMLSchema-instance" xsi:schemaLocation="http://www.topografix.com/GPX/1/1 http://www.topografix.com/GPX/1/1/gpx.xsd http://www.garmin.com/xmlschemas/GpxExtensions/v3 http://www8.garmin.com/xmlschemas/GpxExtensionsv3.xsd http://www.garmin.com/xmlschemas/WaypointExtension/v1 http://www8.garmin.com/xmlschemas/WaypointExtensionv1.xsd http://www.garmin.com/xmlschemas/TrackPointExtension/v1 http://www.garmin.com/xmlschemas/TrackPointExtensionv1.xsd">
<metadata><link href="http://www.garmin.com"><text>Garmin International</text></link><time>2013-06-22T15:13:50Z</time></metadata>
<trk><name>montbovon-corjon.gpx</name><extensions><gpxx:TrackExtension><gpxx:DisplayColor>Cyan</gpxx:DisplayColor></gpxx:TrackExtension></extensions><trkseg>
<trkpt lat="46.48592800" lon="7.04322400"><ele>822.377014</ele><time>2010-06-10T12:00:48Z</time></trkpt>
<trkpt lat="46.48593900" lon="7.04309200"><ele>822.484009</ele><time>2010-06-10T12:02:16Z</time></trkpt>
<trkpt lat="46.48603300" lon="7.04307200"><ele>822.916016</ele><time>2010-06-10T12:02:20Z</time></trkpt>
<trkpt lat="46.48608500" lon="7.04308500"><ele>822.976013</ele><time>2010-06-10T12:02:22Z</time></trkpt>
<trkpt lat="46.48616000" lon="7.04298000"><ele>822.849976</ele><time>2010-06-10T12:02:26Z</time></trkpt>
<trkpt lat="46.48617800" lon="7.04290100"><ele>822.715027</ele><time>2010-06-10T12:02:28Z</time></trkpt>
<trkpt lat="46.48614700" lon="7.04277000"><ele>822.809998</ele><time>2010-06-10T12:02:35Z</time></trkpt>
<trkpt lat="46.48614400" lon="7.04276500"><ele>822.794006</ele><time>2010-06-10T12:02:37Z</time></trkpt>
<trkpt lat="46.48610500" lon="7.04265200"><ele>823.057983</ele><time>2010-06-10T12:02:43Z</time></trkpt>
<trkpt lat="46.48594400" lon="7.04249200"><ele>823.177002</ele><time>2010-06-10T12:02:49Z</time></trkpt>
<trkpt lat="46.48569800" lon="7.04227200"><ele>823.424011</ele><time>2010-06-10T12:02:56Z</time></trkpt>
<trkpt lat="46.48542100" lon="7.04201300"><ele>823.734009</ele><time>2010-06-10T12:03:03Z</time></trkpt>
<trkpt lat="46.48508800" lon="7.04159800"><ele>824.30603</ele><time>2010-06-10T12:03:12Z</time></trkpt>
<trkpt lat="46.48471900" lon="7.04113400"><ele>825.421021</ele><time>2010-06-10T12:03:22Z</time></trkpt>
<trkpt lat="46.48440200" lon="7.04073700"><ele>825.955017</ele><time>2010-06-10T12:03:31Z</time></trkpt>
<trkpt lat="46.48400700" lon="7.04022600"><ele>826.939026</ele><time>2010-06-10T12:03:42Z</time></trkpt>
<trkpt lat="46.48369800" lon="7.03972800"><ele>827.189026</ele><time>2010-06-10T12:03:51Z</time></trkpt>
<trkpt lat="46.48346500" lon="7.03926200"><ele>827.682007</ele><time>2010-06-10T12:03:59Z</time></trkpt>
<trkpt lat="46.48318200" lon="7.03871000"><ele>828.174011</ele><time>2010-06-10T12:04:08Z</time></trkpt>
<trkpt lat="46.48294200" lon="7.03826200"><ele>828.812988</ele><time>2010-06-10T12:04:15Z</time></trkpt>
<trkpt lat="46.48278500" lon="7.03803300"><ele>829.109009</ele><time>2010-06-10T12:04:19Z</time></trkpt>
<trkpt lat="46.48231800" lon="7.03765900"><ele>830.017029</ele><time>2010-06-10T12:04:29Z</time></trkpt>
<trkpt lat="46.48193000" lon="7.03753100"><ele>831.021973</ele><time>2010-06-10T12:04:37Z</time></trkpt>
<trkpt lat="46.48144600" lon="7.03738800"><ele>831.969971</ele><time>2010-06-10T12:04:47Z</time></trkpt>
<trkpt lat="46.48110100" lon="7.03715800"><ele>832.820007</ele><time>2010-06-10T12:04:55Z</time></trkpt>
<trkpt lat="46.48075800" lon="7.03679400"><ele>833.935974</ele><time>2010-06-10T12:05:04Z</time></trkpt>
<trkpt lat="46.48046900" lon="7.03645200"><ele>835.059021</ele><time>2010-06-10T12:05:12Z</time></trkpt>
<trkpt lat="46.48010500" lon="7.03603500"><ele>836.096008</ele><time>2010-06-10T12:05:22Z</time></trkpt>
<trkpt lat="46.47978700" lon="7.03565900"><ele>837.146973</ele><time>2010-06-10T12:05:31Z</time></trkpt>
<trkpt lat="46.47942500" lon="7.03525400"><ele>838.348999</ele><time>2010-06-10T12:05:41Z</time></trkpt>
<trkpt lat="46.47910900" lon="7.03493900"><ele>839.424011</ele><time>2010-06-10T12:05:50Z</time></trkpt>
<trkpt lat="46.47882800" lon="7.03474700"><ele>840.344971</ele><time>2010-06-10T12:05:57Z</time></trkpt>
<trkpt lat="46.47845900" lon="7.03464100"><ele>841.039001</ele><time>2010-06-10T12:06:05Z</time></trkpt>
<trkpt lat="46.47807700" lon="7.03459100"><ele>841.656982</ele><time>2010-06-10T12:06:13Z</time></trkpt>
<trkpt lat="46.47778400" lon="7.03456400"><ele>841.89801</ele><time>2010-06-10T12:06:19Z</time></trkpt>
<trkpt lat="46.47744600" lon="7.03449200"><ele>842.549011</ele><time>2010-06-10T12:06:26Z</time></trkpt>
<trkpt lat="46.47699600" lon="7.03442200"><ele>843.400024</ele><time>2010-06-10T12:06:34Z</time></trkpt>
<trkpt lat="46.47660400" lon="7.03440100"><ele>843.987</ele><time>2010-06-10T12:06:41Z</time></trkpt>
<trkpt lat="46.47628000" lon="7.03450800"><ele>844.575989</ele><time>2010-06-10T12:06:47Z</time></trkpt>
<trkpt lat="46.47599600" lon="7.03471200"><ele>845.33197</ele><time>2010-06-10T12:06:53Z</time></trkpt>
<trkpt lat="46.47566200" lon="7.03499300"><ele>845.784973</ele><time>2010-06-10T12:07:01Z</time></trkpt>
<trkpt lat="46.47532000" lon="7.03529400"><ele>847.255981</ele><time>2010-06-10T12:07:10Z</time></trkpt>
<trkpt lat="46.47491500" lon="7.03565000"><ele>848.577026</ele><time>2010-06-10T12:07:21Z</time></trkpt>
<trkpt lat="46.47462500" lon="7.03593900"><ele>850.153992</ele><time>2010-06-10T12:07:30Z</time></trkpt>
<trkpt lat="46.47441800" lon="7.03629600"><ele>850.822998</ele><time>2010-06-10T12:07:38Z</time></trkpt>
<trkpt lat="46.47430600" lon="7.03673200"><ele>851.812012</ele><time>2010-06-10T12:07:46Z</time></trkpt>
<trkpt lat="46.47427100" lon="7.03712600"><ele>852.916016</ele><time>2010-06-10T12:07:53Z</time></trkpt>
<trkpt lat="46.47431300" lon="7.03745700"><ele>853.648987</ele><time>2010-06-10T12:07:59Z</time></trkpt>
<trkpt lat="46.47446100" lon="7.03785700"><ele>854.528015</ele><time>2010-06-10T12:08:07Z</time></trkpt>
<trkpt lat="46.47456800" lon="7.03827200"><ele>856.208008</ele><time>2010-06-10T12:08:16Z</time></trkpt>
<trkpt lat="46.47466300" lon="7.03879700"><ele>857.689026</ele><time>2010-06-10T12:08:27Z</time></trkpt>
<trkpt lat="46.47465900" lon="7.03922400"><ele>858.439026</ele><time>2010-06-10T12:08:35Z</time></trkpt>
<trkpt lat="46.47457400" lon="7.03974400"><ele>858.172974</ele><time>2010-06-10T12:08:44Z</time></trkpt>
<trkpt lat="46.47445500" lon="7.04010500"><ele>857.73999</ele><time>2010-06-10T12:08:50Z</time></trkpt>
<trkpt lat="46.47427400" lon="7.04043900"><ele>856.986023</ele><time>2010-06-10T12:08:55Z</time></trkpt>
<trkpt lat="46.47423200" lon="7.04050100"><ele>856.765991</ele><time>2010-06-10T12:08:56Z</time></trkpt>
<trkpt lat="46.47397800" lon="7.04065400"><ele>856.809021</ele><time>2010-06-10T12:09:01Z</time></trkpt>
<trkpt lat="46.47366700" lon="7.04074200"><ele>855.520996</ele><time>2010-06-10T12:09:05Z</time></trkpt>
<trkpt lat="46.47336000" lon="7.04112000"><ele>854.606995</ele><time>2010-06-10T12:09:10Z</time></trkpt>
<trkpt lat="46.47316800" lon="7.04146300"><ele>853.958008</ele><time>2010-06-10T12:09:14Z</time></trkpt>
<trkpt lat="46.47308400" lon="7.04188000"><ele>853.119019</ele><time>2010-06-10T12:09:18Z</time></trkpt>
<trkpt lat="46.47295400" lon="7.04244000"><ele>853.888</ele><time>2010-06-10T12:09:24Z</time></trkpt>
<trkpt lat="46.47293400" lon="7.04259500"><ele>854.028992</ele><time>2010-06-10T12:09:26Z</time></trkpt>
<trkpt lat="46.47289300" lon="7.04293400"><ele>854.922974</ele><time>2010-06-10T12:09:31Z</time></trkpt>
<trkpt lat="46.47289700" lon="7.04317900"><ele>855.020996</ele><time>2010-06-10T12:09:35Z</time></trkpt>
<trkpt lat="46.47287600" lon="7.04353600"><ele>855.237976</ele><time>2010-06-10T12:09:40Z</time></trkpt>
<trkpt lat="46.47278000" lon="7.04389300"><ele>855.067993</ele><time>2010-06-10T12:09:45Z</time></trkpt>
<trkpt lat="46.47246900" lon="7.04405100"><ele>854.151978</ele><time>2010-06-10T12:09:49Z</time></trkpt>
<trkpt lat="46.47230200" lon="7.04427800"><ele>854.237</ele><time>2010-06-10T12:09:52Z</time></trkpt>
<trkpt lat="46.47226700" lon="7.04436400"><ele>854.302979</ele><time>2010-06-10T12:09:53Z</time></trkpt>
<trkpt lat="46.47212500" lon="7.04479500"><ele>854.690002</ele><time>2010-06-10T12:09:58Z</time></trkpt>
<trkpt lat="46.47192300" lon="7.04505700"><ele>855.28302</ele><time>2010-06-10T12:10:02Z</time></trkpt>
<trkpt lat="46.47187500" lon="7.04507200"><ele>855.664001</ele><time>2010-06-10T12:10:03Z</time></trkpt>
<trkpt lat="46.47170200" lon="7.04510700"><ele>857.718994</ele><time>2010-06-10T12:10:08Z</time></trkpt>
<trkpt lat="46.47161900" lon="7.04518100"><ele>858.557983</ele><time>2010-06-10T12:10:12Z</time></trkpt>
<trkpt lat="46.47151200" lon="7.04529900"><ele>859.590027</ele><time>2010-06-10T12:10:17Z</time></trkpt>
<trkpt lat="46.47141500" lon="7.04539000"><ele>859.890991</ele><time>2010-06-10T12:10:21Z</time></trkpt>
<trkpt lat="46.47128900" lon="7.04557000"><ele>859.885986</ele><time>2010-06-10T12:10:26Z</time></trkpt>
<trkpt lat="46.47110800" lon="7.04576500"><ele>860.559998</ele><time>2010-06-10T12:10:31Z</time></trkpt>
<trkpt lat="46.47091400" lon="7.04579700"><ele>861.007996</ele><time>2010-06-10T12:10:36Z</time></trkpt>
<trkpt lat="46.47067100" lon="7.04577800"><ele>861.245972</ele><time>2010-06-10T12:10:42Z</time></trkpt>
<trkpt lat="46.47063000" lon="7.04576500"><ele>861.354004</ele><time>2010-06-10T12:10:43Z</time></trkpt>
<trkpt lat="46.47036800" lon="7.04565900"><ele>861.914978</ele><time>2010-06-10T12:10:50Z</time></trkpt>
<trkpt lat="46.47017600" lon="7.04566700"><ele>862.965027</ele><time>2010-06-10T12:10:55Z</time></trkpt>
<trkpt lat="46.47001500" lon="7.04572300"><ele>862.742981</ele><time>2010-06-10T12:10:59Z</time></trkpt>
<trkpt lat="46.46984600" lon="7.04577300"><ele>862.640991</ele><time>2010-06-10T12:11:03Z</time></trkpt>
<trkpt lat="46.46971400" lon="7.04580300"><ele>862.330017</ele><time>2010-06-10T12:11:06Z</time></trkpt>
<trkpt lat="46.46958800" lon="7.04584900"><ele>862.200012</ele><time>2010-06-10T12:11:09Z</time></trkpt>
<trkpt lat="46.46946300" lon="7.04591500"><ele>862.13501</ele><time>2010-06-10T12:11:12Z</time></trkpt>
<trkpt lat="46.46923800" lon="7.04599300"><ele>861.567993</ele><time>2010-06-10T12:11:16Z</time></trkpt>
<trkpt lat="46.46890200" lon="7.04627600"><ele>860.698975</ele><time>2010-06-10T12:11:21Z</time></trkpt>
<trkpt lat="46.46873400" lon="7.04650900"><ele>860.062012</ele><time>2010-06-10T12:11:24Z</time></trkpt>
<trkpt lat="46.46845900" lon="7.04673100"><ele>860.215027</ele><time>2010-06-10T12:11:28Z</time></trkpt>
<trkpt lat="46.46824400" lon="7.04683100"><ele>858.067993</ele><time>2010-06-10T12:11:31Z</time></trkpt>
<trkpt lat="46.46792800" lon="7.04699600"><ele>857.843994</ele><time>2010-06-10T12:11:36Z</time></trkpt>
<trkpt lat="46.46755400" lon="7.04726900"><ele>857.651001</ele><time>2010-06-10T12:11:43Z</time></trkpt>
<trkpt lat="46.46710200" lon="7.04757300"><ele>857.130981</ele><time>2010-06-10T12:11:52Z</time></trkpt>
<trkpt lat="46.46688200" lon="7.04764200"><ele>857.374023</ele><time>2010-06-10T12:11:57Z</time></trkpt>
<trkpt lat="46.46683500" lon="7.04764900"><ele>857.367981</ele><time>2010-06-10T12:11:58Z</time></trkpt>
<trkpt lat="46.46661100" lon="7.04771200"><ele>857.322021</ele><time>2010-06-10T12:12:03Z</time></trkpt>
<trkpt lat="46.46640600" lon="7.04783300"><ele>857.822998</ele><time>2010-06-10T12:12:08Z</time></trkpt>
<trkpt lat="46.46617000" lon="7.04804100"><ele>858.791016</ele><time>2010-06-10T12:12:15Z</time></trkpt>
<trkpt lat="46.46605400" lon="7.04810400"><ele>859.517029</ele><time>2010-06-10T12:12:19Z</time></trkpt>
<trkpt lat="46.46600700" lon="7.04801200"><ele>860.598022</ele><time>2010-06-10T12:12:23Z</time></trkpt>
<trkpt lat="46.46604100" lon="7.04796100"><ele>861.513</ele><time>2010-06-10T12:12:25Z</time></trkpt>
<trkpt lat="46.46615000" lon="7.04782800"><ele>862.763</ele><time>2010-06-10T12:12:31Z</time></trkpt>
<trkpt lat="46.46623500" lon="7.04772900"><ele>863.815002</ele><time>2010-06-10T12:12:36Z</time></trkpt>
<trkpt lat="46.46631300" lon="7.04764200"><ele>864.867981</ele><time>2010-06-10T12:12:41Z</time></trkpt>
<trkpt lat="46.46639900" lon="7.04752000"><ele>866.039001</ele><time>2010-06-10T12:12:47Z</time></trkpt>
<trkpt lat="46.46649300" lon="7.04740500"><ele>867.708008</ele><time>2010-06-10T12:12:53Z</time></trkpt>
<trkpt lat="46.46661800" lon="7.04724400"><ele>869.270996</ele><time>2010-06-10T12:13:01Z</time></trkpt>
<trkpt lat="46.46671200" lon="7.04712400"><ele>870.520996</ele><time>2010-06-10T12:13:07Z</time></trkpt>
<trkpt lat="46.46680500" lon="7.04703600"><ele>871.960022</ele><time>2010-06-10T12:13:13Z</time></trkpt>
<trkpt lat="46.46695600" lon="7.04684800"><ele>873.718994</ele><time>2010-06-10T12:13:21Z</time></trkpt>
<trkpt lat="46.46705500" lon="7.04675000"><ele>874.177979</ele><time>2010-06-10T12:13:26Z</time></trkpt>
<trkpt lat="46.46719700" lon="7.04654200"><ele>873.98999</ele><time>2010-06-10T12:13:33Z</time></trkpt>
<trkpt lat="46.46728800" lon="7.04633500"><ele>874.481018</ele><time>2010-06-10T12:13:39Z</time></trkpt>
<trkpt lat="46.46739500" lon="7.04615700"><ele>875.005005</ele><time>2010-06-10T12:13:45Z</time></trkpt>
<trkpt lat="46.46745900" lon="7.04606400"><ele>875.763</ele><time>2010-06-10T12:13:49Z</time></trkpt>
<trkpt lat="46.46752200" lon="7.04595400"><ele>874.604004</ele><time>2010-06-10T12:13:53Z</time></trkpt>
<trkpt lat="46.46761400" lon="7.04581000"><ele>874.72699</ele><time>2010-06-10T12:13:58Z</time></trkpt>
<trkpt lat="46.46764500" lon="7.04563900"><ele>874.570984</ele><time>2010-06-10T12:14:03Z</time></trkpt>
<trkpt lat="46.46767500" lon="7.04543300"><ele>874.796021</ele><time>2010-06-10T12:14:09Z</time></trkpt>
<trkpt lat="46.46777800" lon="7.04530800"><ele>875.111023</ele><time>2010-06-10T12:14:14Z</time></trkpt>
<trkpt lat="46.46802500" lon="7.04520300"><ele>875.888977</ele><time>2010-06-10T12:14:22Z</time></trkpt>
<trkpt lat="46.46826600" lon="7.04515300"><ele>876.255005</ele><time>2010-06-10T12:14:30Z</time></trkpt>
<trkpt lat="46.46853700" lon="7.04510100"><ele>876.567993</ele><time>2010-06-10T12:14:39Z</time></trkpt>
<trkpt lat="46.46873900" lon="7.04506100"><ele>876.914978</ele><time>2010-06-10T12:14:46Z</time></trkpt>
<trkpt lat="46.46893500" lon="7.04500600"><ele>877.692993</ele><time>2010-06-10T12:14:53Z</time></trkpt>
<trkpt lat="46.46907500" lon="7.04491900"><ele>878.627991</ele><time>2010-06-10T12:14:59Z</time></trkpt>
<trkpt lat="46.46916700" lon="7.04474700"><ele>879.612976</ele><time>2010-06-10T12:15:05Z</time></trkpt>
<trkpt lat="46.46922800" lon="7.04457900"><ele>880.601013</ele><time>2010-06-10T12:15:11Z</time></trkpt>
<trkpt lat="46.46931500" lon="7.04435600"><ele>881.978027</ele><time>2010-06-10T12:15:20Z</time></trkpt>
<trkpt lat="46.46935000" lon="7.04428100"><ele>883.405029</ele><time>2010-06-10T12:15:25Z</time></trkpt>
<trkpt lat="46.46935300" lon="7.04427200"><ele>883.653992</ele><time>2010-06-10T12:15:26Z</time></trkpt>
<trkpt lat="46.46940800" lon="7.04421500"><ele>884.744019</ele><time>2010-06-10T12:15:32Z</time></trkpt>
<trkpt lat="46.46957100" lon="7.04402600"><ele>886.73999</ele><time>2010-06-10T12:15:43Z</time></trkpt>
<trkpt lat="46.46971100" lon="7.04391500"><ele>887.953979</ele><time>2010-06-10T12:15:51Z</time></trkpt>
<trkpt lat="46.46981000" lon="7.04383500"><ele>889.317017</ele><time>2010-06-10T12:15:58Z</time></trkpt>
<trkpt lat="46.46989800" lon="7.04375900"><ele>890.846985</ele><time>2010-06-10T12:16:05Z</time></trkpt>
<trkpt lat="46.47000700" lon="7.04363200"><ele>892.445007</ele><time>2010-06-10T12:16:13Z</time></trkpt>
<trkpt lat="46.47009600" lon="7.04354500"><ele>893.866028</ele><time>2010-06-10T12:16:20Z</time></trkpt>
<trkpt lat="46.47018500" lon="7.04345100"><ele>895.151001</ele><time>2010-06-10T12:16:26Z</time></trkpt>
<trkpt lat="46.47027800" lon="7.04334600"><ele>896.434021</ele><time>2010-06-10T12:16:33Z</time></trkpt>
<trkpt lat="46.47035200" lon="7.04325500"><ele>897.507996</ele><time>2010-06-10T12:16:40Z</time></trkpt>
<trkpt lat="46.47043400" lon="7.04316000"><ele>898.916016</ele><time>2010-06-10T12:16:47Z</time></trkpt>
<trkpt lat="46.47051800" lon="7.04305400"><ele>900.429993</ele><time>2010-06-10T12:16:54Z</time></trkpt>
<trkpt lat="46.47058400" lon="7.04290800"><ele>901.773987</ele><time>2010-06-10T12:17:02Z</time></trkpt>
<trkpt lat="46.47062300" lon="7.04275400"><ele>903.744019</ele><time>2010-06-10T12:17:10Z</time></trkpt>
<trkpt lat="46.47067800" lon="7.04256200"><ele>905.650024</ele><time>2010-06-10T12:17:19Z</time></trkpt>
<trkpt lat="46.47072800" lon="7.04236300"><ele>907.776001</ele><time>2010-06-10T12:17:29Z</time></trkpt>
<trkpt lat="46.47076100" lon="7.04225700"><ele>908.689026</ele><time>2010-06-10T12:17:35Z</time></trkpt>
<trkpt lat="46.47082400" lon="7.04210100"><ele>910.208984</ele><time>2010-06-10T12:17:43Z</time></trkpt>
<trkpt lat="46.47088800" lon="7.04196600"><ele>911.947998</ele><time>2010-06-10T12:17:51Z</time></trkpt>
<trkpt lat="46.47093700" lon="7.04182800"><ele>913.578003</ele><time>2010-06-10T12:17:59Z</time></trkpt>
<trkpt lat="46.47100400" lon="7.04167900"><ele>914.979004</ele><time>2010-06-10T12:18:07Z</time></trkpt>
<trkpt lat="46.47102900" lon="7.04151300"><ele>916.567993</ele><time>2010-06-10T12:18:14Z</time></trkpt>
<trkpt lat="46.47108400" lon="7.04128900"><ele>918.692993</ele><time>2010-06-10T12:18:24Z</time></trkpt>
<trkpt lat="46.47112500" lon="7.04111600"><ele>920.198975</ele><time>2010-06-10T12:18:32Z</time></trkpt>
<trkpt lat="46.47115400" lon="7.04089100"><ele>922.036011</ele><time>2010-06-10T12:18:41Z</time></trkpt>
<trkpt lat="46.47113000" lon="7.04069100"><ele>923.560974</ele><time>2010-06-10T12:18:49Z</time></trkpt>
<trkpt lat="46.47103300" lon="7.04070300"><ele>924.580994</ele><time>2010-06-10T12:18:56Z</time></trkpt>
<trkpt lat="46.47100600" lon="7.04083300"><ele>925.851013</ele><time>2010-06-10T12:19:02Z</time></trkpt>
<trkpt lat="46.47098400" lon="7.04092100"><ele>926.432007</ele><time>2010-06-10T12:19:06Z</time></trkpt>
<trkpt lat="46.47095300" lon="7.04101900"><ele>927.117981</ele><time>2010-06-10T12:19:12Z</time></trkpt>
<trkpt lat="46.47095400" lon="7.04100900"><ele>927.112976</ele><time>2010-06-10T12:19:15Z</time></trkpt>
<trkpt lat="46.47099400" lon="7.04100600"><ele>927.163025</ele><time>2010-06-10T12:20:17Z</time></trkpt>
<trkpt lat="46.47104000" lon="7.04120400"><ele>928.664978</ele><time>2010-06-10T12:21:19Z</time></trkpt>
<trkpt lat="46.47104100" lon="7.04123500"><ele>928.90802</ele><time>2010-06-10T12:21:21Z</time></trkpt>
<trkpt lat="46.47102200" lon="7.04129000"><ele>929.554993</ele><time>2010-06-10T12:21:25Z</time></trkpt>
<trkpt lat="46.47101800" lon="7.04130100"><ele>929.685974</ele><time>2010-06-10T12:21:26Z</time></trkpt>
<trkpt lat="46.47092400" lon="7.04136700"><ele>930.968018</ele><time>2010-06-10T12:21:32Z</time></trkpt>
<trkpt lat="46.47087400" lon="7.04138700"><ele>931.231018</ele><time>2010-06-10T12:21:34Z</time></trkpt>
<trkpt lat="46.47073800" lon="7.04145500"><ele>932.700012</ele><time>2010-06-10T12:21:41Z</time></trkpt>
<trkpt lat="46.47066000" lon="7.04151100"><ele>933.732971</ele><time>2010-06-10T12:21:46Z</time></trkpt>
<trkpt lat="46.47051500" lon="7.04155900"><ele>934.354004</ele><time>2010-06-10T12:21:50Z</time></trkpt>
<trkpt lat="46.47042300" lon="7.04162600"><ele>935.375</ele><time>2010-06-10T12:21:56Z</time></trkpt>
<trkpt lat="46.47032000" lon="7.04166900"><ele>936.888977</ele><time>2010-06-10T12:22:03Z</time></trkpt>
<trkpt lat="46.47026200" lon="7.04166500"><ele>937.481018</ele><time>2010-06-10T12:22:06Z</time></trkpt>
<trkpt lat="46.47015800" lon="7.04163100"><ele>938.697998</ele><time>2010-06-10T12:22:12Z</time></trkpt>
<trkpt lat="46.47009200" lon="7.04158000"><ele>939.794983</ele><time>2010-06-10T12:22:19Z</time></trkpt>
<trkpt lat="46.47000900" lon="7.04154200"><ele>940.914001</ele><time>2010-06-10T12:22:25Z</time></trkpt>
<trkpt lat="46.46993200" lon="7.04152700"><ele>941.879028</ele><time>2010-06-10T12:22:30Z</time></trkpt>
<trkpt lat="46.46985200" lon="7.04151900"><ele>942.867981</ele><time>2010-06-10T12:22:35Z</time></trkpt>
<trkpt lat="46.46981800" lon="7.04150800"><ele>944.109009</ele><time>2010-06-10T12:22:42Z</time></trkpt>
<trkpt lat="46.46982700" lon="7.04151800"><ele>945.252991</ele><time>2010-06-10T12:22:46Z</time></trkpt>
<trkpt lat="46.46980600" lon="7.04154900"><ele>945.869995</ele><time>2010-06-10T12:22:50Z</time></trkpt>
<trkpt lat="46.46979100" lon="7.04155700"><ele>946.411987</ele><time>2010-06-10T12:22:52Z</time></trkpt>
<trkpt lat="46.46969900" lon="7.04158800"><ele>947.234009</ele><time>2010-06-10T12:22:57Z</time></trkpt>
<trkpt lat="46.46962500" lon="7.04159800"><ele>948.445984</ele><time>2010-06-10T12:23:01Z</time></trkpt>
<trkpt lat="46.46956400" lon="7.04160700"><ele>949.107971</ele><time>2010-06-10T12:23:05Z</time></trkpt>
<trkpt lat="46.46945900" lon="7.04162600"><ele>950.723022</ele><time>2010-06-10T12:23:12Z</time></trkpt>
<trkpt lat="46.46938400" lon="7.04167600"><ele>951.791992</ele><time>2010-06-10T12:23:17Z</time></trkpt>
<trkpt lat="46.46925600" lon="7.04166500"><ele>952.81897</ele><time>2010-06-10T12:23:23Z</time></trkpt>
<trkpt lat="46.46908500" lon="7.04168500"><ele>954.278992</ele><time>2010-06-10T12:23:30Z</time></trkpt>
<trkpt lat="46.46896900" lon="7.04171700"><ele>955.531006</ele><time>2010-06-10T12:23:37Z</time></trkpt>
<trkpt lat="46.46885000" lon="7.04175800"><ele>957.065979</ele><time>2010-06-10T12:23:43Z</time></trkpt>
<trkpt lat="46.46872800" lon="7.04177600"><ele>958.448975</ele><time>2010-06-10T12:23:49Z</time></trkpt>
<trkpt lat="46.46861000" lon="7.04179300"><ele>959.421021</ele><time>2010-06-10T12:23:54Z</time></trkpt>
<trkpt lat="46.46849600" lon="7.04182900"><ele>960.111023</ele><time>2010-06-10T12:23:59Z</time></trkpt>
<trkpt lat="46.46845000" lon="7.04190900"><ele>961.491028</ele><time>2010-06-10T12:24:06Z</time></trkpt>
<trkpt lat="46.46843500" lon="7.04196500"><ele>962.29303</ele><time>2010-06-10T12:24:10Z</time></trkpt>
<trkpt lat="46.46833100" lon="7.04201900"><ele>963.159973</ele><time>2010-06-10T12:24:16Z</time></trkpt>
<trkpt lat="46.46833000" lon="7.04209100"><ele>963.982971</ele><time>2010-06-10T12:24:22Z</time></trkpt>
<trkpt lat="46.46821700" lon="7.04213000"><ele>964.86499</ele><time>2010-06-10T12:24:26Z</time></trkpt>
<trkpt lat="46.46808000" lon="7.04219400"><ele>965.580994</ele><time>2010-06-10T12:24:32Z</time></trkpt>
<trkpt lat="46.46793400" lon="7.04227400"><ele>966.669983</ele><time>2010-06-10T12:24:38Z</time></trkpt>
<trkpt lat="46.46787600" lon="7.04233600"><ele>967.653015</ele><time>2010-06-10T12:24:44Z</time></trkpt>
<trkpt lat="46.46785200" lon="7.04237300"><ele>968.448975</ele><time>2010-06-10T12:24:49Z</time></trkpt>
<trkpt lat="46.46771800" lon="7.04242200"><ele>969.718018</ele><time>2010-06-10T12:24:56Z</time></trkpt>
<trkpt lat="46.46768100" lon="7.04245600"><ele>970.632996</ele><time>2010-06-10T12:25:01Z</time></trkpt>
<trkpt lat="46.46757100" lon="7.04248500"><ele>971.960022</ele><time>2010-06-10T12:25:08Z</time></trkpt>
<trkpt lat="46.46743900" lon="7.04251100"><ele>972.997009</ele><time>2010-06-10T12:25:14Z</time></trkpt>
<trkpt lat="46.46731800" lon="7.04262200"><ele>973.245972</ele><time>2010-06-10T12:25:20Z</time></trkpt>
<trkpt lat="46.46728700" lon="7.04278900"><ele>973.958008</ele><time>2010-06-10T12:25:26Z</time></trkpt>
<trkpt lat="46.46725100" lon="7.04293000"><ele>975.153992</ele><time>2010-06-10T12:25:32Z</time></trkpt>
<trkpt lat="46.46719300" lon="7.04305000"><ele>976.629028</ele><time>2010-06-10T12:25:38Z</time></trkpt>
<trkpt lat="46.46707800" lon="7.04323800"><ele>978.320007</ele><time>2010-06-10T12:25:47Z</time></trkpt>
<trkpt lat="46.46695100" lon="7.04331900"><ele>979.607971</ele><time>2010-06-10T12:25:53Z</time></trkpt>
<trkpt lat="46.46690000" lon="7.04341200"><ele>980.825989</ele><time>2010-06-10T12:25:59Z</time></trkpt>
<trkpt lat="46.46677800" lon="7.04347400"><ele>982.383972</ele><time>2010-06-10T12:26:05Z</time></trkpt>
<trkpt lat="46.46668000" lon="7.04354400"><ele>983.43103</ele><time>2010-06-10T12:26:11Z</time></trkpt>
<trkpt lat="46.46657000" lon="7.04359800"><ele>984.643005</ele><time>2010-06-10T12:26:16Z</time></trkpt>
<trkpt lat="46.46643200" lon="7.04368000"><ele>986.557007</ele><time>2010-06-10T12:26:24Z</time></trkpt>
<trkpt lat="46.46631600" lon="7.04373600"><ele>987.895996</ele><time>2010-06-10T12:26:30Z</time></trkpt>
<trkpt lat="46.46616900" lon="7.04379700"><ele>989.349976</ele><time>2010-06-10T12:26:37Z</time></trkpt>
<trkpt lat="46.46607900" lon="7.04384500"><ele>990.596008</ele><time>2010-06-10T12:26:43Z</time></trkpt>
<trkpt lat="46.46597900" lon="7.04391200"><ele>992.187012</ele><time>2010-06-10T12:26:50Z</time></trkpt>
<trkpt lat="46.46590300" lon="7.04398100"><ele>993.901978</ele><time>2010-06-10T12:26:57Z</time></trkpt>
<trkpt lat="46.46581400" lon="7.04405100"><ele>995.901001</ele><time>2010-06-10T12:27:03Z</time></trkpt>
<trkpt lat="46.46574200" lon="7.04412700"><ele>997.755005</ele><time>2010-06-10T12:27:09Z</time></trkpt>
<trkpt lat="46.46569800" lon="7.04416700"><ele>998.504028</ele><time>2010-06-10T12:27:13Z</time></trkpt>
<trkpt lat="46.46564700" lon="7.04419300"><ele>999.052979</ele><time>2010-06-10T12:27:18Z</time></trkpt>
<trkpt lat="46.46555100" lon="7.04421100"><ele>1000.315979</ele><time>2010-06-10T12:27:25Z</time></trkpt>
<trkpt lat="46.46554500" lon="7.04425200"><ele>1000.479004</ele><time>2010-06-10T12:27:29Z</time></trkpt>
<trkpt lat="46.46554900" lon="7.04425700"><ele>1000.491028</ele><time>2010-06-10T12:27:30Z</time></trkpt>
<trkpt lat="46.46554300" lon="7.04431700"><ele>1001</ele><time>2010-06-10T12:27:44Z</time></trkpt>
<trkpt lat="46.46554500" lon="7.04432800"><ele>1001.106995</ele><time>2010-06-10T12:27:46Z</time></trkpt>
<trkpt lat="46.46551600" lon="7.04436400"><ele>1001.56897</ele><time>2010-06-10T12:28:05Z</time></trkpt>
<trkpt lat="46.46544400" lon="7.04439300"><ele>1002.41803</ele><time>2010-06-10T12:28:12Z</time></trkpt>
<trkpt lat="46.46541900" lon="7.04443200"><ele>1002.901001</ele><time>2010-06-10T12:28:17Z</time></trkpt>
<trkpt lat="46.46541300" lon="7.04444700"><ele>1003.593018</ele><time>2010-06-10T12:28:21Z</time></trkpt>
<trkpt lat="46.46544800" lon="7.04448000"><ele>1004.195007</ele><time>2010-06-10T12:28:31Z</time></trkpt>
<trkpt lat="46.46542500" lon="7.04449200"><ele>1005.223999</ele><time>2010-06-10T12:28:36Z</time></trkpt>
<trkpt lat="46.46541200" lon="7.04450900"><ele>1005.51001</ele><time>2010-06-10T12:28:39Z</time></trkpt>
<trkpt lat="46.46539200" lon="7.04455800"><ele>1005.661987</ele><time>2010-06-10T12:28:45Z</time></trkpt>
<trkpt lat="46.46537100" lon="7.04458900"><ele>1005.786011</ele><time>2010-06-10T12:28:49Z</time></trkpt>
<trkpt lat="46.46534900" lon="7.04461000"><ele>1006.234009</ele><time>2010-06-10T12:28:53Z</time></trkpt>
<trkpt lat="46.46531400" lon="7.04466300"><ele>1006.10498</ele><time>2010-06-10T12:29:00Z</time></trkpt>
<trkpt lat="46.46531800" lon="7.04467200"><ele>1005.499023</ele><time>2010-06-10T12:29:02Z</time></trkpt>
<trkpt lat="46.46500400" lon="7.04457600"><ele>1005.390015</ele><time>2010-06-10T12:29:22Z</time></trkpt>
<trkpt lat="46.46497800" lon="7.04465100"><ele>1005.583008</ele><time>2010-06-10T12:29:46Z</time></trkpt>
<trkpt lat="46.46490400" lon="7.04473300"><ele>1006.789978</ele><time>2010-06-10T12:29:52Z</time></trkpt>
<trkpt lat="46.46483400" lon="7.04480200"><ele>1007.844971</ele><time>2010-06-10T12:29:58Z</time></trkpt>
<trkpt lat="46.46474600" lon="7.04489200"><ele>1008.830017</ele><time>2010-06-10T12:30:05Z</time></trkpt>
<trkpt lat="46.46463500" lon="7.04496400"><ele>1009.94397</ele><time>2010-06-10T12:30:11Z</time></trkpt>
<trkpt lat="46.46456600" lon="7.04501600"><ele>1010.695007</ele><time>2010-06-10T12:30:16Z</time></trkpt>
<trkpt lat="46.46449600" lon="7.04503900"><ele>1011.510986</ele><time>2010-06-10T12:30:21Z</time></trkpt>
<trkpt lat="46.46443800" lon="7.04511600"><ele>1012.646973</ele><time>2010-06-10T12:30:28Z</time></trkpt>
<trkpt lat="46.46437900" lon="7.04518100"><ele>1013.374023</ele><time>2010-06-10T12:30:34Z</time></trkpt>
<trkpt lat="46.46432600" lon="7.04525600"><ele>1014.301025</ele><time>2010-06-10T12:30:40Z</time></trkpt>
<trkpt lat="46.46424600" lon="7.04535800"><ele>1015.547974</ele><time>2010-06-10T12:30:48Z</time></trkpt>
<trkpt lat="46.46422500" lon="7.04537300"><ele>1015.89801</ele><time>2010-06-10T12:30:50Z</time></trkpt>
<trkpt lat="46.46414800" lon="7.04546600"><ele>1017.393982</ele><time>2010-06-10T12:30:58Z</time></trkpt>
<trkpt lat="46.46403500" lon="7.04554400"><ele>1018.875</ele><time>2010-06-10T12:31:06Z</time></trkpt>
<trkpt lat="46.46392200" lon="7.04559300"><ele>1020.111023</ele><time>2010-06-10T12:31:13Z</time></trkpt>
<trkpt lat="46.46381800" lon="7.04564900"><ele>1021.359985</ele><time>2010-06-10T12:31:20Z</time></trkpt>
<trkpt lat="46.46374500" lon="7.04569600"><ele>1022.439026</ele><time>2010-06-10T12:31:25Z</time></trkpt>
<trkpt lat="46.46363200" lon="7.04580500"><ele>1023.781982</ele><time>2010-06-10T12:31:33Z</time></trkpt>
<trkpt lat="46.46360700" lon="7.04584000"><ele>1023.942017</ele><time>2010-06-10T12:31:35Z</time></trkpt>
<trkpt lat="46.46356200" lon="7.04587400"><ele>1024.487061</ele><time>2010-06-10T12:31:40Z</time></trkpt>
<trkpt lat="46.46348000" lon="7.04593600"><ele>1025.610962</ele><time>2010-06-10T12:31:47Z</time></trkpt>
<trkpt lat="46.46338500" lon="7.04598500"><ele>1026.459961</ele><time>2010-06-10T12:31:55Z</time></trkpt>
<trkpt lat="46.46337300" lon="7.04599200"><ele>1026.491943</ele><time>2010-06-10T12:31:56Z</time></trkpt>
<trkpt lat="46.46321300" lon="7.04600900"><ele>1026.55603</ele><time>2010-06-10T12:32:04Z</time></trkpt>
<trkpt lat="46.46299600" lon="7.04602600"><ele>1027.188965</ele><time>2010-06-10T12:32:26Z</time></trkpt>
<trkpt lat="46.46298800" lon="7.04613700"><ele>1028.258057</ele><time>2010-06-10T12:32:32Z</time></trkpt>
<trkpt lat="46.46300700" lon="7.04622000"><ele>1029.69397</ele><time>2010-06-10T12:32:38Z</time></trkpt>
<trkpt lat="46.46290100" lon="7.04632700"><ele>1031.161011</ele><time>2010-06-10T12:32:46Z</time></trkpt>
<trkpt lat="46.46281700" lon="7.04643400"><ele>1032.292969</ele><time>2010-06-10T12:32:52Z</time></trkpt>
<trkpt lat="46.46272200" lon="7.04656700"><ele>1033.646973</ele><time>2010-06-10T12:32:59Z</time></trkpt>
<trkpt lat="46.46262900" lon="7.04667800"><ele>1034.449951</ele><time>2010-06-10T12:33:05Z</time></trkpt>
<trkpt lat="46.46253500" lon="7.04676300"><ele>1034.932007</ele><time>2010-06-10T12:33:11Z</time></trkpt>
<trkpt lat="46.46245000" lon="7.04688300"><ele>1035.07605</ele><time>2010-06-10T12:33:17Z</time></trkpt>
<trkpt lat="46.46244800" lon="7.04690300"><ele>1035.119019</ele><time>2010-06-10T12:33:18Z</time></trkpt>
<trkpt lat="46.46246500" lon="7.04709900"><ele>1035.706055</ele><time>2010-06-10T12:33:25Z</time></trkpt>
<trkpt lat="46.46245400" lon="7.04736000"><ele>1036.833008</ele><time>2010-06-10T12:33:34Z</time></trkpt>
<trkpt lat="46.46235600" lon="7.04759700"><ele>1037.494019</ele><time>2010-06-10T12:33:42Z</time></trkpt>
<trkpt lat="46.46231700" lon="7.04781800"><ele>1038.332031</ele><time>2010-06-10T12:33:49Z</time></trkpt>
<trkpt lat="46.46226600" lon="7.04804000"><ele>1039.175049</ele><time>2010-06-10T12:33:55Z</time></trkpt>
<trkpt lat="46.46223900" lon="7.04825200"><ele>1039.600952</ele><time>2010-06-10T12:34:01Z</time></trkpt>
<trkpt lat="46.46224000" lon="7.04842300"><ele>1040.149048</ele><time>2010-06-10T12:34:06Z</time></trkpt>
<trkpt lat="46.46250300" lon="7.04872100"><ele>1041.185059</ele><time>2010-06-10T12:34:15Z</time></trkpt>
<trkpt lat="46.46279800" lon="7.04882900"><ele>1040.840942</ele><time>2010-06-10T12:34:20Z</time></trkpt>
<trkpt lat="46.46282500" lon="7.04884400"><ele>1041.05603</ele><time>2010-06-10T12:34:22Z</time></trkpt>
<trkpt lat="46.46286100" lon="7.04895800"><ele>1040.91394</ele><time>2010-06-10T12:34:33Z</time></trkpt>
<trkpt lat="46.46267600" lon="7.04914000"><ele>1039.932983</ele><time>2010-06-10T12:34:40Z</time></trkpt>
<trkpt lat="46.46249700" lon="7.04925900"><ele>1038.467041</ele><time>2010-06-10T12:34:46Z</time></trkpt>
<trkpt lat="46.46240500" lon="7.04928300"><ele>1038.192017</ele><time>2010-06-10T12:34:49Z</time></trkpt>
<trkpt lat="46.46221600" lon="7.04929300"><ele>1037.572021</ele><time>2010-06-10T12:34:55Z</time></trkpt>
<trkpt lat="46.46210300" lon="7.04934800"><ele>1037.133057</ele><time>2010-06-10T12:34:59Z</time></trkpt>
<trkpt lat="46.46200700" lon="7.04934700"><ele>1036.593018</ele><time>2010-06-10T12:35:02Z</time></trkpt>
<trkpt lat="46.46177200" lon="7.04929500"><ele>1035.93103</ele><time>2010-06-10T12:35:09Z</time></trkpt>
<trkpt lat="46.46165000" lon="7.04930800"><ele>1035.734009</ele><time>2010-06-10T12:35:14Z</time></trkpt>
<trkpt lat="46.46152700" lon="7.04933600"><ele>1035.175049</ele><time>2010-06-10T12:35:20Z</time></trkpt>
<trkpt lat="46.46143100" lon="7.04936000"><ele>1035.000977</ele><time>2010-06-10T12:35:25Z</time></trkpt>
<trkpt lat="46.46140800" lon="7.04937300"><ele>1035.368042</ele><time>2010-06-10T12:35:29Z</time></trkpt>
<trkpt lat="46.46138000" lon="7.04936800"><ele>1035.391968</ele><time>2010-06-10T12:35:34Z</time></trkpt>
<trkpt lat="46.46135500" lon="7.04936500"><ele>1035.256958</ele><time>2010-06-10T12:35:39Z</time></trkpt>
<trkpt lat="46.46132600" lon="7.04936900"><ele>1035.178955</ele><time>2010-06-10T12:35:43Z</time></trkpt>
<trkpt lat="46.46123100" lon="7.04936200"><ele>1033.886963</ele><time>2010-06-10T12:35:48Z</time></trkpt>
<trkpt lat="46.46109800" lon="7.04934900"><ele>1033.171021</ele><time>2010-06-10T12:35:54Z</time></trkpt>
<trkpt lat="46.46097200" lon="7.04933100"><ele>1032.714966</ele><time>2010-06-10T12:35:59Z</time></trkpt>
<trkpt lat="46.46082500" lon="7.04928400"><ele>1032.229004</ele><time>2010-06-10T12:36:05Z</time></trkpt>
<trkpt lat="46.46072800" lon="7.04924300"><ele>1031.769043</ele><time>2010-06-10T12:36:12Z</time></trkpt>
<trkpt lat="46.46072100" lon="7.04924300"><ele>1031.740967</ele><time>2010-06-10T12:36:13Z</time></trkpt>
<trkpt lat="46.46066900" lon="7.04925900"><ele>1031.75</ele><time>2010-06-10T12:36:19Z</time></trkpt>
<trkpt lat="46.46064400" lon="7.04929500"><ele>1031.130981</ele><time>2010-06-10T12:36:25Z</time></trkpt>
<trkpt lat="46.46061900" lon="7.04928800"><ele>1030.886963</ele><time>2010-06-10T12:36:30Z</time></trkpt>
<trkpt lat="46.46057700" lon="7.04925300"><ele>1031.130981</ele><time>2010-06-10T12:36:35Z</time></trkpt>
<trkpt lat="46.46049000" lon="7.04924100"><ele>1030.526978</ele><time>2010-06-10T12:36:45Z</time></trkpt>
<trkpt lat="46.46047700" lon="7.04925800"><ele>1030.186035</ele><time>2010-06-10T12:36:50Z</time></trkpt>
<trkpt lat="46.46048000" lon="7.04924900"><ele>1030.11499</ele><time>2010-06-10T12:36:53Z</time></trkpt>
<trkpt lat="46.46046600" lon="7.04924800"><ele>1030.14502</ele><time>2010-06-10T12:36:55Z</time></trkpt>
<trkpt lat="46.46044200" lon="7.04926500"><ele>1029.324951</ele><time>2010-06-10T12:37:01Z</time></trkpt>
<trkpt lat="46.46043600" lon="7.04928500"><ele>1029.134033</ele><time>2010-06-10T12:37:06Z</time></trkpt>
<trkpt lat="46.46041400" lon="7.04932600"><ele>1028.791016</ele><time>2010-06-10T12:37:13Z</time></trkpt>
<trkpt lat="46.46041700" lon="7.04933600"><ele>1028.727051</ele><time>2010-06-10T12:37:14Z</time></trkpt>
<trkpt lat="46.46046100" lon="7.04938700"><ele>1028.168945</ele><time>2010-06-10T12:37:19Z</time></trkpt>
<trkpt lat="46.46051000" lon="7.04941000"><ele>1028.042969</ele><time>2010-06-10T12:37:27Z</time></trkpt>
<trkpt lat="46.46052800" lon="7.04941100"><ele>1028.172974</ele><time>2010-06-10T12:37:32Z</time></trkpt>
<trkpt lat="46.46052800" lon="7.04943400"><ele>1028.107056</ele><time>2010-06-10T12:37:36Z</time></trkpt>
<trkpt lat="46.46057500" lon="7.04946700"><ele>1027.896973</ele><time>2010-06-10T12:37:43Z</time></trkpt>
<trkpt lat="46.46062400" lon="7.04954600"><ele>1028.505981</ele><time>2010-06-10T12:37:49Z</time></trkpt>
<trkpt lat="46.46063300" lon="7.04958700"><ele>1029.29895</ele><time>2010-06-10T12:37:56Z</time></trkpt>
<trkpt lat="46.46061000" lon="7.04957700"><ele>1029.484009</ele><time>2010-06-10T12:37:59Z</time></trkpt>
<trkpt lat="46.46060300" lon="7.04960800"><ele>1029.589966</ele><time>2010-06-10T12:38:05Z</time></trkpt>
<trkpt lat="46.46061700" lon="7.04961800"><ele>1029.629028</ele><time>2010-06-10T12:38:08Z</time></trkpt>
<trkpt lat="46.46069400" lon="7.04966400"><ele>1029.754028</ele><time>2010-06-10T12:38:16Z</time></trkpt>
<trkpt lat="46.46085200" lon="7.04983800"><ele>1030.814941</ele><time>2010-06-10T12:38:24Z</time></trkpt>
<trkpt lat="46.46088200" lon="7.05001100"><ele>1031.010986</ele><time>2010-06-10T12:38:31Z</time></trkpt>
<trkpt lat="46.46092400" lon="7.05017700"><ele>1030.739014</ele><time>2010-06-10T12:38:37Z</time></trkpt>
<trkpt lat="46.46097100" lon="7.05034600"><ele>1030.550049</ele><time>2010-06-10T12:38:43Z</time></trkpt>
<trkpt lat="46.46106000" lon="7.05051200"><ele>1029.70105</ele><time>2010-06-10T12:38:48Z</time></trkpt>
<trkpt lat="46.46120600" lon="7.05079800"><ele>1027.520996</ele><time>2010-06-10T12:38:55Z</time></trkpt>
<trkpt lat="46.46130600" lon="7.05101500"><ele>1026.050049</ele><time>2010-06-10T12:39:00Z</time></trkpt>
<trkpt lat="46.46141700" lon="7.05127400"><ele>1024.592041</ele><time>2010-06-10T12:39:06Z</time></trkpt>
<trkpt lat="46.46157500" lon="7.05163200"><ele>1022.577026</ele><time>2010-06-10T12:39:14Z</time></trkpt>
<trkpt lat="46.46174700" lon="7.05183000"><ele>1021.044006</ele><time>2010-06-10T12:39:20Z</time></trkpt>
<trkpt lat="46.46176500" lon="7.05203200"><ele>1019.552002</ele><time>2010-06-10T12:39:25Z</time></trkpt>
<trkpt lat="46.46173700" lon="7.05228800"><ele>1018.093994</ele><time>2010-06-10T12:39:30Z</time></trkpt>
<trkpt lat="46.46180100" lon="7.05247800"><ele>1016.635986</ele><time>2010-06-10T12:39:34Z</time></trkpt>
<trkpt lat="46.46197300" lon="7.05285600"><ele>1014.554993</ele><time>2010-06-10T12:39:42Z</time></trkpt>
<trkpt lat="46.46202500" lon="7.05324300"><ele>1013.052979</ele><time>2010-06-10T12:39:49Z</time></trkpt>
<trkpt lat="46.46205600" lon="7.05344100"><ele>1011.843018</ele><time>2010-06-10T12:39:54Z</time></trkpt>
<trkpt lat="46.46205700" lon="7.05344700"><ele>1011.604004</ele><time>2010-06-10T12:39:56Z</time></trkpt>
<trkpt lat="46.46205900" lon="7.05347400"><ele>1012.046021</ele><time>2010-06-10T12:40:01Z</time></trkpt>
<trkpt lat="46.46207100" lon="7.05348200"><ele>1011.643982</ele><time>2010-06-10T12:40:04Z</time></trkpt>
<trkpt lat="46.46206800" lon="7.05348000"><ele>1011.343994</ele><time>2010-06-10T12:40:05Z</time></trkpt>
<trkpt lat="46.46207500" lon="7.05352900"><ele>1010.812012</ele><time>2010-06-10T12:40:22Z</time></trkpt>
<trkpt lat="46.46208300" lon="7.05355200"><ele>1010.677002</ele><time>2010-06-10T12:40:23Z</time></trkpt>
<trkpt lat="46.46213400" lon="7.05366500"><ele>1009.760986</ele><time>2010-06-10T12:40:27Z</time></trkpt>
<trkpt lat="46.46215400" lon="7.05389600"><ele>1009.380981</ele><time>2010-06-10T12:40:31Z</time></trkpt>
<trkpt lat="46.46215700" lon="7.05407200"><ele>1010.223999</ele><time>2010-06-10T12:40:36Z</time></trkpt>
<trkpt lat="46.46214900" lon="7.05425500"><ele>1011.655029</ele><time>2010-06-10T12:40:42Z</time></trkpt>
<trkpt lat="46.46209800" lon="7.05442300"><ele>1012.502991</ele><time>2010-06-10T12:40:47Z</time></trkpt>
<trkpt lat="46.46214400" lon="7.05459000"><ele>1013.445007</ele><time>2010-06-10T12:40:53Z</time></trkpt>
<trkpt lat="46.46221400" lon="7.05472900"><ele>1014.252014</ele><time>2010-06-10T12:40:58Z</time></trkpt>
<trkpt lat="46.46227100" lon="7.05494000"><ele>1015.560974</ele><time>2010-06-10T12:41:06Z</time></trkpt>
<trkpt lat="46.46225000" lon="7.05498100"><ele>1016.013</ele><time>2010-06-10T12:41:08Z</time></trkpt>
<trkpt lat="46.46222200" lon="7.05519500"><ele>1017.822998</ele><time>2010-06-10T12:41:17Z</time></trkpt>
<trkpt lat="46.46226100" lon="7.05534000"><ele>1019</ele><time>2010-06-10T12:41:23Z</time></trkpt>
<trkpt lat="46.46223600" lon="7.05542000"><ele>1019.794006</ele><time>2010-06-10T12:41:27Z</time></trkpt>
<trkpt lat="46.46222900" lon="7.05547300"><ele>1020.518982</ele><time>2010-06-10T12:41:30Z</time></trkpt>
<trkpt lat="46.46218100" lon="7.05562300"><ele>1021.840027</ele><time>2010-06-10T12:41:37Z</time></trkpt>
<trkpt lat="46.46214800" lon="7.05567000"><ele>1022.187012</ele><time>2010-06-10T12:41:39Z</time></trkpt>
<trkpt lat="46.46209400" lon="7.05582900"><ele>1023.525024</ele><time>2010-06-10T12:41:46Z</time></trkpt>
<trkpt lat="46.46207000" lon="7.05589300"><ele>1024.078979</ele><time>2010-06-10T12:41:49Z</time></trkpt>
<trkpt lat="46.46206400" lon="7.05598800"><ele>1024.98999</ele><time>2010-06-10T12:41:54Z</time></trkpt>
<trkpt lat="46.46202400" lon="7.05618500"><ele>1026.770996</ele><time>2010-06-10T12:42:03Z</time></trkpt>
<trkpt lat="46.46198000" lon="7.05635200"><ele>1027.839966</ele><time>2010-06-10T12:42:10Z</time></trkpt>
<trkpt lat="46.46197300" lon="7.05648500"><ele>1028.880005</ele><time>2010-06-10T12:42:16Z</time></trkpt>
<trkpt lat="46.46197900" lon="7.05657200"><ele>1029.437012</ele><time>2010-06-10T12:42:20Z</time></trkpt>
<trkpt lat="46.46197000" lon="7.05673300"><ele>1030.312012</ele><time>2010-06-10T12:42:28Z</time></trkpt>
<trkpt lat="46.46194400" lon="7.05689000"><ele>1031.751953</ele><time>2010-06-10T12:42:36Z</time></trkpt>
<trkpt lat="46.46194400" lon="7.05706700"><ele>1033.047974</ele><time>2010-06-10T12:42:44Z</time></trkpt>
<trkpt lat="46.46199900" lon="7.05722500"><ele>1034.267944</ele><time>2010-06-10T12:42:51Z</time></trkpt>
<trkpt lat="46.46198000" lon="7.05738900"><ele>1035.863037</ele><time>2010-06-10T12:42:59Z</time></trkpt>
<trkpt lat="46.46203600" lon="7.05757800"><ele>1037.41394</ele><time>2010-06-10T12:43:07Z</time></trkpt>
<trkpt lat="46.46204900" lon="7.05776200"><ele>1038.271973</ele><time>2010-06-10T12:43:15Z</time></trkpt>
<trkpt lat="46.46197600" lon="7.05789400"><ele>1039.097046</ele><time>2010-06-10T12:43:22Z</time></trkpt>
<trkpt lat="46.46187000" lon="7.05799500"><ele>1041.152954</ele><time>2010-06-10T12:43:28Z</time></trkpt>
<trkpt lat="46.46173700" lon="7.05814100"><ele>1043.036987</ele><time>2010-06-10T12:43:36Z</time></trkpt>
<trkpt lat="46.46171500" lon="7.05828400"><ele>1043.910034</ele><time>2010-06-10T12:43:43Z</time></trkpt>
<trkpt lat="46.46169400" lon="7.05841700"><ele>1044.972046</ele><time>2010-06-10T12:43:49Z</time></trkpt>
<trkpt lat="46.46169700" lon="7.05856100"><ele>1045.999023</ele><time>2010-06-10T12:43:57Z</time></trkpt>
<trkpt lat="46.46169800" lon="7.05869300"><ele>1047.448975</ele><time>2010-06-10T12:44:04Z</time></trkpt>
<trkpt lat="46.46168800" lon="7.05882200"><ele>1048.376953</ele><time>2010-06-10T12:44:11Z</time></trkpt>
<trkpt lat="46.46167800" lon="7.05896000"><ele>1048.777954</ele><time>2010-06-10T12:44:18Z</time></trkpt>
<trkpt lat="46.46169500" lon="7.05907800"><ele>1049.36499</ele><time>2010-06-10T12:44:24Z</time></trkpt>
<trkpt lat="46.46170300" lon="7.05920500"><ele>1049.805054</ele><time>2010-06-10T12:44:31Z</time></trkpt>
<trkpt lat="46.46172200" lon="7.05927900"><ele>1050.363037</ele><time>2010-06-10T12:44:35Z</time></trkpt>
<trkpt lat="46.46171800" lon="7.05938800"><ele>1051.505981</ele><time>2010-06-10T12:44:41Z</time></trkpt>
<trkpt lat="46.46172200" lon="7.05945900"><ele>1052.362061</ele><time>2010-06-10T12:44:46Z</time></trkpt>
<trkpt lat="46.46172600" lon="7.05953700"><ele>1053.426025</ele><time>2010-06-10T12:44:52Z</time></trkpt>
<trkpt lat="46.46170800" lon="7.05961200"><ele>1054.468018</ele><time>2010-06-10T12:44:57Z</time></trkpt>
<trkpt lat="46.46168300" lon="7.05967800"><ele>1055.375977</ele><time>2010-06-10T12:45:01Z</time></trkpt>
<trkpt lat="46.46168900" lon="7.05975300"><ele>1056.254028</ele><time>2010-06-10T12:45:05Z</time></trkpt>
<trkpt lat="46.46163700" lon="7.05988100"><ele>1057.446045</ele><time>2010-06-10T12:45:11Z</time></trkpt>
<trkpt lat="46.46164300" lon="7.05995900"><ele>1058.123047</ele><time>2010-06-10T12:45:15Z</time></trkpt>
<trkpt lat="46.46158100" lon="7.06012800"><ele>1059.688965</ele><time>2010-06-10T12:45:23Z</time></trkpt>
<trkpt lat="46.46156500" lon="7.06014900"><ele>1059.88501</ele><time>2010-06-10T12:45:24Z</time></trkpt>
<trkpt lat="46.46151500" lon="7.06025500"><ele>1061.047974</ele><time>2010-06-10T12:45:30Z</time></trkpt>
<trkpt lat="46.46146800" lon="7.06032500"><ele>1061.828979</ele><time>2010-06-10T12:45:35Z</time></trkpt>
<trkpt lat="46.46144000" lon="7.06044400"><ele>1062.839966</ele><time>2010-06-10T12:45:42Z</time></trkpt>
<trkpt lat="46.46143300" lon="7.06057200"><ele>1064.155029</ele><time>2010-06-10T12:45:48Z</time></trkpt>
<trkpt lat="46.46145200" lon="7.06075100"><ele>1065.927002</ele><time>2010-06-10T12:45:56Z</time></trkpt>
<trkpt lat="46.46146000" lon="7.06091100"><ele>1067.447021</ele><time>2010-06-10T12:46:03Z</time></trkpt>
<trkpt lat="46.46145500" lon="7.06106300"><ele>1068.755005</ele><time>2010-06-10T12:46:10Z</time></trkpt>
<trkpt lat="46.46143300" lon="7.06115100"><ele>1069.449951</ele><time>2010-06-10T12:46:14Z</time></trkpt>
<trkpt lat="46.46141300" lon="7.06130100"><ele>1070.688965</ele><time>2010-06-10T12:46:21Z</time></trkpt>
<trkpt lat="46.46138600" lon="7.06144100"><ele>1071.598022</ele><time>2010-06-10T12:46:27Z</time></trkpt>
<trkpt lat="46.46137200" lon="7.06148700"><ele>1071.91394</ele><time>2010-06-10T12:46:29Z</time></trkpt>
<trkpt lat="46.46132900" lon="7.06164000"><ele>1072.845947</ele><time>2010-06-10T12:46:36Z</time></trkpt>
<trkpt lat="46.46127200" lon="7.06177000"><ele>1074.225952</ele><time>2010-06-10T12:46:43Z</time></trkpt>
<trkpt lat="46.46124700" lon="7.06184700"><ele>1074.911011</ele><time>2010-06-10T12:46:47Z</time></trkpt>
<trkpt lat="46.46115700" lon="7.06196700"><ele>1076.256958</ele><time>2010-06-10T12:46:56Z</time></trkpt>
<trkpt lat="46.46108800" lon="7.06210800"><ele>1077.168945</ele><time>2010-06-10T12:47:05Z</time></trkpt>
<trkpt lat="46.46099300" lon="7.06224000"><ele>1077.805054</ele><time>2010-06-10T12:47:13Z</time></trkpt>
<trkpt lat="46.46095700" lon="7.06225600"><ele>1078.015015</ele><time>2010-06-10T12:47:15Z</time></trkpt>
<trkpt lat="46.46086900" lon="7.06217300"><ele>1079.029053</ele><time>2010-06-10T12:47:22Z</time></trkpt>
<trkpt lat="46.46086900" lon="7.06215700"><ele>1079.218994</ele><time>2010-06-10T12:47:23Z</time></trkpt>
<trkpt lat="46.46087500" lon="7.06209800"><ele>1079.771973</ele><time>2010-06-10T12:47:27Z</time></trkpt>
<trkpt lat="46.46093900" lon="7.06204100"><ele>1080.39502</ele><time>2010-06-10T12:47:33Z</time></trkpt>
<trkpt lat="46.46102300" lon="7.06197900"><ele>1081.165039</ele><time>2010-06-10T12:47:39Z</time></trkpt>
<trkpt lat="46.46108600" lon="7.06185400"><ele>1081.831055</ele><time>2010-06-10T12:47:45Z</time></trkpt>
<trkpt lat="46.46106900" lon="7.06170300"><ele>1083.131958</ele><time>2010-06-10T12:47:52Z</time></trkpt>
<trkpt lat="46.46105300" lon="7.06160200"><ele>1084.115967</ele><time>2010-06-10T12:47:57Z</time></trkpt>
<trkpt lat="46.46101000" lon="7.06145800"><ele>1085.222046</ele><time>2010-06-10T12:48:04Z</time></trkpt>
<trkpt lat="46.46099900" lon="7.06133300"><ele>1086.618042</ele><time>2010-06-10T12:48:10Z</time></trkpt>
<trkpt lat="46.46099700" lon="7.06124000"><ele>1087.582031</ele><time>2010-06-10T12:48:15Z</time></trkpt>
<trkpt lat="46.46102500" lon="7.06108300"><ele>1088.878052</ele><time>2010-06-10T12:48:22Z</time></trkpt>
<trkpt lat="46.46103600" lon="7.06096600"><ele>1089.784058</ele><time>2010-06-10T12:48:28Z</time></trkpt>
<trkpt lat="46.46104100" lon="7.06092700"><ele>1090.119019</ele><time>2010-06-10T12:48:30Z</time></trkpt>
<trkpt lat="46.46107300" lon="7.06081700"><ele>1091.121948</ele><time>2010-06-10T12:48:35Z</time></trkpt>
<trkpt lat="46.46105100" lon="7.06068200"><ele>1092.203979</ele><time>2010-06-10T12:48:41Z</time></trkpt>
<trkpt lat="46.46098100" lon="7.06055500"><ele>1093.501953</ele><time>2010-06-10T12:48:47Z</time></trkpt>
<trkpt lat="46.46092700" lon="7.06041500"><ele>1094.500977</ele><time>2010-06-10T12:48:53Z</time></trkpt>
<trkpt lat="46.46087800" lon="7.06022800"><ele>1096.021973</ele><time>2010-06-10T12:49:01Z</time></trkpt>
<trkpt lat="46.46087500" lon="7.06015900"><ele>1096.589966</ele><time>2010-06-10T12:49:04Z</time></trkpt>
<trkpt lat="46.46085600" lon="7.06008000"><ele>1097.536987</ele><time>2010-06-10T12:49:08Z</time></trkpt>
<trkpt lat="46.46085700" lon="7.05999900"><ele>1098.237061</ele><time>2010-06-10T12:49:12Z</time></trkpt>
<trkpt lat="46.46086900" lon="7.05987900"><ele>1099.42395</ele><time>2010-06-10T12:49:18Z</time></trkpt>
<trkpt lat="46.46083800" lon="7.05971300"><ele>1100.656982</ele><time>2010-06-10T12:49:26Z</time></trkpt>
<trkpt lat="46.46083600" lon="7.05967300"><ele>1101.032959</ele><time>2010-06-10T12:49:28Z</time></trkpt>
<trkpt lat="46.46082900" lon="7.05957300"><ele>1101.944946</ele><time>2010-06-10T12:49:33Z</time></trkpt>
<trkpt lat="46.46082600" lon="7.05953700"><ele>1102.137939</ele><time>2010-06-10T12:49:35Z</time></trkpt>
<trkpt lat="46.46077000" lon="7.05945300"><ele>1103.142944</ele><time>2010-06-10T12:49:40Z</time></trkpt>
<trkpt lat="46.46076500" lon="7.05941100"><ele>1103.475952</ele><time>2010-06-10T12:49:42Z</time></trkpt>
<trkpt lat="46.46078100" lon="7.05937200"><ele>1104.001953</ele><time>2010-06-10T12:49:44Z</time></trkpt>
<trkpt lat="46.46090800" lon="7.05923800"><ele>1104.994995</ele><time>2010-06-10T12:49:51Z</time></trkpt>
<trkpt lat="46.46098100" lon="7.05919900"><ele>1105.649048</ele><time>2010-06-10T12:49:54Z</time></trkpt>
<trkpt lat="46.46103700" lon="7.05909800"><ele>1106.484009</ele><time>2010-06-10T12:49:59Z</time></trkpt>
<trkpt lat="46.46099900" lon="7.05891500"><ele>1107.89502</ele><time>2010-06-10T12:50:07Z</time></trkpt>
<trkpt lat="46.46098900" lon="7.05879000"><ele>1108.772949</ele><time>2010-06-10T12:50:13Z</time></trkpt>
<trkpt lat="46.46096100" lon="7.05865400"><ele>1110.293945</ele><time>2010-06-10T12:50:20Z</time></trkpt>
<trkpt lat="46.46095900" lon="7.05846400"><ele>1111.610962</ele><time>2010-06-10T12:50:28Z</time></trkpt>
<trkpt lat="46.46095500" lon="7.05838600"><ele>1112.01001</ele><time>2010-06-10T12:50:31Z</time></trkpt>
<trkpt lat="46.46095600" lon="7.05826300"><ele>1112.926025</ele><time>2010-06-10T12:50:36Z</time></trkpt>
<trkpt lat="46.46095000" lon="7.05810700"><ele>1114.194946</ele><time>2010-06-10T12:50:43Z</time></trkpt>
<trkpt lat="46.46093800" lon="7.05803300"><ele>1114.892944</ele><time>2010-06-10T12:50:46Z</time></trkpt>
<trkpt lat="46.46093600" lon="7.05794500"><ele>1116.05603</ele><time>2010-06-10T12:50:51Z</time></trkpt>
<trkpt lat="46.46090400" lon="7.05782100"><ele>1117.494995</ele><time>2010-06-10T12:50:58Z</time></trkpt>
<trkpt lat="46.46083900" lon="7.05769100"><ele>1118.66394</ele><time>2010-06-10T12:51:04Z</time></trkpt>
<trkpt lat="46.46079100" lon="7.05754200"><ele>1119.98999</ele><time>2010-06-10T12:51:11Z</time></trkpt>
<trkpt lat="46.46077600" lon="7.05741700"><ele>1121.407959</ele><time>2010-06-10T12:51:18Z</time></trkpt>
<trkpt lat="46.46078300" lon="7.05731200"><ele>1121.71106</ele><time>2010-06-10T12:51:33Z</time></trkpt>
<trkpt lat="46.46075900" lon="7.05717100"><ele>1122.98999</ele><time>2010-06-10T12:51:41Z</time></trkpt>
<trkpt lat="46.46076600" lon="7.05703100"><ele>1123.68103</ele><time>2010-06-10T12:51:47Z</time></trkpt>
<trkpt lat="46.46077700" lon="7.05689200"><ele>1124.740967</ele><time>2010-06-10T12:51:53Z</time></trkpt>
<trkpt lat="46.46077600" lon="7.05686700"><ele>1124.918945</ele><time>2010-06-10T12:51:54Z</time></trkpt>
<trkpt lat="46.46074200" lon="7.05675900"><ele>1125.722046</ele><time>2010-06-10T12:51:59Z</time></trkpt>
<trkpt lat="46.46062200" lon="7.05660600"><ele>1127.479004</ele><time>2010-06-10T12:52:06Z</time></trkpt>
<trkpt lat="46.46059200" lon="7.05648000"><ele>1128.735962</ele><time>2010-06-10T12:52:12Z</time></trkpt>
<trkpt lat="46.46058600" lon="7.05645900"><ele>1128.906006</ele><time>2010-06-10T12:52:13Z</time></trkpt>
<trkpt lat="46.46054500" lon="7.05632000"><ele>1130.06897</ele><time>2010-06-10T12:52:20Z</time></trkpt>
<trkpt lat="46.46052600" lon="7.05622400"><ele>1130.973022</ele><time>2010-06-10T12:52:25Z</time></trkpt>
<trkpt lat="46.46051900" lon="7.05609500"><ele>1131.973999</ele><time>2010-06-10T12:52:31Z</time></trkpt>
<trkpt lat="46.46050300" lon="7.05594400"><ele>1133.258057</ele><time>2010-06-10T12:52:38Z</time></trkpt>
<trkpt lat="46.46048700" lon="7.05582200"><ele>1134.207031</ele><time>2010-06-10T12:52:44Z</time></trkpt>
<trkpt lat="46.46046500" lon="7.05567500"><ele>1135.365967</ele><time>2010-06-10T12:52:51Z</time></trkpt>
<trkpt lat="46.46044900" lon="7.05559900"><ele>1135.855957</ele><time>2010-06-10T12:52:55Z</time></trkpt>
<trkpt lat="46.46046300" lon="7.05551800"><ele>1136.311035</ele><time>2010-06-10T12:52:59Z</time></trkpt>
<trkpt lat="46.46044600" lon="7.05539600"><ele>1137.233032</ele><time>2010-06-10T12:53:05Z</time></trkpt>
<trkpt lat="46.46043800" lon="7.05535200"><ele>1137.593018</ele><time>2010-06-10T12:53:07Z</time></trkpt>
<trkpt lat="46.46043700" lon="7.05530900"><ele>1137.729004</ele><time>2010-06-10T12:53:09Z</time></trkpt>
<trkpt lat="46.46039900" lon="7.05518100"><ele>1139.112061</ele><time>2010-06-10T12:53:16Z</time></trkpt>
<trkpt lat="46.46039000" lon="7.05516200"><ele>1139.329956</ele><time>2010-06-10T12:53:17Z</time></trkpt>
<trkpt lat="46.46032900" lon="7.05496000"><ele>1141.017944</ele><time>2010-06-10T12:53:26Z</time></trkpt>
<trkpt lat="46.46026600" lon="7.05482600"><ele>1142.092041</ele><time>2010-06-10T12:53:33Z</time></trkpt>
<trkpt lat="46.46022300" lon="7.05471000"><ele>1143.187012</ele><time>2010-06-10T12:53:39Z</time></trkpt>
<trkpt lat="46.46019900" lon="7.05461100"><ele>1143.837036</ele><time>2010-06-10T12:53:44Z</time></trkpt>
<trkpt lat="46.46018900" lon="7.05449300"><ele>1144.850952</ele><time>2010-06-10T12:53:50Z</time></trkpt>
<trkpt lat="46.46018900" lon="7.05440600"><ele>1145.572998</ele><time>2010-06-10T12:53:54Z</time></trkpt>
<trkpt lat="46.46008900" lon="7.05426600"><ele>1146.977051</ele><time>2010-06-10T12:54:02Z</time></trkpt>
<trkpt lat="46.46009100" lon="7.05424400"><ele>1147.203979</ele><time>2010-06-10T12:54:03Z</time></trkpt>
<trkpt lat="46.46005500" lon="7.05410800"><ele>1148.321045</ele><time>2010-06-10T12:54:11Z</time></trkpt>
<trkpt lat="46.46005100" lon="7.05407700"><ele>1148.58606</ele><time>2010-06-10T12:54:13Z</time></trkpt>
<trkpt lat="46.46005100" lon="7.05390700"><ele>1149.626953</ele><time>2010-06-10T12:54:21Z</time></trkpt>
<trkpt lat="46.45994900" lon="7.05378600"><ele>1150.677002</ele><time>2010-06-10T12:54:27Z</time></trkpt>
<trkpt lat="46.45988100" lon="7.05367200"><ele>1151.475952</ele><time>2010-06-10T12:54:32Z</time></trkpt>
<trkpt lat="46.45981300" lon="7.05350500"><ele>1152.791016</ele><time>2010-06-10T12:54:40Z</time></trkpt>
<trkpt lat="46.45980500" lon="7.05338100"><ele>1154.104004</ele><time>2010-06-10T12:54:47Z</time></trkpt>
<trkpt lat="46.45984100" lon="7.05327400"><ele>1154.963989</ele><time>2010-06-10T12:54:53Z</time></trkpt>
<trkpt lat="46.45984100" lon="7.05316600"><ele>1155.662964</ele><time>2010-06-10T12:54:59Z</time></trkpt>
<trkpt lat="46.45982400" lon="7.05310200"><ele>1156.603027</ele><time>2010-06-10T12:55:03Z</time></trkpt>
<trkpt lat="46.45981700" lon="7.05302000"><ele>1157.168945</ele><time>2010-06-10T12:55:07Z</time></trkpt>
<trkpt lat="46.45978900" lon="7.05287900"><ele>1158.329956</ele><time>2010-06-10T12:55:14Z</time></trkpt>
<trkpt lat="46.45975500" lon="7.05278100"><ele>1159.557007</ele><time>2010-06-10T12:55:20Z</time></trkpt>
<trkpt lat="46.45971600" lon="7.05266200"><ele>1160.642944</ele><time>2010-06-10T12:55:26Z</time></trkpt>
<trkpt lat="46.45967600" lon="7.05253000"><ele>1161.495972</ele><time>2010-06-10T12:55:32Z</time></trkpt>
<trkpt lat="46.45956400" lon="7.05246300"><ele>1162.937012</ele><time>2010-06-10T12:55:39Z</time></trkpt>
<trkpt lat="46.45949900" lon="7.05237900"><ele>1164.078979</ele><time>2010-06-10T12:55:45Z</time></trkpt>
<trkpt lat="46.45948800" lon="7.05235100"><ele>1164.276978</ele><time>2010-06-10T12:55:47Z</time></trkpt>
<trkpt lat="46.45934600" lon="7.05223800"><ele>1165.477051</ele><time>2010-06-10T12:55:53Z</time></trkpt>
<trkpt lat="46.45935100" lon="7.05219300"><ele>1165.994995</ele><time>2010-06-10T12:55:56Z</time></trkpt>
<trkpt lat="46.45932400" lon="7.05215600"><ele>1166.625</ele><time>2010-06-10T12:56:00Z</time></trkpt>
<trkpt lat="46.45926600" lon="7.05207800"><ele>1167.63501</ele><time>2010-06-10T12:56:06Z</time></trkpt>
<trkpt lat="46.45921100" lon="7.05198000"><ele>1168.925049</ele><time>2010-06-10T12:56:12Z</time></trkpt>
<trkpt lat="46.45910000" lon="7.05188000"><ele>1170.178955</ele><time>2010-06-10T12:56:20Z</time></trkpt>
<trkpt lat="46.45901700" lon="7.05177900"><ele>1171.542969</ele><time>2010-06-10T12:56:27Z</time></trkpt>
<trkpt lat="46.45895600" lon="7.05163200"><ele>1172.699951</ele><time>2010-06-10T12:56:34Z</time></trkpt>
<trkpt lat="46.45890200" lon="7.05150400"><ele>1173.911011</ele><time>2010-06-10T12:56:40Z</time></trkpt>
<trkpt lat="46.45881300" lon="7.05143100"><ele>1175.078003</ele><time>2010-06-10T12:56:47Z</time></trkpt>
<trkpt lat="46.45872300" lon="7.05128000"><ele>1176.487061</ele><time>2010-06-10T12:56:55Z</time></trkpt>
<trkpt lat="46.45865800" lon="7.05119900"><ele>1177.405029</ele><time>2010-06-10T12:57:01Z</time></trkpt>
<trkpt lat="46.45857100" lon="7.05113600"><ele>1178.557007</ele><time>2010-06-10T12:57:07Z</time></trkpt>
<trkpt lat="46.45845200" lon="7.05103500"><ele>1180.089966</ele><time>2010-06-10T12:57:15Z</time></trkpt>
<trkpt lat="46.45838400" lon="7.05094100"><ele>1180.866943</ele><time>2010-06-10T12:57:21Z</time></trkpt>
<trkpt lat="46.45830500" lon="7.05079800"><ele>1182.047974</ele><time>2010-06-10T12:57:29Z</time></trkpt>
<trkpt lat="46.45823800" lon="7.05067300"><ele>1183.223022</ele><time>2010-06-10T12:57:36Z</time></trkpt>
<trkpt lat="46.45822700" lon="7.05063300"><ele>1183.534058</ele><time>2010-06-10T12:57:38Z</time></trkpt>
<trkpt lat="46.45813600" lon="7.05055500"><ele>1185.527954</ele><time>2010-06-10T12:57:47Z</time></trkpt>
<trkpt lat="46.45812500" lon="7.05052800"><ele>1185.628052</ele><time>2010-06-10T12:57:49Z</time></trkpt>
<trkpt lat="46.45805300" lon="7.05052400"><ele>1186.560059</ele><time>2010-06-10T12:57:54Z</time></trkpt>
<trkpt lat="46.45795500" lon="7.05050900"><ele>1187.844971</ele><time>2010-06-10T12:58:01Z</time></trkpt>
<trkpt lat="46.45787800" lon="7.05049500"><ele>1188.833008</ele><time>2010-06-10T12:58:06Z</time></trkpt>
<trkpt lat="46.45779300" lon="7.05040200"><ele>1188.884033</ele><time>2010-06-10T12:58:14Z</time></trkpt>
<trkpt lat="46.45770400" lon="7.05030600"><ele>1191.224976</ele><time>2010-06-10T12:58:21Z</time></trkpt>
<trkpt lat="46.45760000" lon="7.05016700"><ele>1192.970947</ele><time>2010-06-10T12:58:30Z</time></trkpt>
<trkpt lat="46.45748600" lon="7.05012400"><ele>1194.364014</ele><time>2010-06-10T12:58:38Z</time></trkpt>
<trkpt lat="46.45740700" lon="7.05007500"><ele>1195.291992</ele><time>2010-06-10T12:58:44Z</time></trkpt>
<trkpt lat="46.45730600" lon="7.05002700"><ele>1196.541016</ele><time>2010-06-10T12:58:51Z</time></trkpt>
<trkpt lat="46.45723800" lon="7.04997800"><ele>1198.020996</ele><time>2010-06-10T12:58:58Z</time></trkpt>
<trkpt lat="46.45714700" lon="7.04989400"><ele>1199.234985</ele><time>2010-06-10T12:59:05Z</time></trkpt>
<trkpt lat="46.45712600" lon="7.04987500"><ele>1199.688965</ele><time>2010-06-10T12:59:07Z</time></trkpt>
<trkpt lat="46.45708800" lon="7.04979500"><ele>1200.505981</ele><time>2010-06-10T12:59:12Z</time></trkpt>
<trkpt lat="46.45698800" lon="7.04967000"><ele>1202.008057</ele><time>2010-06-10T12:59:20Z</time></trkpt>
<trkpt lat="46.45690300" lon="7.04958600"><ele>1202.973022</ele><time>2010-06-10T12:59:26Z</time></trkpt>
<trkpt lat="46.45684600" lon="7.04951400"><ele>1203.843994</ele><time>2010-06-10T12:59:30Z</time></trkpt>
<trkpt lat="46.45679200" lon="7.04940200"><ele>1204.890991</ele><time>2010-06-10T12:59:37Z</time></trkpt>
<trkpt lat="46.45679100" lon="7.04939300"><ele>1205.050049</ele><time>2010-06-10T12:59:38Z</time></trkpt>
<trkpt lat="46.45677200" lon="7.04939000"><ele>1205.140015</ele><time>2010-06-10T12:59:43Z</time></trkpt>
<trkpt lat="46.45693000" lon="7.04908800"><ele>1206.418945</ele><time>2010-06-10T13:01:09Z</time></trkpt>
<trkpt lat="46.45693300" lon="7.04908500"><ele>1206.508057</ele><time>2010-06-10T13:01:10Z</time></trkpt>
<trkpt lat="46.45668700" lon="7.04937000"><ele>1207.762939</ele><time>2010-06-10T13:02:16Z</time></trkpt>
<trkpt lat="46.45668500" lon="7.04936700"><ele>1207.822998</ele><time>2010-06-10T13:02:17Z</time></trkpt>
<trkpt lat="46.45668600" lon="7.04936600"><ele>1207.807983</ele><time>2010-06-10T13:02:18Z</time></trkpt>
<trkpt lat="46.45669600" lon="7.04932300"><ele>1208.147949</ele><time>2010-06-10T13:02:22Z</time></trkpt>
<trkpt lat="46.45666500" lon="7.04920900"><ele>1208.782959</ele><time>2010-06-10T13:02:31Z</time></trkpt>
<trkpt lat="46.45660700" lon="7.04907400"><ele>1210.178955</ele><time>2010-06-10T13:02:38Z</time></trkpt>
<trkpt lat="46.45654600" lon="7.04891700"><ele>1211.968994</ele><time>2010-06-10T13:02:46Z</time></trkpt>
<trkpt lat="46.45662300" lon="7.04877400"><ele>1213.260986</ele><time>2010-06-10T13:02:53Z</time></trkpt>
<trkpt lat="46.45668100" lon="7.04868800"><ele>1214.36499</ele><time>2010-06-10T13:02:58Z</time></trkpt>
<trkpt lat="46.45671100" lon="7.04862500"><ele>1214.812012</ele><time>2010-06-10T13:03:02Z</time></trkpt>
<trkpt lat="46.45679600" lon="7.04848900"><ele>1216.95105</ele><time>2010-06-10T13:03:11Z</time></trkpt>
<trkpt lat="46.45683500" lon="7.04835900"><ele>1218.254028</ele><time>2010-06-10T13:03:18Z</time></trkpt>
<trkpt lat="46.45673800" lon="7.04820100"><ele>1219.598022</ele><time>2010-06-10T13:03:26Z</time></trkpt>
<trkpt lat="46.45660600" lon="7.04812800"><ele>1220.98999</ele><time>2010-06-10T13:03:34Z</time></trkpt>
<trkpt lat="46.45648700" lon="7.04813400"><ele>1222.359009</ele><time>2010-06-10T13:03:42Z</time></trkpt>
<trkpt lat="46.45637100" lon="7.04809200"><ele>1223.82605</ele><time>2010-06-10T13:03:50Z</time></trkpt>
<trkpt lat="46.45628100" lon="7.04797900"><ele>1224.995972</ele><time>2010-06-10T13:03:58Z</time></trkpt>
<trkpt lat="46.45617100" lon="7.04779400"><ele>1227.110962</ele><time>2010-06-10T13:04:10Z</time></trkpt>
<trkpt lat="46.45607500" lon="7.04765600"><ele>1228.550049</ele><time>2010-06-10T13:04:19Z</time></trkpt>
<trkpt lat="46.45595000" lon="7.04747800"><ele>1230.159058</ele><time>2010-06-10T13:04:30Z</time></trkpt>
<trkpt lat="46.45584800" lon="7.04730800"><ele>1232.43396</ele><time>2010-06-10T13:04:40Z</time></trkpt>
<trkpt lat="46.45571400" lon="7.04711700"><ele>1234.256958</ele><time>2010-06-10T13:04:52Z</time></trkpt>
<trkpt lat="46.45562500" lon="7.04699000"><ele>1235.61499</ele><time>2010-06-10T13:05:00Z</time></trkpt>
<trkpt lat="46.45551400" lon="7.04680100"><ele>1237.159058</ele><time>2010-06-10T13:05:10Z</time></trkpt>
<trkpt lat="46.45544100" lon="7.04660600"><ele>1238.390015</ele><time>2010-06-10T13:05:19Z</time></trkpt>
<trkpt lat="46.45535200" lon="7.04658700"><ele>1239.442993</ele><time>2010-06-10T13:05:25Z</time></trkpt>
<trkpt lat="46.45529400" lon="7.04668500"><ele>1240.321045</ele><time>2010-06-10T13:05:31Z</time></trkpt>
<trkpt lat="46.45531000" lon="7.04683600"><ele>1241.131958</ele><time>2010-06-10T13:05:37Z</time></trkpt>
<trkpt lat="46.45536400" lon="7.04707200"><ele>1242.296997</ele><time>2010-06-10T13:05:46Z</time></trkpt>
<trkpt lat="46.45537300" lon="7.04730800"><ele>1243.865967</ele><time>2010-06-10T13:05:55Z</time></trkpt>
<trkpt lat="46.45537600" lon="7.04750400"><ele>1245.238037</ele><time>2010-06-10T13:06:03Z</time></trkpt>
<trkpt lat="46.45538700" lon="7.04769500"><ele>1246.53894</ele><time>2010-06-10T13:06:11Z</time></trkpt>
<trkpt lat="46.45547600" lon="7.04785600"><ele>1248.035034</ele><time>2010-06-10T13:06:20Z</time></trkpt>
<trkpt lat="46.45557200" lon="7.04802300"><ele>1249.775024</ele><time>2010-06-10T13:06:29Z</time></trkpt>
<trkpt lat="46.45564900" lon="7.04821500"><ele>1251.384033</ele><time>2010-06-10T13:06:38Z</time></trkpt>
<trkpt lat="46.45575700" lon="7.04840500"><ele>1252.697998</ele><time>2010-06-10T13:06:47Z</time></trkpt>
<trkpt lat="46.45584500" lon="7.04851000"><ele>1253.963989</ele><time>2010-06-10T13:06:54Z</time></trkpt>
<trkpt lat="46.45585800" lon="7.04858200"><ele>1254.459961</ele><time>2010-06-10T13:06:57Z</time></trkpt>
<trkpt lat="46.45578500" lon="7.04864800"><ele>1255.488037</ele><time>2010-06-10T13:07:03Z</time></trkpt>
<trkpt lat="46.45573900" lon="7.04862000"><ele>1256.253052</ele><time>2010-06-10T13:07:06Z</time></trkpt>
<trkpt lat="46.45564300" lon="7.04842200"><ele>1257.274048</ele><time>2010-06-10T13:07:14Z</time></trkpt>
<trkpt lat="46.45550200" lon="7.04824800"><ele>1258.956055</ele><time>2010-06-10T13:07:24Z</time></trkpt>
<trkpt lat="46.45537500" lon="7.04814100"><ele>1261.025024</ele><time>2010-06-10T13:07:34Z</time></trkpt>
<trkpt lat="46.45527200" lon="7.04804900"><ele>1262.435059</ele><time>2010-06-10T13:07:42Z</time></trkpt>
<trkpt lat="46.45515600" lon="7.04792900"><ele>1263.935059</ele><time>2010-06-10T13:07:52Z</time></trkpt>
<trkpt lat="46.45507400" lon="7.04788200"><ele>1265.015015</ele><time>2010-06-10T13:07:59Z</time></trkpt>
<trkpt lat="46.45498300" lon="7.04782200"><ele>1266.187012</ele><time>2010-06-10T13:08:07Z</time></trkpt>
<trkpt lat="46.45485700" lon="7.04775800"><ele>1267.55603</ele><time>2010-06-10T13:08:16Z</time></trkpt>
<trkpt lat="46.45466900" lon="7.04766700"><ele>1269.600952</ele><time>2010-06-10T13:08:26Z</time></trkpt>
<trkpt lat="46.45452100" lon="7.04757400"><ele>1270.55896</ele><time>2010-06-10T13:08:35Z</time></trkpt>
<trkpt lat="46.45446900" lon="7.04752000"><ele>1271.526001</ele><time>2010-06-10T13:08:40Z</time></trkpt>
<trkpt lat="46.45438200" lon="7.04741400"><ele>1273.182007</ele><time>2010-06-10T13:08:49Z</time></trkpt>
<trkpt lat="46.45432400" lon="7.04734000"><ele>1274.582031</ele><time>2010-06-10T13:08:56Z</time></trkpt>
<trkpt lat="46.45429000" lon="7.04725400"><ele>1275.771973</ele><time>2010-06-10T13:09:03Z</time></trkpt>
<trkpt lat="46.45423200" lon="7.04719000"><ele>1276.671997</ele><time>2010-06-10T13:09:09Z</time></trkpt>
<trkpt lat="46.45420000" lon="7.04714100"><ele>1277.177979</ele><time>2010-06-10T13:09:13Z</time></trkpt>
<trkpt lat="46.45415600" lon="7.04701300"><ele>1278.453003</ele><time>2010-06-10T13:09:22Z</time></trkpt>
<trkpt lat="46.45405200" lon="7.04689200"><ele>1280.285034</ele><time>2010-06-10T13:09:31Z</time></trkpt>
<trkpt lat="46.45395500" lon="7.04675700"><ele>1281.677979</ele><time>2010-06-10T13:09:40Z</time></trkpt>
<trkpt lat="46.45387400" lon="7.04664900"><ele>1283.124023</ele><time>2010-06-10T13:09:48Z</time></trkpt>
<trkpt lat="46.45377300" lon="7.04653800"><ele>1284.81897</ele><time>2010-06-10T13:09:56Z</time></trkpt>
<trkpt lat="46.45371300" lon="7.04643600"><ele>1286.072998</ele><time>2010-06-10T13:10:05Z</time></trkpt>
<trkpt lat="46.45362000" lon="7.04633100"><ele>1287.265991</ele><time>2010-06-10T13:10:12Z</time></trkpt>
<trkpt lat="46.45354400" lon="7.04626700"><ele>1288.244019</ele><time>2010-06-10T13:10:18Z</time></trkpt>
<trkpt lat="46.45345200" lon="7.04614600"><ele>1288.901001</ele><time>2010-06-10T13:10:26Z</time></trkpt>
<trkpt lat="46.45345600" lon="7.04598900"><ele>1289.333008</ele><time>2010-06-10T13:10:33Z</time></trkpt>
<trkpt lat="46.45345700" lon="7.04581000"><ele>1289.722046</ele><time>2010-06-10T13:10:41Z</time></trkpt>
<trkpt lat="46.45340200" lon="7.04568500"><ele>1289.761963</ele><time>2010-06-10T13:10:47Z</time></trkpt>
<trkpt lat="46.45332000" lon="7.04557600"><ele>1290.149048</ele><time>2010-06-10T13:10:53Z</time></trkpt>
<trkpt lat="46.45323200" lon="7.04546200"><ele>1290.604004</ele><time>2010-06-10T13:11:00Z</time></trkpt>
<trkpt lat="46.45320700" lon="7.04543100"><ele>1290.732056</ele><time>2010-06-10T13:11:02Z</time></trkpt>
<trkpt lat="46.45316100" lon="7.04539200"><ele>1291.145996</ele><time>2010-06-10T13:11:06Z</time></trkpt>
<trkpt lat="46.45305500" lon="7.04534800"><ele>1291.927002</ele><time>2010-06-10T13:11:12Z</time></trkpt>
<trkpt lat="46.45290000" lon="7.04524500"><ele>1292.098999</ele><time>2010-06-10T13:11:19Z</time></trkpt>
<trkpt lat="46.45278900" lon="7.04521600"><ele>1292.720947</ele><time>2010-06-10T13:11:25Z</time></trkpt>
<trkpt lat="46.45266700" lon="7.04520400"><ele>1293.144043</ele><time>2010-06-10T13:11:31Z</time></trkpt>
<trkpt lat="46.45254700" lon="7.04516200"><ele>1293.75</ele><time>2010-06-10T13:11:38Z</time></trkpt>
<trkpt lat="46.45253100" lon="7.04512200"><ele>1293.858032</ele><time>2010-06-10T13:11:40Z</time></trkpt>
<trkpt lat="46.45256000" lon="7.04505500"><ele>1294.182007</ele><time>2010-06-10T13:11:44Z</time></trkpt>
<trkpt lat="46.45266400" lon="7.04493800"><ele>1295.468994</ele><time>2010-06-10T13:11:52Z</time></trkpt>
<trkpt lat="46.45266700" lon="7.04486200"><ele>1296.087036</ele><time>2010-06-10T13:11:56Z</time></trkpt>
<trkpt lat="46.45265400" lon="7.04467500"><ele>1297.829956</ele><time>2010-06-10T13:12:04Z</time></trkpt>
<trkpt lat="46.45265200" lon="7.04464500"><ele>1298.345947</ele><time>2010-06-10T13:12:07Z</time></trkpt>
<trkpt lat="46.45270200" lon="7.04457600"><ele>1299.302002</ele><time>2010-06-10T13:12:16Z</time></trkpt>
<trkpt lat="46.45274100" lon="7.04455600"><ele>1299.501953</ele><time>2010-06-10T13:12:20Z</time></trkpt>
<trkpt lat="46.45281200" lon="7.04452700"><ele>1300.392944</ele><time>2010-06-10T13:12:26Z</time></trkpt>
<trkpt lat="46.45284200" lon="7.04451700"><ele>1300.96106</ele><time>2010-06-10T13:12:29Z</time></trkpt>
<trkpt lat="46.45291700" lon="7.04444800"><ele>1303.463989</ele><time>2010-06-10T13:13:39Z</time></trkpt>
<trkpt lat="46.45293100" lon="7.04440400"><ele>1304.087036</ele><time>2010-06-10T13:13:42Z</time></trkpt>
<trkpt lat="46.45309400" lon="7.04431000"><ele>1305.378052</ele><time>2010-06-10T13:13:48Z</time></trkpt>
<trkpt lat="46.45312000" lon="7.04428400"><ele>1305.869995</ele><time>2010-06-10T13:13:50Z</time></trkpt>
<trkpt lat="46.45322800" lon="7.04419500"><ele>1307.141968</ele><time>2010-06-10T13:13:57Z</time></trkpt>
<trkpt lat="46.45329600" lon="7.04411400"><ele>1308.696045</ele><time>2010-06-10T13:14:03Z</time></trkpt>
<trkpt lat="46.45338300" lon="7.04406200"><ele>1310.159058</ele><time>2010-06-10T13:14:10Z</time></trkpt>
<trkpt lat="46.45342500" lon="7.04402600"><ele>1311.462036</ele><time>2010-06-10T13:14:15Z</time></trkpt>
<trkpt lat="46.45351600" lon="7.04397500"><ele>1313.090942</ele><time>2010-06-10T13:14:23Z</time></trkpt>
<trkpt lat="46.45363600" lon="7.04391200"><ele>1315.488037</ele><time>2010-06-10T13:14:33Z</time></trkpt>
<trkpt lat="46.45371700" lon="7.04387000"><ele>1317.176025</ele><time>2010-06-10T13:14:40Z</time></trkpt>
<trkpt lat="46.45381800" lon="7.04378300"><ele>1319.125</ele><time>2010-06-10T13:14:49Z</time></trkpt>
<trkpt lat="46.45391600" lon="7.04370700"><ele>1320.634033</ele><time>2010-06-10T13:14:57Z</time></trkpt>
<trkpt lat="46.45400700" lon="7.04362500"><ele>1322.641968</ele><time>2010-06-10T13:15:05Z</time></trkpt>
<trkpt lat="46.45411000" lon="7.04354200"><ele>1324.616943</ele><time>2010-06-10T13:15:14Z</time></trkpt>
<trkpt lat="46.45422600" lon="7.04344600"><ele>1326.870972</ele><time>2010-06-10T13:15:24Z</time></trkpt>
<trkpt lat="46.45432600" lon="7.04336300"><ele>1328.978027</ele><time>2010-06-10T13:15:32Z</time></trkpt>
<trkpt lat="46.45444100" lon="7.04329800"><ele>1331.220947</ele><time>2010-06-10T13:15:41Z</time></trkpt>
<trkpt lat="46.45455000" lon="7.04325600"><ele>1332.907959</ele><time>2010-06-10T13:15:49Z</time></trkpt>
<trkpt lat="46.45467300" lon="7.04321900"><ele>1335.130005</ele><time>2010-06-10T13:15:58Z</time></trkpt>
<trkpt lat="46.45476900" lon="7.04318100"><ele>1336.506958</ele><time>2010-06-10T13:16:05Z</time></trkpt>
<trkpt lat="46.45488600" lon="7.04311600"><ele>1338.94397</ele><time>2010-06-10T13:16:15Z</time></trkpt>
<trkpt lat="46.45493600" lon="7.04308000"><ele>1339.827026</ele><time>2010-06-10T13:16:21Z</time></trkpt>
<trkpt lat="46.45500700" lon="7.04309600"><ele>1341.69397</ele><time>2010-06-10T13:16:29Z</time></trkpt>
<trkpt lat="46.45510700" lon="7.04304400"><ele>1343.677002</ele><time>2010-06-10T13:16:38Z</time></trkpt>
<trkpt lat="46.45522700" lon="7.04300200"><ele>1345.833008</ele><time>2010-06-10T13:16:48Z</time></trkpt>
<trkpt lat="46.45531900" lon="7.04299200"><ele>1347.439941</ele><time>2010-06-10T13:16:56Z</time></trkpt>
<trkpt lat="46.45539400" lon="7.04306600"><ele>1348.98999</ele><time>2010-06-10T13:17:04Z</time></trkpt>
<trkpt lat="46.45544500" lon="7.04306700"><ele>1349.821045</ele><time>2010-06-10T13:17:09Z</time></trkpt>
<trkpt lat="46.45548800" lon="7.04307600"><ele>1350.624023</ele><time>2010-06-10T13:17:14Z</time></trkpt>
<trkpt lat="46.45557200" lon="7.04307100"><ele>1351.810059</ele><time>2010-06-10T13:17:21Z</time></trkpt>
<trkpt lat="46.45562400" lon="7.04307400"><ele>1352.522949</ele><time>2010-06-10T13:17:26Z</time></trkpt>
<trkpt lat="46.45569700" lon="7.04305000"><ele>1353.845947</ele><time>2010-06-10T13:17:33Z</time></trkpt>
<trkpt lat="46.45574100" lon="7.04303800"><ele>1354.771973</ele><time>2010-06-10T13:17:38Z</time></trkpt>
<trkpt lat="46.45576600" lon="7.04301600"><ele>1355.136963</ele><time>2010-06-10T13:17:41Z</time></trkpt>
<trkpt lat="46.45582100" lon="7.04299600"><ele>1356.525024</ele><time>2010-06-10T13:17:47Z</time></trkpt>
<trkpt lat="46.45589800" lon="7.04289500"><ele>1357.698975</ele><time>2010-06-10T13:17:54Z</time></trkpt>
<trkpt lat="46.45595600" lon="7.04277400"><ele>1359.035034</ele><time>2010-06-10T13:18:02Z</time></trkpt>
<trkpt lat="46.45596100" lon="7.04275700"><ele>1359.307007</ele><time>2010-06-10T13:18:03Z</time></trkpt>
<trkpt lat="46.45599700" lon="7.04273500"><ele>1359.720947</ele><time>2010-06-10T13:18:07Z</time></trkpt>
<trkpt lat="46.45601700" lon="7.04288800"><ele>1362.505981</ele><time>2010-06-10T13:19:54Z</time></trkpt>
<trkpt lat="46.45609300" lon="7.04290000"><ele>1363.116943</ele><time>2010-06-10T13:19:59Z</time></trkpt>
<trkpt lat="46.45621500" lon="7.04298100"><ele>1364.937988</ele><time>2010-06-10T13:20:08Z</time></trkpt>
<trkpt lat="46.45632400" lon="7.04302400"><ele>1366.38501</ele><time>2010-06-10T13:20:15Z</time></trkpt>
<trkpt lat="46.45639300" lon="7.04300900"><ele>1367.438965</ele><time>2010-06-10T13:20:20Z</time></trkpt>
<trkpt lat="46.45646400" lon="7.04287100"><ele>1368.728027</ele><time>2010-06-10T13:20:25Z</time></trkpt>
<trkpt lat="46.45651200" lon="7.04278000"><ele>1369.770996</ele><time>2010-06-10T13:20:29Z</time></trkpt>
<trkpt lat="46.45659700" lon="7.04273700"><ele>1371.102051</ele><time>2010-06-10T13:20:36Z</time></trkpt>
<trkpt lat="46.45671100" lon="7.04269600"><ele>1372.708008</ele><time>2010-06-10T13:20:45Z</time></trkpt>
<trkpt lat="46.45675700" lon="7.04269100"><ele>1373.234985</ele><time>2010-06-10T13:20:49Z</time></trkpt>
<trkpt lat="46.45680400" lon="7.04258800"><ele>1374.467041</ele><time>2010-06-10T13:20:56Z</time></trkpt>
<trkpt lat="46.45688900" lon="7.04257700"><ele>1375.352051</ele><time>2010-06-10T13:21:02Z</time></trkpt>
<trkpt lat="46.45700700" lon="7.04274600"><ele>1376.042969</ele><time>2010-06-10T13:21:09Z</time></trkpt>
<trkpt lat="46.45708100" lon="7.04279600"><ele>1377.014038</ele><time>2010-06-10T13:21:15Z</time></trkpt>
<trkpt lat="46.45716600" lon="7.04285900"><ele>1378.83606</ele><time>2010-06-10T13:21:22Z</time></trkpt>
<trkpt lat="46.45723600" lon="7.04284300"><ele>1380.562012</ele><time>2010-06-10T13:21:28Z</time></trkpt>
<trkpt lat="46.45731100" lon="7.04275100"><ele>1382.484009</ele><time>2010-06-10T13:21:34Z</time></trkpt>
<trkpt lat="46.45739700" lon="7.04265100"><ele>1383.723999</ele><time>2010-06-10T13:21:41Z</time></trkpt>
<trkpt lat="46.45749900" lon="7.04257700"><ele>1385.571045</ele><time>2010-06-10T13:21:50Z</time></trkpt>
<trkpt lat="46.45758600" lon="7.04265600"><ele>1386.285034</ele><time>2010-06-10T13:21:58Z</time></trkpt>
<trkpt lat="46.45762100" lon="7.04268700"><ele>1386.847046</ele><time>2010-06-10T13:22:03Z</time></trkpt>
<trkpt lat="46.45767700" lon="7.04268500"><ele>1387.781006</ele><time>2010-06-10T13:22:10Z</time></trkpt>
<trkpt lat="46.45775000" lon="7.04266300"><ele>1389.093018</ele><time>2010-06-10T13:22:17Z</time></trkpt>
<trkpt lat="46.45779100" lon="7.04265500"><ele>1390.428955</ele><time>2010-06-10T13:22:22Z</time></trkpt>
<trkpt lat="46.45787100" lon="7.04266400"><ele>1391.686035</ele><time>2010-06-10T13:22:29Z</time></trkpt>
<trkpt lat="46.45794700" lon="7.04266700"><ele>1392.071045</ele><time>2010-06-10T13:22:36Z</time></trkpt>
<trkpt lat="46.45807200" lon="7.04261700"><ele>1393.28894</ele><time>2010-06-10T13:22:44Z</time></trkpt>
<trkpt lat="46.45817500" lon="7.04254400"><ele>1395.224976</ele><time>2010-06-10T13:22:52Z</time></trkpt>
<trkpt lat="46.45825400" lon="7.04251000"><ele>1395.938965</ele><time>2010-06-10T13:23:00Z</time></trkpt>
<trkpt lat="46.45833500" lon="7.04243500"><ele>1396.796997</ele><time>2010-06-10T13:23:08Z</time></trkpt>
<trkpt lat="46.45834700" lon="7.04242600"><ele>1396.983032</ele><time>2010-06-10T13:23:09Z</time></trkpt>
<trkpt lat="46.45846800" lon="7.04239800"><ele>1398.677002</ele><time>2010-06-10T13:23:19Z</time></trkpt>
<trkpt lat="46.45847600" lon="7.04239400"><ele>1398.829956</ele><time>2010-06-10T13:23:20Z</time></trkpt>
<trkpt lat="46.45850500" lon="7.04234500"><ele>1399.328003</ele><time>2010-06-10T13:23:25Z</time></trkpt>
<trkpt lat="46.45847400" lon="7.04232800"><ele>1399.854004</ele><time>2010-06-10T13:23:28Z</time></trkpt>
<trkpt lat="46.45837000" lon="7.04241700"><ele>1401.041992</ele><time>2010-06-10T13:23:37Z</time></trkpt>
<trkpt lat="46.45829700" lon="7.04253000"><ele>1402.177979</ele><time>2010-06-10T13:23:44Z</time></trkpt>
<trkpt lat="46.45820900" lon="7.04262700"><ele>1403.041992</ele><time>2010-06-10T13:23:52Z</time></trkpt>
<trkpt lat="46.45816800" lon="7.04267000"><ele>1403.546021</ele><time>2010-06-10T13:23:56Z</time></trkpt>
<trkpt lat="46.45814500" lon="7.04267000"><ele>1403.946045</ele><time>2010-06-10T13:23:59Z</time></trkpt>
<trkpt lat="46.45809600" lon="7.04272100"><ele>1404.587036</ele><time>2010-06-10T13:24:04Z</time></trkpt>
<trkpt lat="46.45802000" lon="7.04269100"><ele>1406.031006</ele><time>2010-06-10T13:24:11Z</time></trkpt>
<trkpt lat="46.45796700" lon="7.04267300"><ele>1407.113037</ele><time>2010-06-10T13:24:16Z</time></trkpt>
<trkpt lat="46.45790000" lon="7.04265000"><ele>1408.807007</ele><time>2010-06-10T13:24:22Z</time></trkpt>
<trkpt lat="46.45779700" lon="7.04270700"><ele>1410.595947</ele><time>2010-06-10T13:24:31Z</time></trkpt>
<trkpt lat="46.45767900" lon="7.04258600"><ele>1413.260986</ele><time>2010-06-10T13:24:41Z</time></trkpt>
<trkpt lat="46.45759000" lon="7.04249800"><ele>1414.70105</ele><time>2010-06-10T13:24:48Z</time></trkpt>
<trkpt lat="46.45751500" lon="7.04236600"><ele>1416.258057</ele><time>2010-06-10T13:24:54Z</time></trkpt>
<trkpt lat="46.45739700" lon="7.04229300"><ele>1417.978027</ele><time>2010-06-10T13:25:04Z</time></trkpt>
<trkpt lat="46.45731300" lon="7.04227700"><ele>1419.463989</ele><time>2010-06-10T13:25:11Z</time></trkpt>
<trkpt lat="46.45726700" lon="7.04227800"><ele>1420.160034</ele><time>2010-06-10T13:25:15Z</time></trkpt>
<trkpt lat="46.45721700" lon="7.04227100"><ele>1421.817993</ele><time>2010-06-10T13:25:22Z</time></trkpt>
<trkpt lat="46.45718900" lon="7.04227000"><ele>1422.133057</ele><time>2010-06-10T13:25:25Z</time></trkpt>
<trkpt lat="46.45713700" lon="7.04228500"><ele>1423.275024</ele><time>2010-06-10T13:25:31Z</time></trkpt>
<trkpt lat="46.45707900" lon="7.04223300"><ele>1424.688965</ele><time>2010-06-10T13:25:38Z</time></trkpt>
<trkpt lat="46.45703400" lon="7.04222900"><ele>1425.642944</ele><time>2010-06-10T13:25:42Z</time></trkpt>
<trkpt lat="46.45692100" lon="7.04209700"><ele>1427.894043</ele><time>2010-06-10T13:25:51Z</time></trkpt>
<trkpt lat="46.45685300" lon="7.04204900"><ele>1429.485962</ele><time>2010-06-10T13:25:58Z</time></trkpt>
<trkpt lat="46.45676100" lon="7.04210500"><ele>1431.067017</ele><time>2010-06-10T13:26:07Z</time></trkpt>
<trkpt lat="46.45672400" lon="7.04206800"><ele>1431.437012</ele><time>2010-06-10T13:26:11Z</time></trkpt>
<trkpt lat="46.45668600" lon="7.04202700"><ele>1432.602051</ele><time>2010-06-10T13:26:16Z</time></trkpt>
<trkpt lat="46.45667200" lon="7.04204100"><ele>1432.802002</ele><time>2010-06-10T13:26:19Z</time></trkpt>
<trkpt lat="46.45665900" lon="7.04217000"><ele>1433.409058</ele><time>2010-06-10T13:26:33Z</time></trkpt>
<trkpt lat="46.45665700" lon="7.04216600"><ele>1434.134033</ele><time>2010-06-10T13:26:34Z</time></trkpt>
<trkpt lat="46.45664300" lon="7.04199200"><ele>1436.291992</ele><time>2010-06-10T13:27:52Z</time></trkpt>
<trkpt lat="46.45664400" lon="7.04197600"><ele>1436.342041</ele><time>2010-06-10T13:27:53Z</time></trkpt>
<trkpt lat="46.45664200" lon="7.04200500"><ele>1436.633057</ele><time>2010-06-10T13:27:56Z</time></trkpt>
<trkpt lat="46.45662700" lon="7.04223300"><ele>1437.782959</ele><time>2010-06-10T13:28:46Z</time></trkpt>
<trkpt lat="46.45662700" lon="7.04224700"><ele>1437.922974</ele><time>2010-06-10T13:28:47Z</time></trkpt>
<trkpt lat="46.45662600" lon="7.04229200"><ele>1438.125977</ele><time>2010-06-10T13:28:53Z</time></trkpt>
<trkpt lat="46.45662600" lon="7.04204600"><ele>1438.494995</ele><time>2010-06-10T13:29:15Z</time></trkpt>
<trkpt lat="46.45662600" lon="7.04203000"><ele>1438.51001</ele><time>2010-06-10T13:29:16Z</time></trkpt>
<trkpt lat="46.45662600" lon="7.04204100"><ele>1438.81897</ele><time>2010-06-10T13:29:18Z</time></trkpt>
<trkpt lat="46.45660000" lon="7.04202300"><ele>1438.946045</ele><time>2010-06-10T13:29:44Z</time></trkpt>
<trkpt lat="46.45653400" lon="7.04200800"><ele>1440.110962</ele><time>2010-06-10T13:29:56Z</time></trkpt>
<trkpt lat="46.45648300" lon="7.04198300"><ele>1441.506958</ele><time>2010-06-10T13:30:02Z</time></trkpt>
<trkpt lat="46.45641400" lon="7.04199500"><ele>1442.427002</ele><time>2010-06-10T13:30:07Z</time></trkpt>
<trkpt lat="46.45635000" lon="7.04198000"><ele>1443.416992</ele><time>2010-06-10T13:30:11Z</time></trkpt>
<trkpt lat="46.45633200" lon="7.04198300"><ele>1443.776978</ele><time>2010-06-10T13:30:12Z</time></trkpt>
<trkpt lat="46.45626800" lon="7.04199300"><ele>1445.280029</ele><time>2010-06-10T13:30:18Z</time></trkpt>
<trkpt lat="46.45621600" lon="7.04195000"><ele>1446.391968</ele><time>2010-06-10T13:30:23Z</time></trkpt>
<trkpt lat="46.45613400" lon="7.04188800"><ele>1448.031006</ele><time>2010-06-10T13:30:31Z</time></trkpt>
<trkpt lat="46.45606400" lon="7.04188100"><ele>1449.142944</ele><time>2010-06-10T13:30:36Z</time></trkpt>
<trkpt lat="46.45603600" lon="7.04187000"><ele>1449.666992</ele><time>2010-06-10T13:30:38Z</time></trkpt>
<trkpt lat="46.45600700" lon="7.04182600"><ele>1449.860962</ele><time>2010-06-10T13:30:40Z</time></trkpt>
<trkpt lat="46.45591600" lon="7.04174500"><ele>1451.390991</ele><time>2010-06-10T13:30:47Z</time></trkpt>
<trkpt lat="46.45586700" lon="7.04168700"><ele>1452.343018</ele><time>2010-06-10T13:30:52Z</time></trkpt>
<trkpt lat="46.45579100" lon="7.04166800"><ele>1453.553955</ele><time>2010-06-10T13:31:00Z</time></trkpt>
<trkpt lat="46.45574900" lon="7.04166900"><ele>1454.171997</ele><time>2010-06-10T13:31:04Z</time></trkpt>
<trkpt lat="46.45565200" lon="7.04162300"><ele>1455.843994</ele><time>2010-06-10T13:31:12Z</time></trkpt>
<trkpt lat="46.45558700" lon="7.04160100"><ele>1457.092041</ele><time>2010-06-10T13:31:19Z</time></trkpt>
<trkpt lat="46.45552900" lon="7.04156700"><ele>1458.61499</ele><time>2010-06-10T13:31:26Z</time></trkpt>
<trkpt lat="46.45549000" lon="7.04150400"><ele>1459.838013</ele><time>2010-06-10T13:31:31Z</time></trkpt>
<trkpt lat="46.45543700" lon="7.04143700"><ele>1460.444946</ele><time>2010-06-10T13:31:36Z</time></trkpt>
<trkpt lat="46.45533200" lon="7.04139800"><ele>1462.067017</ele><time>2010-06-10T13:31:47Z</time></trkpt>
<trkpt lat="46.45526600" lon="7.04133800"><ele>1462.916016</ele><time>2010-06-10T13:31:54Z</time></trkpt>
<trkpt lat="46.45524200" lon="7.04131700"><ele>1463.067993</ele><time>2010-06-10T13:31:56Z</time></trkpt>
<trkpt lat="46.45514900" lon="7.04132500"><ele>1463.972046</ele><time>2010-06-10T13:32:05Z</time></trkpt>
<trkpt lat="46.45504300" lon="7.04140900"><ele>1464.534058</ele><time>2010-06-10T13:32:14Z</time></trkpt>
<trkpt lat="46.45503400" lon="7.04140400"><ele>1465.436035</ele><time>2010-06-10T13:32:19Z</time></trkpt>
<trkpt lat="46.45513000" lon="7.04146900"><ele>1466.296997</ele><time>2010-06-10T13:32:27Z</time></trkpt>
<trkpt lat="46.45515300" lon="7.04147000"><ele>1466.615967</ele><time>2010-06-10T13:32:29Z</time></trkpt>
<trkpt lat="46.45524300" lon="7.04136000"><ele>1467.540039</ele><time>2010-06-10T13:32:36Z</time></trkpt>
<trkpt lat="46.45535700" lon="7.04132600"><ele>1469.071045</ele><time>2010-06-10T13:32:45Z</time></trkpt>
<trkpt lat="46.45547000" lon="7.04128100"><ele>1470.94104</ele><time>2010-06-10T13:32:54Z</time></trkpt>
<trkpt lat="46.45557800" lon="7.04131200"><ele>1472.395996</ele><time>2010-06-10T13:33:03Z</time></trkpt>
<trkpt lat="46.45565600" lon="7.04139500"><ele>1474.026001</ele><time>2010-06-10T13:33:11Z</time></trkpt>
<trkpt lat="46.45574700" lon="7.04137100"><ele>1475.678955</ele><time>2010-06-10T13:33:18Z</time></trkpt>
<trkpt lat="46.45584200" lon="7.04130900"><ele>1477.271973</ele><time>2010-06-10T13:33:26Z</time></trkpt>
<trkpt lat="46.45593400" lon="7.04125800"><ele>1478.735962</ele><time>2010-06-10T13:33:34Z</time></trkpt>
<trkpt lat="46.45602500" lon="7.04128700"><ele>1480.578979</ele><time>2010-06-10T13:33:43Z</time></trkpt>
<trkpt lat="46.45605700" lon="7.04128700"><ele>1481.478027</ele><time>2010-06-10T13:33:47Z</time></trkpt>
<trkpt lat="46.45611200" lon="7.04133700"><ele>1482.857056</ele><time>2010-06-10T13:33:52Z</time></trkpt>
<trkpt lat="46.45614000" lon="7.04136100"><ele>1483.504028</ele><time>2010-06-10T13:33:55Z</time></trkpt>
<trkpt lat="46.45622400" lon="7.04134600"><ele>1485.348999</ele><time>2010-06-10T13:34:02Z</time></trkpt>
<trkpt lat="46.45626400" lon="7.04131200"><ele>1486.458008</ele><time>2010-06-10T13:34:07Z</time></trkpt>
<trkpt lat="46.45628500" lon="7.04128800"><ele>1487.267944</ele><time>2010-06-10T13:34:11Z</time></trkpt>
<trkpt lat="46.45637300" lon="7.04130500"><ele>1488.474976</ele><time>2010-06-10T13:34:17Z</time></trkpt>
<trkpt lat="46.45640400" lon="7.04131600"><ele>1488.807007</ele><time>2010-06-10T13:34:19Z</time></trkpt>
<trkpt lat="46.45642700" lon="7.04133200"><ele>1489.553955</ele><time>2010-06-10T13:34:21Z</time></trkpt>
<trkpt lat="46.45654700" lon="7.04136000"><ele>1491.435059</ele><time>2010-06-10T13:34:29Z</time></trkpt>
<trkpt lat="46.45657500" lon="7.04137200"><ele>1491.906006</ele><time>2010-06-10T13:34:32Z</time></trkpt>
<trkpt lat="46.45665300" lon="7.04129600"><ele>1492.821045</ele><time>2010-06-10T13:34:39Z</time></trkpt>
<trkpt lat="46.45668400" lon="7.04126400"><ele>1493.269043</ele><time>2010-06-10T13:34:42Z</time></trkpt>
<trkpt lat="46.45673700" lon="7.04119300"><ele>1494.125</ele><time>2010-06-10T13:34:49Z</time></trkpt>
<trkpt lat="46.45673300" lon="7.04118300"><ele>1494.464966</ele><time>2010-06-10T13:34:50Z</time></trkpt>
<trkpt lat="46.45666500" lon="7.04121100"><ele>1494.970947</ele><time>2010-06-10T13:34:56Z</time></trkpt>
<trkpt lat="46.45657900" lon="7.04125000"><ele>1496.099976</ele><time>2010-06-10T13:35:04Z</time></trkpt>
<trkpt lat="46.45652800" lon="7.04121900"><ele>1496.927979</ele><time>2010-06-10T13:35:09Z</time></trkpt>
<trkpt lat="46.45649000" lon="7.04120600"><ele>1497.534058</ele><time>2010-06-10T13:35:13Z</time></trkpt>
<trkpt lat="46.45644200" lon="7.04116200"><ele>1498.765015</ele><time>2010-06-10T13:35:19Z</time></trkpt>
<trkpt lat="46.45637600" lon="7.04110700"><ele>1499.916016</ele><time>2010-06-10T13:35:26Z</time></trkpt>
<trkpt lat="46.45632700" lon="7.04110300"><ele>1500.732056</ele><time>2010-06-10T13:35:31Z</time></trkpt>
<trkpt lat="46.45624500" lon="7.04106200"><ele>1502.175049</ele><time>2010-06-10T13:35:38Z</time></trkpt>
<trkpt lat="46.45621100" lon="7.04105300"><ele>1502.764038</ele><time>2010-06-10T13:35:41Z</time></trkpt>
<trkpt lat="46.45618900" lon="7.04104100"><ele>1503.209961</ele><time>2010-06-10T13:35:43Z</time></trkpt>
<trkpt lat="46.45607300" lon="7.04097500"><ele>1504.577026</ele><time>2010-06-10T13:35:51Z</time></trkpt>
<trkpt lat="46.45606400" lon="7.04097200"><ele>1504.780029</ele><time>2010-06-10T13:35:52Z</time></trkpt>
<trkpt lat="46.45602800" lon="7.04095500"><ele>1505.437012</ele><time>2010-06-10T13:35:56Z</time></trkpt>
<trkpt lat="46.45598400" lon="7.04087800"><ele>1506.274048</ele><time>2010-06-10T13:36:03Z</time></trkpt>
<trkpt lat="46.45597800" lon="7.04085200"><ele>1506.567993</ele><time>2010-06-10T13:36:08Z</time></trkpt>
<trkpt lat="46.45609900" lon="7.04093500"><ele>1511.588989</ele><time>2010-06-10T13:39:23Z</time></trkpt>
<trkpt lat="46.45610100" lon="7.04093500"><ele>1511.68103</ele><time>2010-06-10T13:39:24Z</time></trkpt>
<trkpt lat="46.45610200" lon="7.04093400"><ele>1511.687988</ele><time>2010-06-10T13:39:25Z</time></trkpt>
<trkpt lat="46.45611500" lon="7.04095300"><ele>1511.859985</ele><time>2010-06-10T13:39:30Z</time></trkpt>
<trkpt lat="46.45616200" lon="7.04100400"><ele>1512.477051</ele><time>2010-06-10T13:39:52Z</time></trkpt>
<trkpt lat="46.45624600" lon="7.04093900"><ele>1513.942993</ele><time>2010-06-10T13:39:59Z</time></trkpt>
<trkpt lat="46.45626400" lon="7.04093400"><ele>1514.376953</ele><time>2010-06-10T13:40:01Z</time></trkpt>
<trkpt lat="46.45631500" lon="7.04088500"><ele>1516.03894</ele><time>2010-06-10T13:40:08Z</time></trkpt>
<trkpt lat="46.45634000" lon="7.04088500"><ele>1516.332031</ele><time>2010-06-10T13:40:10Z</time></trkpt>
<trkpt lat="46.45642600" lon="7.04085200"><ele>1517.666992</ele><time>2010-06-10T13:40:16Z</time></trkpt>
<trkpt lat="46.45646800" lon="7.04081200"><ele>1519.248047</ele><time>2010-06-10T13:40:22Z</time></trkpt>
<trkpt lat="46.45652900" lon="7.04079700"><ele>1520.720947</ele><time>2010-06-10T13:40:28Z</time></trkpt>
<trkpt lat="46.45666000" lon="7.04080800"><ele>1522.307983</ele><time>2010-06-10T13:40:36Z</time></trkpt>
<trkpt lat="46.45673800" lon="7.04080900"><ele>1523.453003</ele><time>2010-06-10T13:40:42Z</time></trkpt>
<trkpt lat="46.45682800" lon="7.04079800"><ele>1524.904053</ele><time>2010-06-10T13:40:48Z</time></trkpt>
<trkpt lat="46.45695600" lon="7.04079800"><ele>1527.078979</ele><time>2010-06-10T13:40:58Z</time></trkpt>
<trkpt lat="46.45705900" lon="7.04071900"><ele>1528.887939</ele><time>2010-06-10T13:41:07Z</time></trkpt>
<trkpt lat="46.45704300" lon="7.04063800"><ele>1529.142944</ele><time>2010-06-10T13:41:09Z</time></trkpt>
<trkpt lat="46.45699900" lon="7.04033100"><ele>1528.907959</ele><time>2010-06-10T13:41:31Z</time></trkpt>
<trkpt lat="46.45707500" lon="7.04026200"><ele>1531.678955</ele><time>2010-06-10T13:41:42Z</time></trkpt>
<trkpt lat="46.45714400" lon="7.04020500"><ele>1531.072998</ele><time>2010-06-10T13:41:52Z</time></trkpt>
<trkpt lat="46.45719200" lon="7.04018500"><ele>1532.629028</ele><time>2010-06-10T13:42:01Z</time></trkpt>
<trkpt lat="46.45724300" lon="7.04013600"><ele>1533.759033</ele><time>2010-06-10T13:42:11Z</time></trkpt>
<trkpt lat="46.45728800" lon="7.04010300"><ele>1534.682007</ele><time>2010-06-10T13:42:20Z</time></trkpt>
<trkpt lat="46.45735400" lon="7.04007000"><ele>1535.485962</ele><time>2010-06-10T13:42:30Z</time></trkpt>
<trkpt lat="46.45743800" lon="7.04006100"><ele>1535.102051</ele><time>2010-06-10T13:42:40Z</time></trkpt>
<trkpt lat="46.45752200" lon="7.04007000"><ele>1534.380981</ele><time>2010-06-10T13:42:50Z</time></trkpt>
<trkpt lat="46.45753100" lon="7.04007000"><ele>1534.524048</ele><time>2010-06-10T13:42:51Z</time></trkpt>
<trkpt lat="46.45759200" lon="7.04005700"><ele>1535.305054</ele><time>2010-06-10T13:42:59Z</time></trkpt>
<trkpt lat="46.45764600" lon="7.04003100"><ele>1535.396973</ele><time>2010-06-10T13:43:08Z</time></trkpt>
<trkpt lat="46.45765100" lon="7.04002000"><ele>1535.597046</ele><time>2010-06-10T13:43:10Z</time></trkpt>
<trkpt lat="46.45764500" lon="7.03992400"><ele>1536.748047</ele><time>2010-06-10T13:43:28Z</time></trkpt>
<trkpt lat="46.45766000" lon="7.03992100"><ele>1536.947998</ele><time>2010-06-10T13:43:29Z</time></trkpt>
<trkpt lat="46.45773200" lon="7.03991600"><ele>1537.619995</ele><time>2010-06-10T13:43:33Z</time></trkpt>
<trkpt lat="46.45783800" lon="7.03991500"><ele>1539.055054</ele><time>2010-06-10T13:43:40Z</time></trkpt>
<trkpt lat="46.45788400" lon="7.03989600"><ele>1539.520996</ele><time>2010-06-10T13:43:44Z</time></trkpt>
<trkpt lat="46.45799500" lon="7.03993200"><ele>1540.285034</ele><time>2010-06-10T13:43:53Z</time></trkpt>
<trkpt lat="46.45810200" lon="7.03996500"><ele>1540.490967</ele><time>2010-06-10T13:44:01Z</time></trkpt>
<trkpt lat="46.45819800" lon="7.04005000"><ele>1541.583008</ele><time>2010-06-10T13:44:09Z</time></trkpt>
<trkpt lat="46.45830000" lon="7.04010700"><ele>1543.317017</ele><time>2010-06-10T13:44:16Z</time></trkpt>
<trkpt lat="46.45837400" lon="7.04010100"><ele>1544.213013</ele><time>2010-06-10T13:44:20Z</time></trkpt>
<trkpt lat="46.45848000" lon="7.04008900"><ele>1546.121948</ele><time>2010-06-10T13:44:27Z</time></trkpt>
<trkpt lat="46.45856200" lon="7.04007900"><ele>1548.203003</ele><time>2010-06-10T13:44:35Z</time></trkpt>
<trkpt lat="46.45865800" lon="7.04003700"><ele>1549.801025</ele><time>2010-06-10T13:44:44Z</time></trkpt>
<trkpt lat="46.45874500" lon="7.04001500"><ele>1551.427979</ele><time>2010-06-10T13:44:53Z</time></trkpt>
<trkpt lat="46.45884400" lon="7.03999200"><ele>1552.953979</ele><time>2010-06-10T13:45:01Z</time></trkpt>
<trkpt lat="46.45894000" lon="7.04000600"><ele>1554.803955</ele><time>2010-06-10T13:45:09Z</time></trkpt>
<trkpt lat="46.45899300" lon="7.03999900"><ele>1555.212036</ele><time>2010-06-10T13:45:15Z</time></trkpt>
<trkpt lat="46.45904200" lon="7.03999700"><ele>1555.996948</ele><time>2010-06-10T13:45:39Z</time></trkpt>
<trkpt lat="46.45909800" lon="7.03997000"><ele>1557.517944</ele><time>2010-06-10T13:45:48Z</time></trkpt>
<trkpt lat="46.45913000" lon="7.03995300"><ele>1558.197998</ele><time>2010-06-10T13:45:53Z</time></trkpt>
<trkpt lat="46.45917500" lon="7.03990900"><ele>1559.05896</ele><time>2010-06-10T13:46:01Z</time></trkpt>
<trkpt lat="46.45923800" lon="7.03986300"><ele>1560.511963</ele><time>2010-06-10T13:46:11Z</time></trkpt>
<trkpt lat="46.45927800" lon="7.03984400"><ele>1561.625977</ele><time>2010-06-10T13:46:19Z</time></trkpt>
<trkpt lat="46.45931700" lon="7.03988400"><ele>1562.369995</ele><time>2010-06-10T13:46:24Z</time></trkpt>
<trkpt lat="46.45935500" lon="7.03993300"><ele>1563.140015</ele><time>2010-06-10T13:46:29Z</time></trkpt>
<trkpt lat="46.45940200" lon="7.03993400"><ele>1563.868042</ele><time>2010-06-10T13:46:35Z</time></trkpt>
<trkpt lat="46.45940700" lon="7.03992600"><ele>1563.958984</ele><time>2010-06-10T13:46:36Z</time></trkpt>
<trkpt lat="46.45941800" lon="7.03987200"><ele>1564.468994</ele><time>2010-06-10T13:46:41Z</time></trkpt>
<trkpt lat="46.45941200" lon="7.03983100"><ele>1565.520996</ele><time>2010-06-10T13:47:51Z</time></trkpt>
<trkpt lat="46.45948700" lon="7.03978300"><ele>1566.75</ele><time>2010-06-10T13:47:56Z</time></trkpt>
<trkpt lat="46.45958400" lon="7.03976200"><ele>1568.359985</ele><time>2010-06-10T13:48:01Z</time></trkpt>
<trkpt lat="46.45962100" lon="7.03971400"><ele>1569.569946</ele><time>2010-06-10T13:48:05Z</time></trkpt>
<trkpt lat="46.45967600" lon="7.03969700"><ele>1570.131958</ele><time>2010-06-10T13:48:09Z</time></trkpt>
<trkpt lat="46.45975800" lon="7.03967400"><ele>1570.942993</ele><time>2010-06-10T13:48:15Z</time></trkpt>
<trkpt lat="46.45987500" lon="7.03965300"><ele>1572.152954</ele><time>2010-06-10T13:48:24Z</time></trkpt>
<trkpt lat="46.45996700" lon="7.03958900"><ele>1573.407959</ele><time>2010-06-10T13:48:33Z</time></trkpt>
<trkpt lat="46.46005000" lon="7.03957200"><ele>1574.489014</ele><time>2010-06-10T13:48:41Z</time></trkpt>
<trkpt lat="46.46016900" lon="7.03955000"><ele>1575.916016</ele><time>2010-06-10T13:48:49Z</time></trkpt>
<trkpt lat="46.46027800" lon="7.03950900"><ele>1577.405029</ele><time>2010-06-10T13:48:58Z</time></trkpt>
<trkpt lat="46.46032300" lon="7.03947900"><ele>1578.078979</ele><time>2010-06-10T13:49:03Z</time></trkpt>
<trkpt lat="46.46040600" lon="7.03946800"><ele>1578.682983</ele><time>2010-06-10T13:49:08Z</time></trkpt>
<trkpt lat="46.46050900" lon="7.03943400"><ele>1579.812988</ele><time>2010-06-10T13:49:16Z</time></trkpt>
<trkpt lat="46.46055400" lon="7.03943700"><ele>1581.051025</ele><time>2010-06-10T13:49:22Z</time></trkpt>
<trkpt lat="46.46060000" lon="7.03948200"><ele>1581.948975</ele><time>2010-06-10T13:49:27Z</time></trkpt>
<trkpt lat="46.46062300" lon="7.03946000"><ele>1582.678955</ele><time>2010-06-10T13:49:30Z</time></trkpt>
<trkpt lat="46.46068100" lon="7.03945000"><ele>1583.366943</ele><time>2010-06-10T13:49:34Z</time></trkpt>
<trkpt lat="46.46073400" lon="7.03943400"><ele>1584.202026</ele><time>2010-06-10T13:49:38Z</time></trkpt>
<trkpt lat="46.46080300" lon="7.03946700"><ele>1585.56897</ele><time>2010-06-10T13:49:44Z</time></trkpt>
<trkpt lat="46.46088100" lon="7.03946200"><ele>1587.042969</ele><time>2010-06-10T13:49:51Z</time></trkpt>
<trkpt lat="46.46093000" lon="7.03931000"><ele>1589.072021</ele><time>2010-06-10T13:49:59Z</time></trkpt>
<trkpt lat="46.46098100" lon="7.03921300"><ele>1589.984009</ele><time>2010-06-10T13:50:07Z</time></trkpt>
<trkpt lat="46.46103800" lon="7.03917800"><ele>1590.30896</ele><time>2010-06-10T13:50:11Z</time></trkpt>
<trkpt lat="46.46110100" lon="7.03908400"><ele>1591.303955</ele><time>2010-06-10T13:50:18Z</time></trkpt>
<trkpt lat="46.46115900" lon="7.03898300"><ele>1591.843018</ele><time>2010-06-10T13:50:25Z</time></trkpt>
<trkpt lat="46.46125100" lon="7.03891200"><ele>1593.19397</ele><time>2010-06-10T13:50:34Z</time></trkpt>
<trkpt lat="46.46127500" lon="7.03888600"><ele>1593.328979</ele><time>2010-06-10T13:50:38Z</time></trkpt>
<trkpt lat="46.46130000" lon="7.03882800"><ele>1594.079956</ele><time>2010-06-10T13:50:42Z</time></trkpt>
<trkpt lat="46.46130500" lon="7.03866100"><ele>1595.259033</ele><time>2010-06-10T13:50:50Z</time></trkpt>
<trkpt lat="46.46132400" lon="7.03853700"><ele>1596.217041</ele><time>2010-06-10T13:50:56Z</time></trkpt>
<trkpt lat="46.46135500" lon="7.03841100"><ele>1597.047974</ele><time>2010-06-10T13:51:02Z</time></trkpt>
<trkpt lat="46.46136600" lon="7.03827900"><ele>1598.057007</ele><time>2010-06-10T13:51:09Z</time></trkpt>
<trkpt lat="46.46138000" lon="7.03816600"><ele>1599.083984</ele><time>2010-06-10T13:51:15Z</time></trkpt>
<trkpt lat="46.46139500" lon="7.03798000"><ele>1600.357056</ele><time>2010-06-10T13:51:24Z</time></trkpt>
<trkpt lat="46.46140100" lon="7.03782000"><ele>1601.447998</ele><time>2010-06-10T13:51:31Z</time></trkpt>
<trkpt lat="46.46141700" lon="7.03766700"><ele>1601.572998</ele><time>2010-06-10T13:51:37Z</time></trkpt>
<trkpt lat="46.46139500" lon="7.03746700"><ele>1602.031982</ele><time>2010-06-10T13:51:44Z</time></trkpt>
<trkpt lat="46.46129500" lon="7.03715000"><ele>1602.271973</ele><time>2010-06-10T13:51:53Z</time></trkpt>
<trkpt lat="46.46121100" lon="7.03687600"><ele>1602.248047</ele><time>2010-06-10T13:52:01Z</time></trkpt>
<trkpt lat="46.46107700" lon="7.03661900"><ele>1602.20105</ele><time>2010-06-10T13:52:09Z</time></trkpt>
<trkpt lat="46.46101800" lon="7.03638200"><ele>1602.521973</ele><time>2010-06-10T13:52:16Z</time></trkpt>
<trkpt lat="46.46091900" lon="7.03610800"><ele>1602.536987</ele><time>2010-06-10T13:52:24Z</time></trkpt>
<trkpt lat="46.46079800" lon="7.03586000"><ele>1602.43103</ele><time>2010-06-10T13:52:32Z</time></trkpt>
<trkpt lat="46.46067100" lon="7.03554700"><ele>1602.25</ele><time>2010-06-10T13:52:42Z</time></trkpt>
<trkpt lat="46.46069900" lon="7.03534000"><ele>1602.290039</ele><time>2010-06-10T13:52:48Z</time></trkpt>
<trkpt lat="46.46073500" lon="7.03503700"><ele>1603.098999</ele><time>2010-06-10T13:52:57Z</time></trkpt>
<trkpt lat="46.46066700" lon="7.03479500"><ele>1602.865967</ele><time>2010-06-10T13:53:04Z</time></trkpt>
<trkpt lat="46.46068100" lon="7.03453700"><ele>1603.161011</ele><time>2010-06-10T13:53:12Z</time></trkpt>
<trkpt lat="46.46068800" lon="7.03418000"><ele>1603.277954</ele><time>2010-06-10T13:53:22Z</time></trkpt>
<trkpt lat="46.46074300" lon="7.03392600"><ele>1603.108032</ele><time>2010-06-10T13:53:30Z</time></trkpt>
<trkpt lat="46.46082100" lon="7.03385000"><ele>1603.119019</ele><time>2010-06-10T13:53:36Z</time></trkpt>
<trkpt lat="46.46094600" lon="7.03375200"><ele>1602.350952</ele><time>2010-06-10T13:53:51Z</time></trkpt>
<trkpt lat="46.46110100" lon="7.03364900"><ele>1602.312988</ele><time>2010-06-10T13:53:57Z</time></trkpt>
<trkpt lat="46.46135800" lon="7.03359900"><ele>1602.30896</ele><time>2010-06-10T13:54:05Z</time></trkpt>
<trkpt lat="46.46153700" lon="7.03344400"><ele>1602.22998</ele><time>2010-06-10T13:54:11Z</time></trkpt>
<trkpt lat="46.46160600" lon="7.03323400"><ele>1602.240967</ele><time>2010-06-10T13:54:16Z</time></trkpt>
<trkpt lat="46.46161900" lon="7.03296300"><ele>1602.630005</ele><time>2010-06-10T13:54:23Z</time></trkpt>
<trkpt lat="46.46162200" lon="7.03261100"><ele>1603.421021</ele><time>2010-06-10T13:54:32Z</time></trkpt>
<trkpt lat="46.46160300" lon="7.03215800"><ele>1604.63501</ele><time>2010-06-10T13:54:43Z</time></trkpt>
<trkpt lat="46.46158900" lon="7.03170400"><ele>1605.235962</ele><time>2010-06-10T13:54:54Z</time></trkpt>
<trkpt lat="46.46160100" lon="7.03140600"><ele>1605.985962</ele><time>2010-06-10T13:55:02Z</time></trkpt>
<trkpt lat="46.46162000" lon="7.03111600"><ele>1606.834961</ele><time>2010-06-10T13:55:11Z</time></trkpt>
<trkpt lat="46.46166100" lon="7.03077700"><ele>1607.72998</ele><time>2010-06-10T13:55:22Z</time></trkpt>
<trkpt lat="46.46167400" lon="7.03070300"><ele>1608.123047</ele><time>2010-06-10T13:55:27Z</time></trkpt>
<trkpt lat="46.46167700" lon="7.03069600"><ele>1607.547974</ele><time>2010-06-10T13:55:29Z</time></trkpt>
<trkpt lat="46.46167300" lon="7.03073600"><ele>1611.703003</ele><time>2010-06-10T13:55:35Z</time></trkpt>
<trkpt lat="46.46166400" lon="7.03069700"><ele>1609.421997</ele><time>2010-06-10T13:55:40Z</time></trkpt>
<trkpt lat="46.46166500" lon="7.03068000"><ele>1608.19397</ele><time>2010-06-10T13:55:44Z</time></trkpt>
<trkpt lat="46.46161500" lon="7.03065400"><ele>1607.302002</ele><time>2010-06-10T13:55:57Z</time></trkpt>
<trkpt lat="46.46161700" lon="7.03059500"><ele>1607.331055</ele><time>2010-06-10T13:56:16Z</time></trkpt>
<trkpt lat="46.46161700" lon="7.03059000"><ele>1607.258057</ele><time>2010-06-10T13:56:17Z</time></trkpt>
<trkpt lat="46.46159200" lon="7.03049100"><ele>1606.553955</ele><time>2010-06-10T13:56:25Z</time></trkpt>
<trkpt lat="46.46156700" lon="7.03034400"><ele>1605.198975</ele><time>2010-06-10T13:56:32Z</time></trkpt>
<trkpt lat="46.46151600" lon="7.03021400"><ele>1603.777954</ele><time>2010-06-10T13:56:38Z</time></trkpt>
<trkpt lat="46.46146100" lon="7.03004600"><ele>1602.569946</ele><time>2010-06-10T13:56:44Z</time></trkpt>
<trkpt lat="46.46139100" lon="7.02980800"><ele>1600.552002</ele><time>2010-06-10T13:56:51Z</time></trkpt>
<trkpt lat="46.46135900" lon="7.02971000"><ele>1599.552979</ele><time>2010-06-10T13:56:56Z</time></trkpt>
<trkpt lat="46.46133300" lon="7.02969300"><ele>1599.152954</ele><time>2010-06-10T13:57:37Z</time></trkpt>
<trkpt lat="46.46132100" lon="7.02966800"><ele>1598.977051</ele><time>2010-06-10T13:57:38Z</time></trkpt>
<trkpt lat="46.46128400" lon="7.02950500"><ele>1597.176025</ele><time>2010-06-10T13:57:43Z</time></trkpt>
<trkpt lat="46.46135700" lon="7.02935700"><ele>1594.88501</ele><time>2010-06-10T13:57:47Z</time></trkpt>
<trkpt lat="46.46143000" lon="7.02915300"><ele>1592.276978</ele><time>2010-06-10T13:57:52Z</time></trkpt>
<trkpt lat="46.46143500" lon="7.02909100"><ele>1591.53894</ele><time>2010-06-10T13:57:54Z</time></trkpt>
<trkpt lat="46.46143700" lon="7.02898600"><ele>1590.297974</ele><time>2010-06-10T13:57:59Z</time></trkpt>
<trkpt lat="46.46143800" lon="7.02898300"><ele>1590.119019</ele><time>2010-06-10T13:58:00Z</time></trkpt>
<trkpt lat="46.46142000" lon="7.02887600"><ele>1589.213013</ele><time>2010-06-10T13:58:05Z</time></trkpt>
<trkpt lat="46.46138400" lon="7.02868400"><ele>1587.149048</ele><time>2010-06-10T13:58:10Z</time></trkpt>
<trkpt lat="46.46128400" lon="7.02835300"><ele>1583.291016</ele><time>2010-06-10T13:58:18Z</time></trkpt>
<trkpt lat="46.46126100" lon="7.02827300"><ele>1582.482056</ele><time>2010-06-10T13:58:20Z</time></trkpt>
<trkpt lat="46.46118800" lon="7.02796600"><ele>1579.243042</ele><time>2010-06-10T13:58:27Z</time></trkpt>
<trkpt lat="46.46119100" lon="7.02769900"><ele>1575.628052</ele><time>2010-06-10T13:58:33Z</time></trkpt>
<trkpt lat="46.46121500" lon="7.02747600"><ele>1572.723999</ele><time>2010-06-10T13:58:38Z</time></trkpt>
<trkpt lat="46.46116900" lon="7.02727500"><ele>1570.781006</ele><time>2010-06-10T13:58:43Z</time></trkpt>
<trkpt lat="46.46100800" lon="7.02710800"><ele>1568.449951</ele><time>2010-06-10T13:58:48Z</time></trkpt>
<trkpt lat="46.46095600" lon="7.02706500"><ele>1567.615967</ele><time>2010-06-10T13:58:50Z</time></trkpt>
<trkpt lat="46.46081500" lon="7.02691000"><ele>1565.234985</ele><time>2010-06-10T13:58:56Z</time></trkpt>
<trkpt lat="46.46068100" lon="7.02673200"><ele>1562.883057</ele><time>2010-06-10T13:59:01Z</time></trkpt>
<trkpt lat="46.46051500" lon="7.02654200"><ele>1561.012939</ele><time>2010-06-10T13:59:06Z</time></trkpt>
<trkpt lat="46.46037400" lon="7.02640100"><ele>1558.880005</ele><time>2010-06-10T13:59:10Z</time></trkpt>
<trkpt lat="46.46028300" lon="7.02631300"><ele>1556.718018</ele><time>2010-06-10T13:59:14Z</time></trkpt>
<trkpt lat="46.46013600" lon="7.02617200"><ele>1554.422974</ele><time>2010-06-10T13:59:21Z</time></trkpt>
<trkpt lat="46.46000600" lon="7.02594100"><ele>1552.011963</ele><time>2010-06-10T13:59:28Z</time></trkpt>
<trkpt lat="46.45985800" lon="7.02585600"><ele>1550.535034</ele><time>2010-06-10T13:59:33Z</time></trkpt>
<trkpt lat="46.45970800" lon="7.02574000"><ele>1548.071045</ele><time>2010-06-10T13:59:39Z</time></trkpt>
<trkpt lat="46.45952300" lon="7.02552400"><ele>1544.707031</ele><time>2010-06-10T13:59:47Z</time></trkpt>
<trkpt lat="46.45937800" lon="7.02539500"><ele>1542.525024</ele><time>2010-06-10T13:59:53Z</time></trkpt>
<trkpt lat="46.45926900" lon="7.02529200"><ele>1540.595947</ele><time>2010-06-10T13:59:58Z</time></trkpt>
<trkpt lat="46.45907700" lon="7.02512900"><ele>1537.807007</ele><time>2010-06-10T14:00:06Z</time></trkpt>
<trkpt lat="46.45886100" lon="7.02497400"><ele>1534.342041</ele><time>2010-06-10T14:00:14Z</time></trkpt>
<trkpt lat="46.45875200" lon="7.02489200"><ele>1532.276001</ele><time>2010-06-10T14:00:18Z</time></trkpt>
<trkpt lat="46.45857200" lon="7.02474300"><ele>1529.380981</ele><time>2010-06-10T14:00:25Z</time></trkpt>
<trkpt lat="46.45849200" lon="7.02466900"><ele>1527.791016</ele><time>2010-06-10T14:00:28Z</time></trkpt>
<trkpt lat="46.45834100" lon="7.02454700"><ele>1525.209961</ele><time>2010-06-10T14:00:33Z</time></trkpt>
<trkpt lat="46.45821900" lon="7.02447000"><ele>1522.56604</ele><time>2010-06-10T14:00:37Z</time></trkpt>
<trkpt lat="46.45810500" lon="7.02447000"><ele>1520.442993</ele><time>2010-06-10T14:00:41Z</time></trkpt>
<trkpt lat="46.45789700" lon="7.02441900"><ele>1517.531982</ele><time>2010-06-10T14:00:47Z</time></trkpt>
<trkpt lat="46.45779000" lon="7.02437700"><ele>1515.920044</ele><time>2010-06-10T14:00:51Z</time></trkpt>
<trkpt lat="46.45759800" lon="7.02423700"><ele>1512.324951</ele><time>2010-06-10T14:00:58Z</time></trkpt>
<trkpt lat="46.45738200" lon="7.02400900"><ele>1508.881958</ele><time>2010-06-10T14:01:06Z</time></trkpt>
<trkpt lat="46.45714000" lon="7.02375400"><ele>1503.796997</ele><time>2010-06-10T14:01:14Z</time></trkpt>
<trkpt lat="46.45702900" lon="7.02366100"><ele>1501.698975</ele><time>2010-06-10T14:01:19Z</time></trkpt>
<trkpt lat="46.45688400" lon="7.02356000"><ele>1499.093994</ele><time>2010-06-10T14:01:25Z</time></trkpt>
<trkpt lat="46.45676300" lon="7.02345300"><ele>1496.189941</ele><time>2010-06-10T14:01:30Z</time></trkpt>
<trkpt lat="46.45663100" lon="7.02323500"><ele>1493.70105</ele><time>2010-06-10T14:01:37Z</time></trkpt>
<trkpt lat="46.45657700" lon="7.02313700"><ele>1492.280029</ele><time>2010-06-10T14:01:40Z</time></trkpt>
<trkpt lat="46.45649000" lon="7.02301400"><ele>1489.598022</ele><time>2010-06-10T14:01:46Z</time></trkpt>
<trkpt lat="46.45648700" lon="7.02301300"><ele>1489.008057</ele><time>2010-06-10T14:01:48Z</time></trkpt>
<trkpt lat="46.45645300" lon="7.02294800"><ele>1488.740967</ele><time>2010-06-10T14:02:18Z</time></trkpt>
<trkpt lat="46.45644300" lon="7.02292100"><ele>1488.811035</ele><time>2010-06-10T14:02:19Z</time></trkpt>
<trkpt lat="46.45644600" lon="7.02274500"><ele>1487.267944</ele><time>2010-06-10T14:02:24Z</time></trkpt>
<trkpt lat="46.45645000" lon="7.02253400"><ele>1484.540039</ele><time>2010-06-10T14:02:30Z</time></trkpt>
<trkpt lat="46.45638300" lon="7.02230700"><ele>1481.235962</ele><time>2010-06-10T14:02:37Z</time></trkpt>
<trkpt lat="46.45635400" lon="7.02226500"><ele>1480.535034</ele><time>2010-06-10T14:02:39Z</time></trkpt>
<trkpt lat="46.45625600" lon="7.02217500"><ele>1478.18103</ele><time>2010-06-10T14:02:45Z</time></trkpt>
<trkpt lat="46.45611800" lon="7.02203000"><ele>1473.952026</ele><time>2010-06-10T14:02:51Z</time></trkpt>
<trkpt lat="46.45605700" lon="7.02201200"><ele>1473.272949</ele><time>2010-06-10T14:02:53Z</time></trkpt>
<trkpt lat="46.45593100" lon="7.02203300"><ele>1471.978027</ele><time>2010-06-10T14:02:57Z</time></trkpt>
<trkpt lat="46.45580300" lon="7.02204600"><ele>1470.707031</ele><time>2010-06-10T14:03:01Z</time></trkpt>
<trkpt lat="46.45564800" lon="7.02199600"><ele>1469.078979</ele><time>2010-06-10T14:03:05Z</time></trkpt>
<trkpt lat="46.45555100" lon="7.02193300"><ele>1467.72998</ele><time>2010-06-10T14:03:09Z</time></trkpt>
<trkpt lat="46.45547600" lon="7.02186200"><ele>1465.812012</ele><time>2010-06-10T14:03:14Z</time></trkpt>
<trkpt lat="46.45531500" lon="7.02182500"><ele>1463.901001</ele><time>2010-06-10T14:03:20Z</time></trkpt>
<trkpt lat="46.45513900" lon="7.02177800"><ele>1461.123047</ele><time>2010-06-10T14:03:26Z</time></trkpt>
<trkpt lat="46.45489600" lon="7.02179700"><ele>1456.574951</ele><time>2010-06-10T14:03:34Z</time></trkpt>
<trkpt lat="46.45472500" lon="7.02182600"><ele>1453.876953</ele><time>2010-06-10T14:03:39Z</time></trkpt>
<trkpt lat="46.45453900" lon="7.02179600"><ele>1450.776001</ele><time>2010-06-10T14:03:46Z</time></trkpt>
<trkpt lat="46.45431800" lon="7.02167400"><ele>1446.06897</ele><time>2010-06-10T14:03:55Z</time></trkpt>
<trkpt lat="46.45406600" lon="7.02156000"><ele>1442.339966</ele><time>2010-06-10T14:04:05Z</time></trkpt>
<trkpt lat="46.45391000" lon="7.02152900"><ele>1441.182983</ele><time>2010-06-10T14:04:12Z</time></trkpt>
<trkpt lat="46.45375600" lon="7.02155400"><ele>1438.828003</ele><time>2010-06-10T14:04:20Z</time></trkpt>
<trkpt lat="46.45369700" lon="7.02157300"><ele>1438.220947</ele><time>2010-06-10T14:04:23Z</time></trkpt>
<trkpt lat="46.45355400" lon="7.02150400"><ele>1436.732056</ele><time>2010-06-10T14:04:30Z</time></trkpt>
<trkpt lat="46.45338900" lon="7.02138600"><ele>1435.150024</ele><time>2010-06-10T14:04:37Z</time></trkpt>
<trkpt lat="46.45323200" lon="7.02124700"><ele>1436.517944</ele><time>2010-06-10T14:04:45Z</time></trkpt>
<trkpt lat="46.45308800" lon="7.02110900"><ele>1435.842041</ele><time>2010-06-10T14:04:52Z</time></trkpt>
<trkpt lat="46.45299900" lon="7.02104400"><ele>1436.775024</ele><time>2010-06-10T14:04:57Z</time></trkpt>
<trkpt lat="46.45295100" lon="7.02100500"><ele>1437.397949</ele><time>2010-06-10T14:05:00Z</time></trkpt>
<trkpt lat="46.45289500" lon="7.02088300"><ele>1438.057983</ele><time>2010-06-10T14:05:05Z</time></trkpt>
<trkpt lat="46.45284200" lon="7.02073700"><ele>1438.222046</ele><time>2010-06-10T14:05:09Z</time></trkpt>
<trkpt lat="46.45275800" lon="7.02055200"><ele>1439.140015</ele><time>2010-06-10T14:05:15Z</time></trkpt>
<trkpt lat="46.45269300" lon="7.02044200"><ele>1440.607056</ele><time>2010-06-10T14:05:20Z</time></trkpt>
<trkpt lat="46.45260600" lon="7.02034400"><ele>1438.432007</ele><time>2010-06-10T14:05:25Z</time></trkpt>
<trkpt lat="46.45256900" lon="7.02031800"><ele>1437.188965</ele><time>2010-06-10T14:05:27Z</time></trkpt>
<trkpt lat="46.45252600" lon="7.02031800"><ele>1436.550049</ele><time>2010-06-10T14:05:29Z</time></trkpt>
<trkpt lat="46.45244000" lon="7.02028000"><ele>1434.274048</ele><time>2010-06-10T14:05:33Z</time></trkpt>
<trkpt lat="46.45235500" lon="7.02025900"><ele>1432.159058</ele><time>2010-06-10T14:05:37Z</time></trkpt>
<trkpt lat="46.45227800" lon="7.02020500"><ele>1429.891968</ele><time>2010-06-10T14:05:42Z</time></trkpt>
<trkpt lat="46.45225300" lon="7.02018100"><ele>1428.692017</ele><time>2010-06-10T14:05:46Z</time></trkpt>
<trkpt lat="46.45223000" lon="7.02016200"><ele>1429.282959</ele><time>2010-06-10T14:05:51Z</time></trkpt>
<trkpt lat="46.45223100" lon="7.02014000"><ele>1428.406982</ele><time>2010-06-10T14:05:56Z</time></trkpt>
<trkpt lat="46.45221500" lon="7.02010700"><ele>1427.270996</ele><time>2010-06-10T14:06:01Z</time></trkpt>
<trkpt lat="46.45220200" lon="7.02009900"><ele>1426.671997</ele><time>2010-06-10T14:06:04Z</time></trkpt>
<trkpt lat="46.45216300" lon="7.02006800"><ele>1425.097046</ele><time>2010-06-10T14:06:10Z</time></trkpt>
<trkpt lat="46.45210000" lon="7.02005000"><ele>1422.463989</ele><time>2010-06-10T14:06:18Z</time></trkpt>
<trkpt lat="46.45206200" lon="7.02002800"><ele>1420.110962</ele><time>2010-06-10T14:06:25Z</time></trkpt>
<trkpt lat="46.45201600" lon="7.02001400"><ele>1417.787964</ele><time>2010-06-10T14:06:32Z</time></trkpt>
<trkpt lat="46.45198400" lon="7.01997200"><ele>1415.667969</ele><time>2010-06-10T14:06:39Z</time></trkpt>
<trkpt lat="46.45198200" lon="7.01996100"><ele>1415.265991</ele><time>2010-06-10T14:06:40Z</time></trkpt>
<trkpt lat="46.45198800" lon="7.01992800"><ele>1414.637939</ele><time>2010-06-10T14:06:43Z</time></trkpt>
<trkpt lat="46.45203200" lon="7.01981000"><ele>1413.647949</ele><time>2010-06-10T14:06:51Z</time></trkpt>
<trkpt lat="46.45206400" lon="7.01978700"><ele>1413.072021</ele><time>2010-06-10T14:06:55Z</time></trkpt>
<trkpt lat="46.45209500" lon="7.01975000"><ele>1412.517944</ele><time>2010-06-10T14:07:00Z</time></trkpt>
<trkpt lat="46.45213100" lon="7.01971300"><ele>1411.035034</ele><time>2010-06-10T14:07:05Z</time></trkpt>
<trkpt lat="46.45213900" lon="7.01966200"><ele>1410.363037</ele><time>2010-06-10T14:07:46Z</time></trkpt>
<trkpt lat="46.45222600" lon="7.01956800"><ele>1407.39502</ele><time>2010-06-10T14:07:52Z</time></trkpt>
<trkpt lat="46.45226800" lon="7.01953000"><ele>1406.342041</ele><time>2010-06-10T14:07:54Z</time></trkpt>
<trkpt lat="46.45232000" lon="7.01949000"><ele>1405.189941</ele><time>2010-06-10T14:07:57Z</time></trkpt>
<trkpt lat="46.45233700" lon="7.01947400"><ele>1404.972046</ele><time>2010-06-10T14:08:00Z</time></trkpt>
<trkpt lat="46.45237700" lon="7.01946200"><ele>1404.202026</ele><time>2010-06-10T14:08:05Z</time></trkpt>
<trkpt lat="46.45241800" lon="7.01944600"><ele>1402.821045</ele><time>2010-06-10T14:08:10Z</time></trkpt>
<trkpt lat="46.45247500" lon="7.01942000"><ele>1400.477051</ele><time>2010-06-10T14:08:17Z</time></trkpt>
<trkpt lat="46.45250100" lon="7.01940600"><ele>1398.968994</ele><time>2010-06-10T14:08:22Z</time></trkpt>
<trkpt lat="46.45252200" lon="7.01938900"><ele>1397.963989</ele><time>2010-06-10T14:08:26Z</time></trkpt>
<trkpt lat="46.45252800" lon="7.01938500"><ele>1397.829956</ele><time>2010-06-10T14:08:27Z</time></trkpt>
<trkpt lat="46.45257600" lon="7.01932600"><ele>1394.907959</ele><time>2010-06-10T14:08:36Z</time></trkpt>
<trkpt lat="46.45259100" lon="7.01933000"><ele>1394.265991</ele><time>2010-06-10T14:08:38Z</time></trkpt>
<trkpt lat="46.45262700" lon="7.01934700"><ele>1392.463989</ele><time>2010-06-10T14:08:43Z</time></trkpt>
<trkpt lat="46.45267400" lon="7.01935900"><ele>1390.246948</ele><time>2010-06-10T14:08:50Z</time></trkpt>
<trkpt lat="46.45270800" lon="7.01934500"><ele>1387.881958</ele><time>2010-06-10T14:08:56Z</time></trkpt>
<trkpt lat="46.45270600" lon="7.01931000"><ele>1386.245972</ele><time>2010-06-10T14:09:00Z</time></trkpt>
<trkpt lat="46.45270800" lon="7.01925100"><ele>1384.947021</ele><time>2010-06-10T14:09:09Z</time></trkpt>
<trkpt lat="46.45271400" lon="7.01916800"><ele>1382.81897</ele><time>2010-06-10T14:09:16Z</time></trkpt>
<trkpt lat="46.45273300" lon="7.01917100"><ele>1381.590942</ele><time>2010-06-10T14:09:19Z</time></trkpt>
<trkpt lat="46.45275900" lon="7.01917700"><ele>1380.144043</ele><time>2010-06-10T14:09:25Z</time></trkpt>
<trkpt lat="46.45277400" lon="7.01919100"><ele>1378.69104</ele><time>2010-06-10T14:09:29Z</time></trkpt>
<trkpt lat="46.45279700" lon="7.01920500"><ele>1378.036987</ele><time>2010-06-10T14:09:33Z</time></trkpt>
<trkpt lat="46.45282900" lon="7.01925100"><ele>1375.68103</ele><time>2010-06-10T14:09:39Z</time></trkpt>
<trkpt lat="46.45283800" lon="7.01925600"><ele>1375.402954</ele><time>2010-06-10T14:09:40Z</time></trkpt>
<trkpt lat="46.45288000" lon="7.01927200"><ele>1373.760986</ele><time>2010-06-10T14:09:46Z</time></trkpt>
<trkpt lat="46.45294000" lon="7.01926400"><ele>1371.685059</ele><time>2010-06-10T14:09:54Z</time></trkpt>
<trkpt lat="46.45294700" lon="7.01926200"><ele>1371.644043</ele><time>2010-06-10T14:09:56Z</time></trkpt>
<trkpt lat="46.45297200" lon="7.01924300"><ele>1371.187988</ele><time>2010-06-10T14:09:59Z</time></trkpt>
<trkpt lat="46.45304600" lon="7.01922400"><ele>1369.579956</ele><time>2010-06-10T14:10:05Z</time></trkpt>
<trkpt lat="46.45313300" lon="7.01918600"><ele>1367.645996</ele><time>2010-06-10T14:10:12Z</time></trkpt>
<trkpt lat="46.45315400" lon="7.01917800"><ele>1366.959961</ele><time>2010-06-10T14:10:15Z</time></trkpt>
<trkpt lat="46.45317300" lon="7.01917400"><ele>1366.604004</ele><time>2010-06-10T14:10:17Z</time></trkpt>
<trkpt lat="46.45323500" lon="7.01909600"><ele>1364.021973</ele><time>2010-06-10T14:10:25Z</time></trkpt>
<trkpt lat="46.45325100" lon="7.01906900"><ele>1362.218018</ele><time>2010-06-10T14:10:28Z</time></trkpt>
<trkpt lat="46.45332100" lon="7.01903600"><ele>1359.082031</ele><time>2010-06-10T14:10:37Z</time></trkpt>
<trkpt lat="46.45336900" lon="7.01902700"><ele>1356.655029</ele><time>2010-06-10T14:10:44Z</time></trkpt>
<trkpt lat="46.45340000" lon="7.01899200"><ele>1355.254028</ele><time>2010-06-10T14:10:49Z</time></trkpt>
<trkpt lat="46.45349600" lon="7.01893600"><ele>1352.427979</ele><time>2010-06-10T14:10:55Z</time></trkpt>
<trkpt lat="46.45356400" lon="7.01886000"><ele>1349.702026</ele><time>2010-06-10T14:11:01Z</time></trkpt>
<trkpt lat="46.45356400" lon="7.01885400"><ele>1349.310059</ele><time>2010-06-10T14:11:02Z</time></trkpt>
<trkpt lat="46.45360000" lon="7.01877000"><ele>1347.115967</ele><time>2010-06-10T14:11:10Z</time></trkpt>
<trkpt lat="46.45360300" lon="7.01875900"><ele>1346.927002</ele><time>2010-06-10T14:11:11Z</time></trkpt>
<trkpt lat="46.45362900" lon="7.01868500"><ele>1344.552979</ele><time>2010-06-10T14:11:19Z</time></trkpt>
<trkpt lat="46.45363300" lon="7.01867700"><ele>1344.144043</ele><time>2010-06-10T14:11:20Z</time></trkpt>
<trkpt lat="46.45369600" lon="7.01860800"><ele>1340.735962</ele><time>2010-06-10T14:11:30Z</time></trkpt>
<trkpt lat="46.45372100" lon="7.01860200"><ele>1339.260986</ele><time>2010-06-10T14:11:34Z</time></trkpt>
<trkpt lat="46.45376200" lon="7.01858600"><ele>1337.480957</ele><time>2010-06-10T14:11:38Z</time></trkpt>
<trkpt lat="46.45380200" lon="7.01858400"><ele>1336.10498</ele><time>2010-06-10T14:11:43Z</time></trkpt>
<trkpt lat="46.45385500" lon="7.01855800"><ele>1334.587036</ele><time>2010-06-10T14:11:49Z</time></trkpt>
<trkpt lat="46.45386400" lon="7.01855300"><ele>1333.754028</ele><time>2010-06-10T14:11:51Z</time></trkpt>
<trkpt lat="46.45390600" lon="7.01849200"><ele>1333.003052</ele><time>2010-06-10T14:11:58Z</time></trkpt>
<trkpt lat="46.45399300" lon="7.01842700"><ele>1331.001953</ele><time>2010-06-10T14:12:03Z</time></trkpt>
<trkpt lat="46.45404700" lon="7.01837900"><ele>1329.840942</ele><time>2010-06-10T14:12:07Z</time></trkpt>
<trkpt lat="46.45412200" lon="7.01830900"><ele>1326.459961</ele><time>2010-06-10T14:12:12Z</time></trkpt>
<trkpt lat="46.45415100" lon="7.01828400"><ele>1325.472046</ele><time>2010-06-10T14:12:14Z</time></trkpt>
<trkpt lat="46.45423200" lon="7.01822400"><ele>1322.751953</ele><time>2010-06-10T14:12:19Z</time></trkpt>
<trkpt lat="46.45428300" lon="7.01819500"><ele>1320.071045</ele><time>2010-06-10T14:12:24Z</time></trkpt>
<trkpt lat="46.45435500" lon="7.01817500"><ele>1317.447021</ele><time>2010-06-10T14:12:30Z</time></trkpt>
<trkpt lat="46.45437500" lon="7.01814600"><ele>1316.35498</ele><time>2010-06-10T14:12:33Z</time></trkpt>
<trkpt lat="46.45440100" lon="7.01806500"><ele>1314.338013</ele><time>2010-06-10T14:12:38Z</time></trkpt>
<trkpt lat="46.45443600" lon="7.01797400"><ele>1312.29895</ele><time>2010-06-10T14:12:44Z</time></trkpt>
<trkpt lat="46.45445700" lon="7.01795000"><ele>1311.52002</ele><time>2010-06-10T14:12:46Z</time></trkpt>
<trkpt lat="46.45448400" lon="7.01792200"><ele>1309.956055</ele><time>2010-06-10T14:12:50Z</time></trkpt>
<trkpt lat="46.45449500" lon="7.01790000"><ele>1309.534058</ele><time>2010-06-10T14:12:56Z</time></trkpt>
<trkpt lat="46.45451300" lon="7.01784100"><ele>1307.73999</ele><time>2010-06-10T14:13:01Z</time></trkpt>
<trkpt lat="46.45452800" lon="7.01783000"><ele>1307.551025</ele><time>2010-06-10T14:13:03Z</time></trkpt>
<trkpt lat="46.45458300" lon="7.01781000"><ele>1307.421021</ele><time>2010-06-10T14:13:10Z</time></trkpt>
<trkpt lat="46.45458600" lon="7.01781200"><ele>1307.362061</ele><time>2010-06-10T14:13:11Z</time></trkpt>
<trkpt lat="46.45463500" lon="7.01762200"><ele>1304.285034</ele><time>2010-06-10T14:13:19Z</time></trkpt>
<trkpt lat="46.45466000" lon="7.01749400"><ele>1302.598999</ele><time>2010-06-10T14:13:24Z</time></trkpt>
<trkpt lat="46.45469800" lon="7.01731000"><ele>1300.805054</ele><time>2010-06-10T14:13:30Z</time></trkpt>
<trkpt lat="46.45469900" lon="7.01725800"><ele>1300.339966</ele><time>2010-06-10T14:13:33Z</time></trkpt>
<trkpt lat="46.45469500" lon="7.01714200"><ele>1299.500977</ele><time>2010-06-10T14:13:38Z</time></trkpt>
<trkpt lat="46.45468400" lon="7.01699500"><ele>1297.952026</ele><time>2010-06-10T14:13:45Z</time></trkpt>
<trkpt lat="46.45468600" lon="7.01697800"><ele>1297.69104</ele><time>2010-06-10T14:13:46Z</time></trkpt>
<trkpt lat="46.45473100" lon="7.01686100"><ele>1296.885986</ele><time>2010-06-10T14:13:54Z</time></trkpt>
<trkpt lat="46.45474600" lon="7.01681800"><ele>1295.120972</ele><time>2010-06-10T14:14:01Z</time></trkpt>
<trkpt lat="46.45472600" lon="7.01669100"><ele>1292.807983</ele><time>2010-06-10T14:14:09Z</time></trkpt>
<trkpt lat="46.45471000" lon="7.01663500"><ele>1292.168945</ele><time>2010-06-10T14:14:13Z</time></trkpt>
<trkpt lat="46.45467900" lon="7.01650000"><ele>1290.845947</ele><time>2010-06-10T14:14:18Z</time></trkpt>
<trkpt lat="46.45467100" lon="7.01638200"><ele>1289.043945</ele><time>2010-06-10T14:14:22Z</time></trkpt>
<trkpt lat="46.45468800" lon="7.01628200"><ele>1286.708984</ele><time>2010-06-10T14:14:27Z</time></trkpt>
<trkpt lat="46.45471000" lon="7.01623900"><ele>1285.621948</ele><time>2010-06-10T14:14:34Z</time></trkpt>
<trkpt lat="46.45472800" lon="7.01626300"><ele>1285.593994</ele><time>2010-06-10T14:14:37Z</time></trkpt>
<trkpt lat="46.45475800" lon="7.01627000"><ele>1284.744995</ele><time>2010-06-10T14:14:49Z</time></trkpt>
<trkpt lat="46.45484600" lon="7.01649400"><ele>1285.154053</ele><time>2010-06-10T14:15:10Z</time></trkpt>
<trkpt lat="46.45489200" lon="7.01648800"><ele>1284.355957</ele><time>2010-06-10T14:15:29Z</time></trkpt>
<trkpt lat="46.45490000" lon="7.01647600"><ele>1283.619019</ele><time>2010-06-10T14:15:31Z</time></trkpt>
<trkpt lat="46.45492200" lon="7.01641800"><ele>1282.010986</ele><time>2010-06-10T14:15:38Z</time></trkpt>
<trkpt lat="46.45491200" lon="7.01636600"><ele>1281.267944</ele><time>2010-06-10T14:15:44Z</time></trkpt>
<trkpt lat="46.45491300" lon="7.01634900"><ele>1280.578979</ele><time>2010-06-10T14:15:47Z</time></trkpt>
<trkpt lat="46.45491100" lon="7.01633200"><ele>1280.124023</ele><time>2010-06-10T14:15:50Z</time></trkpt>
<trkpt lat="46.45491300" lon="7.01626900"><ele>1277.985962</ele><time>2010-06-10T14:15:57Z</time></trkpt>
<trkpt lat="46.45490900" lon="7.01627100"><ele>1276.702026</ele><time>2010-06-10T14:16:02Z</time></trkpt>
<trkpt lat="46.45491000" lon="7.01627500"><ele>1276.744019</ele><time>2010-06-10T14:16:03Z</time></trkpt>
<trkpt lat="46.45491900" lon="7.01630500"><ele>1276.827026</ele><time>2010-06-10T14:16:08Z</time></trkpt>
<trkpt lat="46.45493300" lon="7.01635200"><ele>1276.573975</ele><time>2010-06-10T14:16:13Z</time></trkpt>
<trkpt lat="46.45489400" lon="7.01628700"><ele>1275.740967</ele><time>2010-06-10T14:16:22Z</time></trkpt>
<trkpt lat="46.45483800" lon="7.01620200"><ele>1273.97998</ele><time>2010-06-10T14:16:27Z</time></trkpt>
<trkpt lat="46.45481500" lon="7.01617500"><ele>1273.261963</ele><time>2010-06-10T14:16:31Z</time></trkpt>
<trkpt lat="46.45478300" lon="7.01613300"><ele>1271.338989</ele><time>2010-06-10T14:16:37Z</time></trkpt>
<trkpt lat="46.45476700" lon="7.01606300"><ele>1269.421997</ele><time>2010-06-10T14:16:43Z</time></trkpt>
<trkpt lat="46.45477200" lon="7.01606200"><ele>1269.250977</ele><time>2010-06-10T14:16:44Z</time></trkpt>
<trkpt lat="46.45477700" lon="7.01605400"><ele>1268.609009</ele><time>2010-06-10T14:16:46Z</time></trkpt>
<trkpt lat="46.45479300" lon="7.01601900"><ele>1265.656006</ele><time>2010-06-10T14:16:51Z</time></trkpt>
<trkpt lat="46.45479700" lon="7.01601100"><ele>1265.369019</ele><time>2010-06-10T14:16:52Z</time></trkpt>
<trkpt lat="46.45483000" lon="7.01595000"><ele>1259.102051</ele><time>2010-06-10T14:17:06Z</time></trkpt>
<trkpt lat="46.45484100" lon="7.01591700"><ele>1258.109009</ele><time>2010-06-10T14:17:13Z</time></trkpt>
<trkpt lat="46.45481100" lon="7.01591600"><ele>1257.188965</ele><time>2010-06-10T14:17:21Z</time></trkpt>
<trkpt lat="46.45479300" lon="7.01590700"><ele>1256.508057</ele><time>2010-06-10T14:17:25Z</time></trkpt>
<trkpt lat="46.45476600" lon="7.01592300"><ele>1255.814941</ele><time>2010-06-10T14:17:32Z</time></trkpt>
<trkpt lat="46.45471000" lon="7.01588900"><ele>1253.251953</ele><time>2010-06-10T14:17:38Z</time></trkpt>
<trkpt lat="46.45468300" lon="7.01589300"><ele>1252.342041</ele><time>2010-06-10T14:17:40Z</time></trkpt>
<trkpt lat="46.45460500" lon="7.01588000"><ele>1249.677002</ele><time>2010-06-10T14:17:48Z</time></trkpt>
<trkpt lat="46.45461500" lon="7.01580800"><ele>1247.81604</ele><time>2010-06-10T14:17:54Z</time></trkpt>
<trkpt lat="46.45463100" lon="7.01574200"><ele>1245.505981</ele><time>2010-06-10T14:17:59Z</time></trkpt>
<trkpt lat="46.45462200" lon="7.01565800"><ele>1242.69397</ele><time>2010-06-10T14:18:06Z</time></trkpt>
<trkpt lat="46.45461600" lon="7.01559900"><ele>1241.140991</ele><time>2010-06-10T14:18:11Z</time></trkpt>
<trkpt lat="46.45460900" lon="7.01553300"><ele>1240.10498</ele><time>2010-06-10T14:18:15Z</time></trkpt>
<trkpt lat="46.45456700" lon="7.01546000"><ele>1238.432983</ele><time>2010-06-10T14:18:21Z</time></trkpt>
<trkpt lat="46.45454500" lon="7.01546500"><ele>1238.020996</ele><time>2010-06-10T14:18:23Z</time></trkpt>
<trkpt lat="46.45449200" lon="7.01537400"><ele>1234.271973</ele><time>2010-06-10T14:18:32Z</time></trkpt>
<trkpt lat="46.45447700" lon="7.01536100"><ele>1233.282959</ele><time>2010-06-10T14:18:35Z</time></trkpt>
<trkpt lat="46.45444400" lon="7.01526600"><ele>1230.755005</ele><time>2010-06-10T14:18:42Z</time></trkpt>
<trkpt lat="46.45443300" lon="7.01517200"><ele>1228.53894</ele><time>2010-06-10T14:18:48Z</time></trkpt>
<trkpt lat="46.45442000" lon="7.01515100"><ele>1227.645996</ele><time>2010-06-10T14:18:50Z</time></trkpt>
<trkpt lat="46.45438500" lon="7.01501400"><ele>1222.277954</ele><time>2010-06-10T14:19:00Z</time></trkpt>
<trkpt lat="46.45438000" lon="7.01499800"><ele>1221.987061</ele><time>2010-06-10T14:19:01Z</time></trkpt>
<trkpt lat="46.45436900" lon="7.01497000"><ele>1221.014038</ele><time>2010-06-10T14:19:03Z</time></trkpt>
<trkpt lat="46.45434900" lon="7.01495300"><ele>1220.261963</ele><time>2010-06-10T14:19:05Z</time></trkpt>
<trkpt lat="46.45432700" lon="7.01494900"><ele>1219.19397</ele><time>2010-06-10T14:19:07Z</time></trkpt>
<trkpt lat="46.45431800" lon="7.01494000"><ele>1217.812988</ele><time>2010-06-10T14:19:12Z</time></trkpt>
<trkpt lat="46.45422600" lon="7.01470200"><ele>1210.182007</ele><time>2010-06-10T14:19:27Z</time></trkpt>
<trkpt lat="46.45416100" lon="7.01456800"><ele>1205.358032</ele><time>2010-06-10T14:19:33Z</time></trkpt>
<trkpt lat="46.45414400" lon="7.01449400"><ele>1202.197021</ele><time>2010-06-10T14:19:36Z</time></trkpt>
<trkpt lat="46.45406900" lon="7.01435400"><ele>1197.75</ele><time>2010-06-10T14:19:42Z</time></trkpt>
<trkpt lat="46.45404500" lon="7.01429100"><ele>1195.541016</ele><time>2010-06-10T14:19:44Z</time></trkpt>
<trkpt lat="46.45392500" lon="7.01409800"><ele>1189.338013</ele><time>2010-06-10T14:19:52Z</time></trkpt>
<trkpt lat="46.45386400" lon="7.01408600"><ele>1187.930054</ele><time>2010-06-10T14:19:55Z</time></trkpt>
<trkpt lat="46.45370600" lon="7.01403000"><ele>1182.462036</ele><time>2010-06-10T14:20:03Z</time></trkpt>
<trkpt lat="46.45368800" lon="7.01402300"><ele>1182.202026</ele><time>2010-06-10T14:20:04Z</time></trkpt>
<trkpt lat="46.45355700" lon="7.01393900"><ele>1176.709961</ele><time>2010-06-10T14:20:12Z</time></trkpt>
<trkpt lat="46.45354800" lon="7.01392000"><ele>1176.134033</ele><time>2010-06-10T14:20:13Z</time></trkpt>
<trkpt lat="46.45349300" lon="7.01386200"><ele>1174.234009</ele><time>2010-06-10T14:20:18Z</time></trkpt>
<trkpt lat="46.45348400" lon="7.01380100"><ele>1172.779053</ele><time>2010-06-10T14:20:21Z</time></trkpt>
<trkpt lat="46.45347800" lon="7.01376100"><ele>1171.682983</ele><time>2010-06-10T14:20:24Z</time></trkpt>
<trkpt lat="46.45345300" lon="7.01373300"><ele>1171.098999</ele><time>2010-06-10T14:20:30Z</time></trkpt>
<trkpt lat="46.45344500" lon="7.01373200"><ele>1170.27002</ele><time>2010-06-10T14:20:33Z</time></trkpt>
<trkpt lat="46.45341000" lon="7.01375900"><ele>1169.123047</ele><time>2010-06-10T14:21:58Z</time></trkpt>
<trkpt lat="46.45339700" lon="7.01376600"><ele>1168.926025</ele><time>2010-06-10T14:22:01Z</time></trkpt>
<trkpt lat="46.45331500" lon="7.01377300"><ele>1167.375</ele><time>2010-06-10T14:22:14Z</time></trkpt>
<trkpt lat="46.45316500" lon="7.01368600"><ele>1162.359009</ele><time>2010-06-10T14:22:20Z</time></trkpt>
<trkpt lat="46.45313100" lon="7.01353100"><ele>1158.713989</ele><time>2010-06-10T14:22:26Z</time></trkpt>
<trkpt lat="46.45314500" lon="7.01350800"><ele>1158.27002</ele><time>2010-06-10T14:22:30Z</time></trkpt>
<trkpt lat="46.45322300" lon="7.01345000"><ele>1157.702026</ele><time>2010-06-10T14:22:57Z</time></trkpt>
<trkpt lat="46.45329000" lon="7.01345800"><ele>1157.206055</ele><time>2010-06-10T14:23:01Z</time></trkpt>
<trkpt lat="46.45329300" lon="7.01346000"><ele>1157.136963</ele><time>2010-06-10T14:23:02Z</time></trkpt>
<trkpt lat="46.45336800" lon="7.01341500"><ele>1155.785034</ele><time>2010-06-10T14:23:27Z</time></trkpt>
<trkpt lat="46.45339400" lon="7.01341100"><ele>1155.655029</ele><time>2010-06-10T14:23:28Z</time></trkpt>
<trkpt lat="46.45352600" lon="7.01336200"><ele>1154.494995</ele><time>2010-06-10T14:23:33Z</time></trkpt>
<trkpt lat="46.45364100" lon="7.01332700"><ele>1153.358032</ele><time>2010-06-10T14:23:37Z</time></trkpt>
<trkpt lat="46.45376800" lon="7.01325300"><ele>1152.047974</ele><time>2010-06-10T14:23:42Z</time></trkpt>
<trkpt lat="46.45378000" lon="7.01324000"><ele>1151.987061</ele><time>2010-06-10T14:23:43Z</time></trkpt>
<trkpt lat="46.45382700" lon="7.01313200"><ele>1150.852051</ele><time>2010-06-10T14:23:48Z</time></trkpt>
<trkpt lat="46.45384400" lon="7.01298400"><ele>1149.702026</ele><time>2010-06-10T14:23:54Z</time></trkpt>
<trkpt lat="46.45380500" lon="7.01280900"><ele>1148.240967</ele><time>2010-06-10T14:24:01Z</time></trkpt>
<trkpt lat="46.45376200" lon="7.01261200"><ele>1146.822998</ele><time>2010-06-10T14:24:06Z</time></trkpt>
<trkpt lat="46.45377400" lon="7.01239200"><ele>1145.536011</ele><time>2010-06-10T14:24:10Z</time></trkpt>
<trkpt lat="46.45379100" lon="7.01229700"><ele>1145.207031</ele><time>2010-06-10T14:24:12Z</time></trkpt>
<trkpt lat="46.45383100" lon="7.01216700"><ele>1144.761963</ele><time>2010-06-10T14:24:16Z</time></trkpt>
<trkpt lat="46.45390000" lon="7.01184200"><ele>1143.553955</ele><time>2010-06-10T14:24:22Z</time></trkpt>
<trkpt lat="46.45391000" lon="7.01163000"><ele>1143.347046</ele><time>2010-06-10T14:24:27Z</time></trkpt>
<trkpt lat="46.45391700" lon="7.01130300"><ele>1143.404053</ele><time>2010-06-10T14:24:32Z</time></trkpt>
<trkpt lat="46.45395800" lon="7.01112800"><ele>1144.781006</ele><time>2010-06-10T14:24:36Z</time></trkpt>
<trkpt lat="46.45403700" lon="7.01097900"><ele>1144.817993</ele><time>2010-06-10T14:24:40Z</time></trkpt>
<trkpt lat="46.45412500" lon="7.01091000"><ele>1144.894043</ele><time>2010-06-10T14:24:43Z</time></trkpt>
<trkpt lat="46.45425400" lon="7.01099000"><ele>1144.689941</ele><time>2010-06-10T14:24:48Z</time></trkpt>
<trkpt lat="46.45442500" lon="7.01123300"><ele>1143.470947</ele><time>2010-06-10T14:24:55Z</time></trkpt>
<trkpt lat="46.45454400" lon="7.01132100"><ele>1143.199951</ele><time>2010-06-10T14:25:00Z</time></trkpt>
<trkpt lat="46.45464800" lon="7.01137800"><ele>1142.605957</ele><time>2010-06-10T14:25:04Z</time></trkpt>
<trkpt lat="46.45479100" lon="7.01139100"><ele>1141.765991</ele><time>2010-06-10T14:25:09Z</time></trkpt>
<trkpt lat="46.45496600" lon="7.01134700"><ele>1141.176025</ele><time>2010-06-10T14:25:14Z</time></trkpt>
<trkpt lat="46.45516300" lon="7.01130700"><ele>1140.459961</ele><time>2010-06-10T14:25:20Z</time></trkpt>
<trkpt lat="46.45532400" lon="7.01132700"><ele>1140.256958</ele><time>2010-06-10T14:25:25Z</time></trkpt>
<trkpt lat="46.45547600" lon="7.01137200"><ele>1139.560059</ele><time>2010-06-10T14:25:29Z</time></trkpt>
<trkpt lat="46.45562300" lon="7.01138300"><ele>1138.765991</ele><time>2010-06-10T14:25:33Z</time></trkpt>
<trkpt lat="46.45583700" lon="7.01143600"><ele>1138.078003</ele><time>2010-06-10T14:25:38Z</time></trkpt>
<trkpt lat="46.45603600" lon="7.01145500"><ele>1137.261963</ele><time>2010-06-10T14:25:43Z</time></trkpt>
<trkpt lat="46.45633300" lon="7.01159400"><ele>1136.521973</ele><time>2010-06-10T14:25:50Z</time></trkpt>
<trkpt lat="46.45651100" lon="7.01169600"><ele>1136.189941</ele><time>2010-06-10T14:25:55Z</time></trkpt>
<trkpt lat="46.45671400" lon="7.01185300"><ele>1135.333984</ele><time>2010-06-10T14:26:01Z</time></trkpt>
<trkpt lat="46.45685000" lon="7.01196300"><ele>1134.999023</ele><time>2010-06-10T14:26:05Z</time></trkpt>
<trkpt lat="46.45699900" lon="7.01204400"><ele>1134.521973</ele><time>2010-06-10T14:26:10Z</time></trkpt>
<trkpt lat="46.45715100" lon="7.01218200"><ele>1134.057007</ele><time>2010-06-10T14:26:15Z</time></trkpt>
<trkpt lat="46.45728300" lon="7.01236100"><ele>1133.43396</ele><time>2010-06-10T14:26:19Z</time></trkpt>
<trkpt lat="46.45741100" lon="7.01248300"><ele>1133.182007</ele><time>2010-06-10T14:26:23Z</time></trkpt>
<trkpt lat="46.45753500" lon="7.01255900"><ele>1132.713989</ele><time>2010-06-10T14:26:27Z</time></trkpt>
<trkpt lat="46.45769100" lon="7.01264200"><ele>1132.562012</ele><time>2010-06-10T14:26:31Z</time></trkpt>
<trkpt lat="46.45782200" lon="7.01277500"><ele>1132.011963</ele><time>2010-06-10T14:26:35Z</time></trkpt>
<trkpt lat="46.45801400" lon="7.01302700"><ele>1130.688965</ele><time>2010-06-10T14:26:41Z</time></trkpt>
<trkpt lat="46.45826900" lon="7.01317900"><ele>1130.037964</ele><time>2010-06-10T14:26:47Z</time></trkpt>
<trkpt lat="46.45839800" lon="7.01315500"><ele>1129.317993</ele><time>2010-06-10T14:26:50Z</time></trkpt>
<trkpt lat="46.45863100" lon="7.01304500"><ele>1128.667969</ele><time>2010-06-10T14:26:56Z</time></trkpt>
<trkpt lat="46.45873000" lon="7.01298900"><ele>1128.640015</ele><time>2010-06-10T14:27:02Z</time></trkpt>
<trkpt lat="46.45873400" lon="7.01299700"><ele>1128.384033</ele><time>2010-06-10T14:27:03Z</time></trkpt>
<trkpt lat="46.45876100" lon="7.01307000"><ele>1128.050049</ele><time>2010-06-10T14:27:13Z</time></trkpt>
<trkpt lat="46.45878900" lon="7.01311100"><ele>1127.925049</ele><time>2010-06-10T14:27:31Z</time></trkpt>
<trkpt lat="46.45880300" lon="7.01312200"><ele>1127.887939</ele><time>2010-06-10T14:27:32Z</time></trkpt>
<trkpt lat="46.45891800" lon="7.01317700"><ele>1127.699951</ele><time>2010-06-10T14:27:37Z</time></trkpt>
<trkpt lat="46.45917100" lon="7.01325000"><ele>1127.82605</ele><time>2010-06-10T14:27:44Z</time></trkpt>
<trkpt lat="46.45940500" lon="7.01331000"><ele>1127.837036</ele><time>2010-06-10T14:27:51Z</time></trkpt>
<trkpt lat="46.45970100" lon="7.01342900"><ele>1127.378052</ele><time>2010-06-10T14:28:00Z</time></trkpt>
<trkpt lat="46.45978200" lon="7.01344400"><ele>1126.734009</ele><time>2010-06-10T14:28:04Z</time></trkpt>
<trkpt lat="46.45978300" lon="7.01343900"><ele>1126.489014</ele><time>2010-06-10T14:28:05Z</time></trkpt>
<trkpt lat="46.45989400" lon="7.01344500"><ele>1126.338013</ele><time>2010-06-10T14:28:20Z</time></trkpt>
<trkpt lat="46.46005600" lon="7.01353600"><ele>1126.13501</ele><time>2010-06-10T14:28:26Z</time></trkpt>
<trkpt lat="46.46025600" lon="7.01365500"><ele>1125.866943</ele><time>2010-06-10T14:28:33Z</time></trkpt>
<trkpt lat="46.46042000" lon="7.01377600"><ele>1125.771973</ele><time>2010-06-10T14:28:39Z</time></trkpt>
<trkpt lat="46.46058600" lon="7.01384700"><ele>1125.546021</ele><time>2010-06-10T14:28:45Z</time></trkpt>
<trkpt lat="46.46080200" lon="7.01387900"><ele>1125.666992</ele><time>2010-06-10T14:28:51Z</time></trkpt>
<trkpt lat="46.46106500" lon="7.01394500"><ele>1125.63501</ele><time>2010-06-10T14:28:58Z</time></trkpt>
<trkpt lat="46.46134000" lon="7.01407500"><ele>1125.482056</ele><time>2010-06-10T14:29:05Z</time></trkpt>
<trkpt lat="46.46154700" lon="7.01410300"><ele>1125.293945</ele><time>2010-06-10T14:29:11Z</time></trkpt>
<trkpt lat="46.46172700" lon="7.01405900"><ele>1125.465942</ele><time>2010-06-10T14:29:16Z</time></trkpt>
<trkpt lat="46.46200500" lon="7.01399900"><ele>1123.687988</ele><time>2010-06-10T14:29:22Z</time></trkpt>
<trkpt lat="46.46215400" lon="7.01394100"><ele>1122.984985</ele><time>2010-06-10T14:29:25Z</time></trkpt>
<trkpt lat="46.46250700" lon="7.01376200"><ele>1120.319946</ele><time>2010-06-10T14:29:32Z</time></trkpt>
<trkpt lat="46.46259800" lon="7.01370900"><ele>1119.890991</ele><time>2010-06-10T14:29:34Z</time></trkpt>
<trkpt lat="46.46284900" lon="7.01368400"><ele>1118.51001</ele><time>2010-06-10T14:29:39Z</time></trkpt>
<trkpt lat="46.46303900" lon="7.01374000"><ele>1116.791992</ele><time>2010-06-10T14:29:43Z</time></trkpt>
<trkpt lat="46.46320900" lon="7.01374500"><ele>1115.57605</ele><time>2010-06-10T14:29:47Z</time></trkpt>
<trkpt lat="46.46351300" lon="7.01371000"><ele>1114.192993</ele><time>2010-06-10T14:29:55Z</time></trkpt>
<trkpt lat="46.46374100" lon="7.01372800"><ele>1112.927979</ele><time>2010-06-10T14:30:01Z</time></trkpt>
<trkpt lat="46.46419400" lon="7.01369200"><ele>1111.166992</ele><time>2010-06-10T14:30:11Z</time></trkpt>
<trkpt lat="46.46457600" lon="7.01378000"><ele>1109.574951</ele><time>2010-06-10T14:30:18Z</time></trkpt>
<trkpt lat="46.46496500" lon="7.01397000"><ele>1107.954956</ele><time>2010-06-10T14:30:25Z</time></trkpt>
<trkpt lat="46.46544700" lon="7.01416100"><ele>1105.452026</ele><time>2010-06-10T14:30:33Z</time></trkpt>
<trkpt lat="46.46591000" lon="7.01441000"><ele>1103.116943</ele><time>2010-06-10T14:30:40Z</time></trkpt>
<trkpt lat="46.46635100" lon="7.01467100"><ele>1099.187012</ele><time>2010-06-10T14:30:47Z</time></trkpt>
<trkpt lat="46.46647000" lon="7.01474100"><ele>1098.196045</ele><time>2010-06-10T14:30:49Z</time></trkpt>
<trkpt lat="46.46678600" lon="7.01499000"><ele>1096.159058</ele><time>2010-06-10T14:30:55Z</time></trkpt>
<trkpt lat="46.46684000" lon="7.01502500"><ele>1095.920044</ele><time>2010-06-10T14:30:56Z</time></trkpt>
<trkpt lat="46.46725500" lon="7.01529500"><ele>1093.644043</ele><time>2010-06-10T14:31:02Z</time></trkpt>
<trkpt lat="46.46780100" lon="7.01573200"><ele>1090.437988</ele><time>2010-06-10T14:31:10Z</time></trkpt>
<trkpt lat="46.46808400" lon="7.01596200"><ele>1088.631958</ele><time>2010-06-10T14:31:15Z</time></trkpt>
<trkpt lat="46.46828800" lon="7.01626300"><ele>1086.291016</ele><time>2010-06-10T14:31:22Z</time></trkpt>
<trkpt lat="46.46845900" lon="7.01623700"><ele>1085.651978</ele><time>2010-06-10T14:31:27Z</time></trkpt>
<trkpt lat="46.46858000" lon="7.01632500"><ele>1084.916016</ele><time>2010-06-10T14:31:30Z</time></trkpt>
<trkpt lat="46.46866100" lon="7.01641300"><ele>1084.56604</ele><time>2010-06-10T14:31:32Z</time></trkpt>
<trkpt lat="46.46884100" lon="7.01668300"><ele>1083.177002</ele><time>2010-06-10T14:31:37Z</time></trkpt>
<trkpt lat="46.46899600" lon="7.01672900"><ele>1082.129028</ele><time>2010-06-10T14:31:41Z</time></trkpt>
<trkpt lat="46.46910600" lon="7.01678400"><ele>1081.751953</ele><time>2010-06-10T14:31:44Z</time></trkpt>
<trkpt lat="46.46933600" lon="7.01691400"><ele>1080.615967</ele><time>2010-06-10T14:31:49Z</time></trkpt>
<trkpt lat="46.46975900" lon="7.01725200"><ele>1077.557007</ele><time>2010-06-10T14:31:57Z</time></trkpt>
<trkpt lat="46.47012300" lon="7.01743900"><ele>1075.489014</ele><time>2010-06-10T14:32:03Z</time></trkpt>
<trkpt lat="46.47050000" lon="7.01764700"><ele>1073.208984</ele><time>2010-06-10T14:32:09Z</time></trkpt>
<trkpt lat="46.47073800" lon="7.01778400"><ele>1071.96106</ele><time>2010-06-10T14:32:13Z</time></trkpt>
<trkpt lat="46.47092400" lon="7.01794500"><ele>1070.420044</ele><time>2010-06-10T14:32:17Z</time></trkpt>
<trkpt lat="46.47120400" lon="7.01809500"><ele>1068.774048</ele><time>2010-06-10T14:32:23Z</time></trkpt>
<trkpt lat="46.47153200" lon="7.01829900"><ele>1067.392944</ele><time>2010-06-10T14:32:29Z</time></trkpt>
<trkpt lat="46.47172000" lon="7.01847700"><ele>1065.787964</ele><time>2010-06-10T14:32:33Z</time></trkpt>
<trkpt lat="46.47179100" lon="7.01856600"><ele>1065.187988</ele><time>2010-06-10T14:32:35Z</time></trkpt>
<trkpt lat="46.47199300" lon="7.01865300"><ele>1063.493042</ele><time>2010-06-10T14:32:40Z</time></trkpt>
<trkpt lat="46.47213100" lon="7.01876500"><ele>1061.916992</ele><time>2010-06-10T14:32:44Z</time></trkpt>
<trkpt lat="46.47220600" lon="7.01897600"><ele>1060.482056</ele><time>2010-06-10T14:32:48Z</time></trkpt>
<trkpt lat="46.47232000" lon="7.01904500"><ele>1059.329956</ele><time>2010-06-10T14:32:51Z</time></trkpt>
<trkpt lat="46.47246400" lon="7.01898000"><ele>1057.767944</ele><time>2010-06-10T14:32:54Z</time></trkpt>
<trkpt lat="46.47263400" lon="7.01891200"><ele>1056.245972</ele><time>2010-06-10T14:32:58Z</time></trkpt>
<trkpt lat="46.47268300" lon="7.01891700"><ele>1055.526001</ele><time>2010-06-10T14:32:59Z</time></trkpt>
<trkpt lat="46.47293800" lon="7.01896600"><ele>1052.807983</ele><time>2010-06-10T14:33:04Z</time></trkpt>
<trkpt lat="46.47320400" lon="7.01902200"><ele>1049.496948</ele><time>2010-06-10T14:33:09Z</time></trkpt>
<trkpt lat="46.47347900" lon="7.01919700"><ele>1046.810059</ele><time>2010-06-10T14:33:14Z</time></trkpt>
<trkpt lat="46.47370200" lon="7.01939100"><ele>1044.427002</ele><time>2010-06-10T14:33:18Z</time></trkpt>
<trkpt lat="46.47374900" lon="7.01942600"><ele>1044.021973</ele><time>2010-06-10T14:33:19Z</time></trkpt>
<trkpt lat="46.47394900" lon="7.01972400"><ele>1042.005005</ele><time>2010-06-10T14:33:25Z</time></trkpt>
<trkpt lat="46.47396300" lon="7.01979600"><ele>1041.470947</ele><time>2010-06-10T14:33:26Z</time></trkpt>
<trkpt lat="46.47409400" lon="7.02028500"><ele>1038.977051</ele><time>2010-06-10T14:33:33Z</time></trkpt>
<trkpt lat="46.47411300" lon="7.02034300"><ele>1038.407959</ele><time>2010-06-10T14:33:34Z</time></trkpt>
<trkpt lat="46.47417100" lon="7.02043600"><ele>1037.738037</ele><time>2010-06-10T14:33:36Z</time></trkpt>
<trkpt lat="46.47429800" lon="7.02043100"><ele>1036.328979</ele><time>2010-06-10T14:33:39Z</time></trkpt>
<trkpt lat="46.47434200" lon="7.02040400"><ele>1036.255005</ele><time>2010-06-10T14:33:40Z</time></trkpt>
<trkpt lat="46.47461300" lon="7.02025500"><ele>1034.358032</ele><time>2010-06-10T14:33:46Z</time></trkpt>
<trkpt lat="46.47465300" lon="7.02024400"><ele>1033.875977</ele><time>2010-06-10T14:33:47Z</time></trkpt>
<trkpt lat="46.47473400" lon="7.02025100"><ele>1033.098999</ele><time>2010-06-10T14:33:49Z</time></trkpt>
<trkpt lat="46.47497500" lon="7.02040400"><ele>1029.161011</ele><time>2010-06-10T14:33:55Z</time></trkpt>
<trkpt lat="46.47506800" lon="7.02053500"><ele>1027.267944</ele><time>2010-06-10T14:33:58Z</time></trkpt>
<trkpt lat="46.47522000" lon="7.02061200"><ele>1025.416992</ele><time>2010-06-10T14:34:02Z</time></trkpt>
<trkpt lat="46.47555600" lon="7.02061700"><ele>1022.086975</ele><time>2010-06-10T14:34:10Z</time></trkpt>
<trkpt lat="46.47573700" lon="7.02068700"><ele>1020.202026</ele><time>2010-06-10T14:34:15Z</time></trkpt>
<trkpt lat="46.47577900" lon="7.02070100"><ele>1019.869019</ele><time>2010-06-10T14:34:16Z</time></trkpt>
<trkpt lat="46.47600500" lon="7.02072300"><ele>1018.107971</ele><time>2010-06-10T14:34:21Z</time></trkpt>
<trkpt lat="46.47615200" lon="7.02073500"><ele>1016.560974</ele><time>2010-06-10T14:34:24Z</time></trkpt>
<trkpt lat="46.47625200" lon="7.02075100"><ele>1015.783997</ele><time>2010-06-10T14:34:26Z</time></trkpt>
<trkpt lat="46.47643100" lon="7.02071100"><ele>1013.507019</ele><time>2010-06-10T14:34:30Z</time></trkpt>
<trkpt lat="46.47647000" lon="7.02068200"><ele>1012.924988</ele><time>2010-06-10T14:34:31Z</time></trkpt>
<trkpt lat="46.47665500" lon="7.02057700"><ele>1010.572021</ele><time>2010-06-10T14:34:36Z</time></trkpt>
<trkpt lat="46.47701000" lon="7.02058700"><ele>1006.504028</ele><time>2010-06-10T14:34:44Z</time></trkpt>
<trkpt lat="46.47710000" lon="7.02059300"><ele>1005.301025</ele><time>2010-06-10T14:34:46Z</time></trkpt>
<trkpt lat="46.47746700" lon="7.02057100"><ele>1001.90802</ele><time>2010-06-10T14:34:55Z</time></trkpt>
<trkpt lat="46.47767000" lon="7.02057800"><ele>999.72699</ele><time>2010-06-10T14:35:01Z</time></trkpt>
<trkpt lat="46.47787300" lon="7.02051600"><ele>998.030029</ele><time>2010-06-10T14:35:06Z</time></trkpt>
<trkpt lat="46.47796000" lon="7.02047700"><ele>997.197998</ele><time>2010-06-10T14:35:08Z</time></trkpt>
<trkpt lat="46.47809800" lon="7.02042700"><ele>995.83197</ele><time>2010-06-10T14:35:11Z</time></trkpt>
<trkpt lat="46.47834700" lon="7.02034800"><ele>993.463013</ele><time>2010-06-10T14:35:16Z</time></trkpt>
<trkpt lat="46.47853400" lon="7.02029900"><ele>991.830017</ele><time>2010-06-10T14:35:20Z</time></trkpt>
<trkpt lat="46.47871100" lon="7.02027700"><ele>990.031006</ele><time>2010-06-10T14:35:24Z</time></trkpt>
<trkpt lat="46.47881300" lon="7.02023500"><ele>989.252991</ele><time>2010-06-10T14:35:26Z</time></trkpt>
<trkpt lat="46.47917800" lon="7.02004600"><ele>986.028992</ele><time>2010-06-10T14:35:33Z</time></trkpt>
<trkpt lat="46.47944100" lon="7.01993700"><ele>983.515015</ele><time>2010-06-10T14:35:39Z</time></trkpt>
<trkpt lat="46.47952300" lon="7.01992300"><ele>982.434021</ele><time>2010-06-10T14:35:41Z</time></trkpt>
<trkpt lat="46.47966200" lon="7.01994900"><ele>980.875977</ele><time>2010-06-10T14:35:44Z</time></trkpt>
<trkpt lat="46.47982400" lon="7.02001500"><ele>979.171997</ele><time>2010-06-10T14:35:48Z</time></trkpt>
<trkpt lat="46.47986400" lon="7.01988600"><ele>977.432007</ele><time>2010-06-10T14:35:52Z</time></trkpt>
<trkpt lat="46.47976200" lon="7.01979800"><ele>975.843994</ele><time>2010-06-10T14:35:55Z</time></trkpt>
<trkpt lat="46.47938100" lon="7.01966000"><ele>972.86499</ele><time>2010-06-10T14:36:02Z</time></trkpt>
<trkpt lat="46.47902600" lon="7.01958600"><ele>969.135986</ele><time>2010-06-10T14:36:08Z</time></trkpt>
<trkpt lat="46.47897600" lon="7.01957600"><ele>968.513</ele><time>2010-06-10T14:36:09Z</time></trkpt>
<trkpt lat="46.47873100" lon="7.01954500"><ele>965.992004</ele><time>2010-06-10T14:36:14Z</time></trkpt>
<trkpt lat="46.47869700" lon="7.01954600"><ele>965.763</ele><time>2010-06-10T14:36:15Z</time></trkpt>
<trkpt lat="46.47864700" lon="7.01946300"><ele>964.304993</ele><time>2010-06-10T14:36:18Z</time></trkpt>
<trkpt lat="46.47870500" lon="7.01941300"><ele>963.780029</ele><time>2010-06-10T14:36:21Z</time></trkpt>
<trkpt lat="46.47887400" lon="7.01941100"><ele>963.421997</ele><time>2010-06-10T14:36:27Z</time></trkpt>
<trkpt lat="46.47912100" lon="7.01940100"><ele>963.208008</ele><time>2010-06-10T14:36:33Z</time></trkpt>
<trkpt lat="46.47921900" lon="7.01938800"><ele>962.924011</ele><time>2010-06-10T14:36:35Z</time></trkpt>
<trkpt lat="46.47946200" lon="7.01934200"><ele>962.502991</ele><time>2010-06-10T14:36:40Z</time></trkpt>
<trkpt lat="46.47983900" lon="7.01926300"><ele>961.353027</ele><time>2010-06-10T14:36:48Z</time></trkpt>
<trkpt lat="46.48017700" lon="7.01924600"><ele>960.104004</ele><time>2010-06-10T14:36:55Z</time></trkpt>
<trkpt lat="46.48062300" lon="7.01930700"><ele>958.840027</ele><time>2010-06-10T14:37:04Z</time></trkpt>
<trkpt lat="46.48105600" lon="7.01932000"><ele>957.741028</ele><time>2010-06-10T14:37:12Z</time></trkpt>
<trkpt lat="46.48150500" lon="7.01930300"><ele>956.758972</ele><time>2010-06-10T14:37:21Z</time></trkpt>
<trkpt lat="46.48181900" lon="7.01931800"><ele>955.770996</ele><time>2010-06-10T14:37:28Z</time></trkpt>
<trkpt lat="46.48222500" lon="7.01936400"><ele>954.752014</ele><time>2010-06-10T14:37:37Z</time></trkpt>
<trkpt lat="46.48226800" lon="7.01936900"><ele>954.685974</ele><time>2010-06-10T14:37:38Z</time></trkpt>
<trkpt lat="46.48273300" lon="7.01952500"><ele>953.327026</ele><time>2010-06-10T14:37:49Z</time></trkpt>
<trkpt lat="46.48303000" lon="7.01971000"><ele>952.45697</ele><time>2010-06-10T14:37:57Z</time></trkpt>
<trkpt lat="46.48306700" lon="7.01972800"><ele>952.205994</ele><time>2010-06-10T14:37:58Z</time></trkpt>
<trkpt lat="46.48328100" lon="7.01989300"><ele>951.034973</ele><time>2010-06-10T14:38:04Z</time></trkpt>
<trkpt lat="46.48341800" lon="7.01998200"><ele>950.583984</ele><time>2010-06-10T14:38:08Z</time></trkpt>
<trkpt lat="46.48358800" lon="7.02014400"><ele>949.607971</ele><time>2010-06-10T14:38:14Z</time></trkpt>
<trkpt lat="46.48367100" lon="7.02033300"><ele>948.838013</ele><time>2010-06-10T14:38:18Z</time></trkpt>
<trkpt lat="46.48374500" lon="7.02064600"><ele>947.635986</ele><time>2010-06-10T14:38:23Z</time></trkpt>
<trkpt lat="46.48390900" lon="7.02097900"><ele>946.025024</ele><time>2010-06-10T14:38:29Z</time></trkpt>
<trkpt lat="46.48402300" lon="7.02115300"><ele>944.942993</ele><time>2010-06-10T14:38:33Z</time></trkpt>
<trkpt lat="46.48423300" lon="7.02149300"><ele>943.017029</ele><time>2010-06-10T14:38:39Z</time></trkpt>
<trkpt lat="46.48441400" lon="7.02179300"><ele>941.132996</ele><time>2010-06-10T14:38:44Z</time></trkpt>
<trkpt lat="46.48448000" lon="7.02191200"><ele>940.294006</ele><time>2010-06-10T14:38:46Z</time></trkpt>
<trkpt lat="46.48456900" lon="7.02206600"><ele>938.997986</ele><time>2010-06-10T14:38:49Z</time></trkpt>
<trkpt lat="46.48468800" lon="7.02235300"><ele>936.833008</ele><time>2010-06-10T14:38:53Z</time></trkpt>
<trkpt lat="46.48476600" lon="7.02264800"><ele>935.744019</ele><time>2010-06-10T14:38:56Z</time></trkpt>
<trkpt lat="46.48488600" lon="7.02325500"><ele>935.200012</ele><time>2010-06-10T14:39:02Z</time></trkpt>
<trkpt lat="46.48502000" lon="7.02373000"><ele>934.750977</ele><time>2010-06-10T14:39:07Z</time></trkpt>
<trkpt lat="46.48518900" lon="7.02404400"><ele>934.619995</ele><time>2010-06-10T14:39:11Z</time></trkpt>
<trkpt lat="46.48537100" lon="7.02433000"><ele>933.856018</ele><time>2010-06-10T14:39:15Z</time></trkpt>
<trkpt lat="46.48557400" lon="7.02476500"><ele>932.10498</ele><time>2010-06-10T14:39:20Z</time></trkpt>
<trkpt lat="46.48601300" lon="7.02529200"><ele>929.757996</ele><time>2010-06-10T14:39:27Z</time></trkpt>
<trkpt lat="46.48639500" lon="7.02561600"><ele>927.299011</ele><time>2010-06-10T14:39:32Z</time></trkpt>
<trkpt lat="46.48654200" lon="7.02576000"><ele>926.612976</ele><time>2010-06-10T14:39:34Z</time></trkpt>
<trkpt lat="46.48680800" lon="7.02596900"><ele>926.275024</ele><time>2010-06-10T14:39:38Z</time></trkpt>
<trkpt lat="46.48701200" lon="7.02618800"><ele>924.999023</ele><time>2010-06-10T14:39:44Z</time></trkpt>
<trkpt lat="46.48709500" lon="7.02629900"><ele>924.909973</ele><time>2010-06-10T14:39:46Z</time></trkpt>
<trkpt lat="46.48733400" lon="7.02654300"><ele>924.921021</ele><time>2010-06-10T14:39:51Z</time></trkpt>
<trkpt lat="46.48742100" lon="7.02663300"><ele>924.978027</ele><time>2010-06-10T14:39:53Z</time></trkpt>
<trkpt lat="46.48755400" lon="7.02687600"><ele>925.263</ele><time>2010-06-10T14:39:57Z</time></trkpt>
<trkpt lat="46.48771900" lon="7.02733400"><ele>925.252014</ele><time>2010-06-10T14:40:03Z</time></trkpt>
<trkpt lat="46.48782600" lon="7.02751000"><ele>925.440002</ele><time>2010-06-10T14:40:06Z</time></trkpt>
<trkpt lat="46.48794800" lon="7.02766600"><ele>925.213013</ele><time>2010-06-10T14:40:09Z</time></trkpt>
<trkpt lat="46.48804900" lon="7.02783700"><ele>925.356995</ele><time>2010-06-10T14:40:12Z</time></trkpt>
<trkpt lat="46.48832000" lon="7.02835300"><ele>925.22998</ele><time>2010-06-10T14:40:17Z</time></trkpt>
<trkpt lat="46.48849200" lon="7.02873800"><ele>925.598022</ele><time>2010-06-10T14:40:21Z</time></trkpt>
<trkpt lat="46.48857800" lon="7.02901100"><ele>925.361023</ele><time>2010-06-10T14:40:24Z</time></trkpt>
<trkpt lat="46.48861700" lon="7.02926200"><ele>925.31897</ele><time>2010-06-10T14:40:27Z</time></trkpt>
<trkpt lat="46.48857600" lon="7.02964500"><ele>925.031982</ele><time>2010-06-10T14:40:32Z</time></trkpt>
<trkpt lat="46.48852900" lon="7.03014200"><ele>924.562988</ele><time>2010-06-10T14:40:37Z</time></trkpt>
<trkpt lat="46.48863900" lon="7.03033500"><ele>924.661987</ele><time>2010-06-10T14:40:40Z</time></trkpt>
<trkpt lat="46.48866300" lon="7.03048500"><ele>924.400024</ele><time>2010-06-10T14:40:42Z</time></trkpt>
<trkpt lat="46.48863900" lon="7.03100500"><ele>923.281982</ele><time>2010-06-10T14:40:48Z</time></trkpt>
<trkpt lat="46.48864700" lon="7.03109300"><ele>923.25</ele><time>2010-06-10T14:40:49Z</time></trkpt>
<trkpt lat="46.48861300" lon="7.03153800"><ele>922.593994</ele><time>2010-06-10T14:40:54Z</time></trkpt>
<trkpt lat="46.48857900" lon="7.03182100"><ele>921.978027</ele><time>2010-06-10T14:40:57Z</time></trkpt>
<trkpt lat="46.48853400" lon="7.03233000"><ele>920.804016</ele><time>2010-06-10T14:41:02Z</time></trkpt>
<trkpt lat="46.48839300" lon="7.03285800"><ele>919.031982</ele><time>2010-06-10T14:41:07Z</time></trkpt>
<trkpt lat="46.48840200" lon="7.03322800"><ele>917.914001</ele><time>2010-06-10T14:41:10Z</time></trkpt>
<trkpt lat="46.48842400" lon="7.03334900"><ele>917.739014</ele><time>2010-06-10T14:41:11Z</time></trkpt>
<trkpt lat="46.48856300" lon="7.03422000"><ele>914.682007</ele><time>2010-06-10T14:41:18Z</time></trkpt>
<trkpt lat="46.48859600" lon="7.03446400"><ele>914.039001</ele><time>2010-06-10T14:41:20Z</time></trkpt>
<trkpt lat="46.48855400" lon="7.03494300"><ele>911.526978</ele><time>2010-06-10T14:41:24Z</time></trkpt>
<trkpt lat="46.48837500" lon="7.03533600"><ele>910.685974</ele><time>2010-06-10T14:41:28Z</time></trkpt>
<trkpt lat="46.48825400" lon="7.03546400"><ele>910.505005</ele><time>2010-06-10T14:41:30Z</time></trkpt>
<trkpt lat="46.48783300" lon="7.03577800"><ele>909.012024</ele><time>2010-06-10T14:41:37Z</time></trkpt>
<trkpt lat="46.48763700" lon="7.03595000"><ele>909.278992</ele><time>2010-06-10T14:41:41Z</time></trkpt>
<trkpt lat="46.48746300" lon="7.03622000"><ele>908.669983</ele><time>2010-06-10T14:41:46Z</time></trkpt>
<trkpt lat="46.48746400" lon="7.03641400"><ele>908.573975</ele><time>2010-06-10T14:41:49Z</time></trkpt>
<trkpt lat="46.48750100" lon="7.03665300"><ele>908.552979</ele><time>2010-06-10T14:41:53Z</time></trkpt>
<trkpt lat="46.48747500" lon="7.03697500"><ele>908.690979</ele><time>2010-06-10T14:41:59Z</time></trkpt>
<trkpt lat="46.48745100" lon="7.03712000"><ele>908.606018</ele><time>2010-06-10T14:42:02Z</time></trkpt>
<trkpt lat="46.48739100" lon="7.03727900"><ele>908.549011</ele><time>2010-06-10T14:42:05Z</time></trkpt>
<trkpt lat="46.48720700" lon="7.03741200"><ele>908.018982</ele><time>2010-06-10T14:42:10Z</time></trkpt>
<trkpt lat="46.48701800" lon="7.03744900"><ele>907.189026</ele><time>2010-06-10T14:42:15Z</time></trkpt>
<trkpt lat="46.48679100" lon="7.03753700"><ele>906.796021</ele><time>2010-06-10T14:42:21Z</time></trkpt>
<trkpt lat="46.48672400" lon="7.03758200"><ele>906.716003</ele><time>2010-06-10T14:42:23Z</time></trkpt>
<trkpt lat="46.48659400" lon="7.03764900"><ele>906.374023</ele><time>2010-06-10T14:42:26Z</time></trkpt>
<trkpt lat="46.48636300" lon="7.03767400"><ele>905.734985</ele><time>2010-06-10T14:42:30Z</time></trkpt>
<trkpt lat="46.48618800" lon="7.03764200"><ele>902.781006</ele><time>2010-06-10T14:42:33Z</time></trkpt>
<trkpt lat="46.48599800" lon="7.03765600"><ele>900.130005</ele><time>2010-06-10T14:42:38Z</time></trkpt>
<trkpt lat="46.48588100" lon="7.03770400"><ele>897.612976</ele><time>2010-06-10T14:42:41Z</time></trkpt>
<trkpt lat="46.48569200" lon="7.03766900"><ele>894.187988</ele><time>2010-06-10T14:42:46Z</time></trkpt>
<trkpt lat="46.48563400" lon="7.03767600"><ele>892.911011</ele><time>2010-06-10T14:42:48Z</time></trkpt>
<trkpt lat="46.48559200" lon="7.03781200"><ele>890.945007</ele><time>2010-06-10T14:42:52Z</time></trkpt>
<trkpt lat="46.48557700" lon="7.03798200"><ele>889.890015</ele><time>2010-06-10T14:42:55Z</time></trkpt>
<trkpt lat="46.48560400" lon="7.03829100"><ele>886.870972</ele><time>2010-06-10T14:43:00Z</time></trkpt>
<trkpt lat="46.48561300" lon="7.03851600"><ele>884.512024</ele><time>2010-06-10T14:43:04Z</time></trkpt>
<trkpt lat="46.48562400" lon="7.03867400"><ele>882.677979</ele><time>2010-06-10T14:43:07Z</time></trkpt>
<trkpt lat="46.48572200" lon="7.03891200"><ele>879.169006</ele><time>2010-06-10T14:43:12Z</time></trkpt>
<trkpt lat="46.48575300" lon="7.03894000"><ele>878.390015</ele><time>2010-06-10T14:43:13Z</time></trkpt>
<trkpt lat="46.48586500" lon="7.03903600"><ele>876.39502</ele><time>2010-06-10T14:43:16Z</time></trkpt>
<trkpt lat="46.48590200" lon="7.03907100"><ele>875.752991</ele><time>2010-06-10T14:43:17Z</time></trkpt>
<trkpt lat="46.48613600" lon="7.03923400"><ele>873.109985</ele><time>2010-06-10T14:43:23Z</time></trkpt>
<trkpt lat="46.48617000" lon="7.03926600"><ele>872.703979</ele><time>2010-06-10T14:43:24Z</time></trkpt>
<trkpt lat="46.48625800" lon="7.03939900"><ele>871.442993</ele><time>2010-06-10T14:43:27Z</time></trkpt>
<trkpt lat="46.48629400" lon="7.03951300"><ele>870.039001</ele><time>2010-06-10T14:43:29Z</time></trkpt>
<trkpt lat="46.48641300" lon="7.03987800"><ele>866.880981</ele><time>2010-06-10T14:43:36Z</time></trkpt>
<trkpt lat="46.48655900" lon="7.04011700"><ele>864.284973</ele><time>2010-06-10T14:43:42Z</time></trkpt>
<trkpt lat="46.48675300" lon="7.04038800"><ele>861.393982</ele><time>2010-06-10T14:43:49Z</time></trkpt>
<trkpt lat="46.48679900" lon="7.04049800"><ele>860.763977</ele><time>2010-06-10T14:43:51Z</time></trkpt>
<trkpt lat="46.48687700" lon="7.04070800"><ele>858.969971</ele><time>2010-06-10T14:43:55Z</time></trkpt>
<trkpt lat="46.48692500" lon="7.04082200"><ele>857.700012</ele><time>2010-06-10T14:43:58Z</time></trkpt>
<trkpt lat="46.48704300" lon="7.04106100"><ele>855.66803</ele><time>2010-06-10T14:44:03Z</time></trkpt>
<trkpt lat="46.48709700" lon="7.04115800"><ele>855.276978</ele><time>2010-06-10T14:44:05Z</time></trkpt>
<trkpt lat="46.48723800" lon="7.04140700"><ele>852.012024</ele><time>2010-06-10T14:44:11Z</time></trkpt>
<trkpt lat="46.48733700" lon="7.04166500"><ele>849.403992</ele><time>2010-06-10T14:44:17Z</time></trkpt>
<trkpt lat="46.48742500" lon="7.04190700"><ele>847.127014</ele><time>2010-06-10T14:44:23Z</time></trkpt>
<trkpt lat="46.48747200" lon="7.04205700"><ele>845.419006</ele><time>2010-06-10T14:44:28Z</time></trkpt>
<trkpt lat="46.48755000" lon="7.04235000"><ele>842.994995</ele><time>2010-06-10T14:44:34Z</time></trkpt>
<trkpt lat="46.48764300" lon="7.04262800"><ele>840.606995</ele><time>2010-06-10T14:44:40Z</time></trkpt>
<trkpt lat="46.48766400" lon="7.04277500"><ele>839.473022</ele><time>2010-06-10T14:44:43Z</time></trkpt>
<trkpt lat="46.48761700" lon="7.04308900"><ele>836.953003</ele><time>2010-06-10T14:44:48Z</time></trkpt>
<trkpt lat="46.48755300" lon="7.04323600"><ele>835.10199</ele><time>2010-06-10T14:44:52Z</time></trkpt>
<trkpt lat="46.48748500" lon="7.04337200"><ele>835.338013</ele><time>2010-06-10T14:44:56Z</time></trkpt>
<trkpt lat="46.48742900" lon="7.04357500"><ele>835.200989</ele><time>2010-06-10T14:45:00Z</time></trkpt>
<trkpt lat="46.48730900" lon="7.04362600"><ele>834.979004</ele><time>2010-06-10T14:45:04Z</time></trkpt>
<trkpt lat="46.48697200" lon="7.04344300"><ele>834.840027</ele><time>2010-06-10T14:45:10Z</time></trkpt>
<trkpt lat="46.48679700" lon="7.04332600"><ele>834.867004</ele><time>2010-06-10T14:45:13Z</time></trkpt>
<trkpt lat="46.48668300" lon="7.04323700"><ele>835.078979</ele><time>2010-06-10T14:45:15Z</time></trkpt>
<trkpt lat="46.48651800" lon="7.04311000"><ele>835.031006</ele><time>2010-06-10T14:45:18Z</time></trkpt>
<trkpt lat="46.48641200" lon="7.04303400"><ele>834.195007</ele><time>2010-06-10T14:45:20Z</time></trkpt>
<trkpt lat="46.48636100" lon="7.04299900"><ele>833.815979</ele><time>2010-06-10T14:45:21Z</time></trkpt>
<trkpt lat="46.48631300" lon="7.04296400"><ele>834.317993</ele><time>2010-06-10T14:45:22Z</time></trkpt>
<trkpt lat="46.48616700" lon="7.04298100"><ele>832.474976</ele><time>2010-06-10T14:45:26Z</time></trkpt>
<trkpt lat="46.48614400" lon="7.04302400"><ele>832.072021</ele><time>2010-06-10T14:45:27Z</time></trkpt>
<trkpt lat="46.48601800" lon="7.04316000"><ele>831.677979</ele><time>2010-06-10T14:45:32Z</time></trkpt>
<trkpt lat="46.48590000" lon="7.04317600"><ele>832.942017</ele><time>2010-06-10T14:45:36Z</time></trkpt>
<trkpt lat="46.48589200" lon="7.04329600"><ele>831.765991</ele><time>2010-06-10T14:45:40Z</time></trkpt>
<trkpt lat="46.48590700" lon="7.04330800"><ele>831.982971</ele><time>2010-06-10T14:45:43Z</time></trkpt>
</trkseg></trk></gpx>